<?xml version="1.0" encoding="UTF-8" standalone="no" ?>
<gpx xmlns="http://www.topografix.com/GPX/1/1" xmlns:xsi="http://www.w3.org/2001/XMLSchema-instance" xsi:schemaLocation="http://www.topografix.com/GPX/1/1 http://www.topografix.com/GPX/1/1/gpx.xsd" version="1.1" creator="VisuGPX - https://www.visugpx.com">
  <metadata>
    <name>Les falaises de Rognac</name>
    <desc><![CDATA[Superbes vues sur l'étang de Berre.
Ce sont ces falaises verticales que l'on voit de l'autoroute.]]></desc>
  </metadata>
  <trk>
    <name><![CDATA[2021-03-14 14:59:20]]></name>
    <trkseg>
      <trkpt lat="43.50303" lon="5.25678">
        <ele>165.48</ele>
        <time>2021-03-14T09:48:22Z</time>
      </trkpt>
      <trkpt lat="43.50306" lon="5.25683">
        <ele>165.96</ele>
        <time>2021-03-14T09:48:27Z</time>
      </trkpt>
      <trkpt lat="43.50294" lon="5.25673">
        <ele>177.98</ele>
        <time>2021-03-14T09:48:42Z</time>
      </trkpt>
      <trkpt lat="43.50277" lon="5.25675">
        <ele>156.83</ele>
        <time>2021-03-14T09:48:55Z</time>
      </trkpt>
      <trkpt lat="43.50274" lon="5.25675">
        <ele>146.74</ele>
        <time>2021-03-14T09:48:59Z</time>
      </trkpt>
      <trkpt lat="43.50269" lon="5.25671">
        <ele>140.97</ele>
        <time>2021-03-14T09:49:03Z</time>
      </trkpt>
      <trkpt lat="43.5025" lon="5.25663">
        <ele>136.16</ele>
        <time>2021-03-14T09:49:15Z</time>
      </trkpt>
      <trkpt lat="43.50249" lon="5.25664">
        <ele>136.16</ele>
        <time>2021-03-14T09:49:16Z</time>
      </trkpt>
      <trkpt lat="43.50228" lon="5.25665">
        <ele>130.88</ele>
        <time>2021-03-14T09:49:29Z</time>
      </trkpt>
      <trkpt lat="43.50222" lon="5.25665">
        <ele>131.84</ele>
        <time>2021-03-14T09:49:35Z</time>
      </trkpt>
      <trkpt lat="43.50208" lon="5.25669">
        <ele>126.55</ele>
        <time>2021-03-14T09:49:46Z</time>
      </trkpt>
      <trkpt lat="43.50192" lon="5.25663">
        <ele>122.71</ele>
        <time>2021-03-14T09:49:59Z</time>
      </trkpt>
      <trkpt lat="43.50185" lon="5.25654">
        <ele>125.11</ele>
        <time>2021-03-14T09:50:10Z</time>
      </trkpt>
      <trkpt lat="43.50176" lon="5.25648">
        <ele>123.19</ele>
        <time>2021-03-14T09:50:24Z</time>
      </trkpt>
      <trkpt lat="43.50165" lon="5.25641">
        <ele>119.34</ele>
        <time>2021-03-14T09:50:35Z</time>
      </trkpt>
      <trkpt lat="43.50153" lon="5.25636">
        <ele>118.86</ele>
        <time>2021-03-14T09:50:46Z</time>
      </trkpt>
      <trkpt lat="43.50143" lon="5.25628">
        <ele>116.46</ele>
        <time>2021-03-14T09:50:57Z</time>
      </trkpt>
      <trkpt lat="43.50131" lon="5.25619">
        <ele>114.05</ele>
        <time>2021-03-14T09:51:09Z</time>
      </trkpt>
      <trkpt lat="43.50121" lon="5.25612">
        <ele>111.17</ele>
        <time>2021-03-14T09:51:19Z</time>
      </trkpt>
      <trkpt lat="43.50108" lon="5.25599">
        <ele>107.32</ele>
        <time>2021-03-14T09:51:31Z</time>
      </trkpt>
      <trkpt lat="43.50104" lon="5.25596">
        <ele>106.36</ele>
        <time>2021-03-14T09:51:35Z</time>
      </trkpt>
      <trkpt lat="43.50096" lon="5.25587">
        <ele>106.84</ele>
        <time>2021-03-14T09:51:44Z</time>
      </trkpt>
      <trkpt lat="43.50085" lon="5.25575">
        <ele>108.77</ele>
        <time>2021-03-14T09:51:56Z</time>
      </trkpt>
      <trkpt lat="43.50076" lon="5.25564">
        <ele>108.29</ele>
        <time>2021-03-14T09:52:07Z</time>
      </trkpt>
      <trkpt lat="43.50074" lon="5.2556">
        <ele>108.29</ele>
        <time>2021-03-14T09:52:11Z</time>
      </trkpt>
      <trkpt lat="43.50065" lon="5.25547">
        <ele>111.17</ele>
        <time>2021-03-14T09:52:23Z</time>
      </trkpt>
      <trkpt lat="43.50056" lon="5.25534">
        <ele>112.61</ele>
        <time>2021-03-14T09:52:34Z</time>
      </trkpt>
      <trkpt lat="43.50051" lon="5.25525">
        <ele>112.13</ele>
        <time>2021-03-14T09:52:42Z</time>
      </trkpt>
      <trkpt lat="43.50051" lon="5.25509">
        <ele>113.09</ele>
        <time>2021-03-14T09:52:53Z</time>
      </trkpt>
      <trkpt lat="43.50052" lon="5.25501">
        <ele>113.57</ele>
        <time>2021-03-14T09:52:59Z</time>
      </trkpt>
      <trkpt lat="43.50052" lon="5.25498">
        <ele>113.57</ele>
        <time>2021-03-14T09:53:01Z</time>
      </trkpt>
      <trkpt lat="43.50057" lon="5.25483">
        <ele>116.46</ele>
        <time>2021-03-14T09:53:14Z</time>
      </trkpt>
      <trkpt lat="43.50059" lon="5.2548">
        <ele>117.9</ele>
        <time>2021-03-14T09:53:18Z</time>
      </trkpt>
      <trkpt lat="43.50069" lon="5.2547">
        <ele>119.82</ele>
        <time>2021-03-14T09:53:30Z</time>
      </trkpt>
      <trkpt lat="43.50076" lon="5.25462">
        <ele>120.3</ele>
        <time>2021-03-14T09:53:41Z</time>
      </trkpt>
      <trkpt lat="43.50078" lon="5.25457">
        <ele>120.78</ele>
        <time>2021-03-14T09:53:45Z</time>
      </trkpt>
      <trkpt lat="43.50079" lon="5.25455">
        <ele>120.78</ele>
        <time>2021-03-14T09:53:47Z</time>
      </trkpt>
      <trkpt lat="43.50081" lon="5.25451">
        <ele>121.26</ele>
        <time>2021-03-14T09:53:50Z</time>
      </trkpt>
      <trkpt lat="43.5009" lon="5.25437">
        <ele>122.71</ele>
        <time>2021-03-14T09:54:03Z</time>
      </trkpt>
      <trkpt lat="43.50097" lon="5.25424">
        <ele>124.15</ele>
        <time>2021-03-14T09:54:15Z</time>
      </trkpt>
      <trkpt lat="43.50099" lon="5.25422">
        <ele>125.11</ele>
        <time>2021-03-14T09:54:17Z</time>
      </trkpt>
      <trkpt lat="43.50108" lon="5.25413">
        <ele>127.51</ele>
        <time>2021-03-14T09:54:29Z</time>
      </trkpt>
      <trkpt lat="43.50113" lon="5.25409">
        <ele>128.47</ele>
        <time>2021-03-14T09:54:43Z</time>
      </trkpt>
      <trkpt lat="43.50115" lon="5.25406">
        <ele>128.47</ele>
        <time>2021-03-14T09:54:46Z</time>
      </trkpt>
      <trkpt lat="43.50118" lon="5.25403">
        <ele>127.99</ele>
        <time>2021-03-14T09:54:49Z</time>
      </trkpt>
      <trkpt lat="43.50121" lon="5.25397">
        <ele>127.51</ele>
        <time>2021-03-14T09:54:54Z</time>
      </trkpt>
      <trkpt lat="43.50132" lon="5.25378">
        <ele>127.51</ele>
        <time>2021-03-14T09:55:09Z</time>
      </trkpt>
      <trkpt lat="43.5014" lon="5.25366">
        <ele>127.03</ele>
        <time>2021-03-14T09:55:20Z</time>
      </trkpt>
      <trkpt lat="43.50145" lon="5.25358">
        <ele>128.47</ele>
        <time>2021-03-14T09:55:27Z</time>
      </trkpt>
      <trkpt lat="43.50149" lon="5.2535">
        <ele>128.95</ele>
        <time>2021-03-14T09:55:33Z</time>
      </trkpt>
      <trkpt lat="43.50151" lon="5.25347">
        <ele>128.95</ele>
        <time>2021-03-14T09:55:36Z</time>
      </trkpt>
      <trkpt lat="43.50152" lon="5.25345">
        <ele>128.95</ele>
        <time>2021-03-14T09:55:38Z</time>
      </trkpt>
      <trkpt lat="43.50158" lon="5.25333">
        <ele>129.43</ele>
        <time>2021-03-14T09:55:48Z</time>
      </trkpt>
      <trkpt lat="43.50165" lon="5.25321">
        <ele>130.88</ele>
        <time>2021-03-14T09:55:58Z</time>
      </trkpt>
      <trkpt lat="43.50168" lon="5.25316">
        <ele>129.92</ele>
        <time>2021-03-14T09:56:02Z</time>
      </trkpt>
      <trkpt lat="43.50169" lon="5.25313">
        <ele>129.43</ele>
        <time>2021-03-14T09:56:05Z</time>
      </trkpt>
      <trkpt lat="43.50175" lon="5.253">
        <ele>129.92</ele>
        <time>2021-03-14T09:56:16Z</time>
      </trkpt>
      <trkpt lat="43.50182" lon="5.25287">
        <ele>130.88</ele>
        <time>2021-03-14T09:56:27Z</time>
      </trkpt>
      <trkpt lat="43.50191" lon="5.25272">
        <ele>131.36</ele>
        <time>2021-03-14T09:56:39Z</time>
      </trkpt>
      <trkpt lat="43.50197" lon="5.2526">
        <ele>131.36</ele>
        <time>2021-03-14T09:56:49Z</time>
      </trkpt>
      <trkpt lat="43.50199" lon="5.25254">
        <ele>130.4</ele>
        <time>2021-03-14T09:56:54Z</time>
      </trkpt>
      <trkpt lat="43.50203" lon="5.25233">
        <ele>130.4</ele>
        <time>2021-03-14T09:57:08Z</time>
      </trkpt>
      <trkpt lat="43.50203" lon="5.25232">
        <ele>130.4</ele>
        <time>2021-03-14T09:57:09Z</time>
      </trkpt>
      <trkpt lat="43.50206" lon="5.25224">
        <ele>130.4</ele>
        <time>2021-03-14T09:57:14Z</time>
      </trkpt>
      <trkpt lat="43.50207" lon="5.25221">
        <ele>130.88</ele>
        <time>2021-03-14T09:57:17Z</time>
      </trkpt>
      <trkpt lat="43.50213" lon="5.2521">
        <ele>131.84</ele>
        <time>2021-03-14T09:57:25Z</time>
      </trkpt>
      <trkpt lat="43.5022" lon="5.25198">
        <ele>134.24</ele>
        <time>2021-03-14T09:57:36Z</time>
      </trkpt>
      <trkpt lat="43.50226" lon="5.25192">
        <ele>138.57</ele>
        <time>2021-03-14T09:57:44Z</time>
      </trkpt>
      <trkpt lat="43.50229" lon="5.25187">
        <ele>140.01</ele>
        <time>2021-03-14T09:57:49Z</time>
      </trkpt>
      <trkpt lat="43.50235" lon="5.25182">
        <ele>143.37</ele>
        <time>2021-03-14T09:57:57Z</time>
      </trkpt>
      <trkpt lat="43.50238" lon="5.25181">
        <ele>144.34</ele>
        <time>2021-03-14T09:58:00Z</time>
      </trkpt>
      <trkpt lat="43.50247" lon="5.2517">
        <ele>148.66</ele>
        <time>2021-03-14T09:58:10Z</time>
      </trkpt>
      <trkpt lat="43.50255" lon="5.25162">
        <ele>149.14</ele>
        <time>2021-03-14T09:58:19Z</time>
      </trkpt>
      <trkpt lat="43.50264" lon="5.25152">
        <ele>148.66</ele>
        <time>2021-03-14T09:58:30Z</time>
      </trkpt>
      <trkpt lat="43.50269" lon="5.25143">
        <ele>147.7</ele>
        <time>2021-03-14T09:58:37Z</time>
      </trkpt>
      <trkpt lat="43.50271" lon="5.25139">
        <ele>147.7</ele>
        <time>2021-03-14T09:58:40Z</time>
      </trkpt>
      <trkpt lat="43.50283" lon="5.25132">
        <ele>150.58</ele>
        <time>2021-03-14T09:58:52Z</time>
      </trkpt>
      <trkpt lat="43.5029" lon="5.25127">
        <ele>152.99</ele>
        <time>2021-03-14T09:59:01Z</time>
      </trkpt>
      <trkpt lat="43.50294" lon="5.25123">
        <ele>154.43</ele>
        <time>2021-03-14T09:59:06Z</time>
      </trkpt>
      <trkpt lat="43.50295" lon="5.2512">
        <ele>154.91</ele>
        <time>2021-03-14T09:59:08Z</time>
      </trkpt>
      <trkpt lat="43.50297" lon="5.25116">
        <ele>154.91</ele>
        <time>2021-03-14T09:59:11Z</time>
      </trkpt>
      <trkpt lat="43.50299" lon="5.25113">
        <ele>154.91</ele>
        <time>2021-03-14T09:59:14Z</time>
      </trkpt>
      <trkpt lat="43.50304" lon="5.25098">
        <ele>154.91</ele>
        <time>2021-03-14T09:59:25Z</time>
      </trkpt>
      <trkpt lat="43.50304" lon="5.25078">
        <ele>154.91</ele>
        <time>2021-03-14T09:59:37Z</time>
      </trkpt>
      <trkpt lat="43.50304" lon="5.25076">
        <ele>154.91</ele>
        <time>2021-03-14T09:59:38Z</time>
      </trkpt>
      <trkpt lat="43.503" lon="5.25057">
        <ele>152.99</ele>
        <time>2021-03-14T09:59:51Z</time>
      </trkpt>
      <trkpt lat="43.503" lon="5.25054">
        <ele>153.47</ele>
        <time>2021-03-14T09:59:54Z</time>
      </trkpt>
      <trkpt lat="43.50302" lon="5.2505">
        <ele>153.95</ele>
        <time>2021-03-14T09:59:58Z</time>
      </trkpt>
      <trkpt lat="43.50306" lon="5.25047">
        <ele>154.91</ele>
        <time>2021-03-14T10:00:03Z</time>
      </trkpt>
      <trkpt lat="43.50313" lon="5.25045">
        <ele>158.27</ele>
        <time>2021-03-14T10:00:11Z</time>
      </trkpt>
      <trkpt lat="43.50324" lon="5.25039">
        <ele>159.72</ele>
        <time>2021-03-14T10:00:22Z</time>
      </trkpt>
      <trkpt lat="43.50333" lon="5.25034">
        <ele>161.64</ele>
        <time>2021-03-14T10:00:31Z</time>
      </trkpt>
      <trkpt lat="43.50336" lon="5.25033">
        <ele>161.64</ele>
        <time>2021-03-14T10:00:34Z</time>
      </trkpt>
      <trkpt lat="43.50339" lon="5.25031">
        <ele>161.64</ele>
        <time>2021-03-14T10:00:37Z</time>
      </trkpt>
      <trkpt lat="43.5035" lon="5.25023">
        <ele>163.08</ele>
        <time>2021-03-14T10:00:48Z</time>
      </trkpt>
      <trkpt lat="43.50353" lon="5.25021">
        <ele>163.56</ele>
        <time>2021-03-14T10:00:51Z</time>
      </trkpt>
      <trkpt lat="43.50355" lon="5.25019">
        <ele>164.04</ele>
        <time>2021-03-14T10:00:54Z</time>
      </trkpt>
      <trkpt lat="43.50358" lon="5.25017">
        <ele>164.52</ele>
        <time>2021-03-14T10:00:57Z</time>
      </trkpt>
      <trkpt lat="43.50359" lon="5.25014">
        <ele>164.52</ele>
        <time>2021-03-14T10:00:59Z</time>
      </trkpt>
      <trkpt lat="43.50365" lon="5.25002">
        <ele>165</ele>
        <time>2021-03-14T10:01:08Z</time>
      </trkpt>
      <trkpt lat="43.50366" lon="5.24999">
        <ele>165</ele>
        <time>2021-03-14T10:01:10Z</time>
      </trkpt>
      <trkpt lat="43.50369" lon="5.24994">
        <ele>163.56</ele>
        <time>2021-03-14T10:01:14Z</time>
      </trkpt>
      <trkpt lat="43.50369" lon="5.24991">
        <ele>163.08</ele>
        <time>2021-03-14T10:01:16Z</time>
      </trkpt>
      <trkpt lat="43.5037" lon="5.24989">
        <ele>163.08</ele>
        <time>2021-03-14T10:01:18Z</time>
      </trkpt>
      <trkpt lat="43.50373" lon="5.24976">
        <ele>162.6</ele>
        <time>2021-03-14T10:01:27Z</time>
      </trkpt>
      <trkpt lat="43.50375" lon="5.2496">
        <ele>160.68</ele>
        <time>2021-03-14T10:01:39Z</time>
      </trkpt>
      <trkpt lat="43.50375" lon="5.24956">
        <ele>159.72</ele>
        <time>2021-03-14T10:01:42Z</time>
      </trkpt>
      <trkpt lat="43.50374" lon="5.24935">
        <ele>159.72</ele>
        <time>2021-03-14T10:01:56Z</time>
      </trkpt>
      <trkpt lat="43.50375" lon="5.2493">
        <ele>160.2</ele>
        <time>2021-03-14T10:02:02Z</time>
      </trkpt>
      <trkpt lat="43.50382" lon="5.24916">
        <ele>164.52</ele>
        <time>2021-03-14T10:02:15Z</time>
      </trkpt>
      <trkpt lat="43.50388" lon="5.24903">
        <ele>164.52</ele>
        <time>2021-03-14T10:02:26Z</time>
      </trkpt>
      <trkpt lat="43.50395" lon="5.24891">
        <ele>165</ele>
        <time>2021-03-14T10:02:37Z</time>
      </trkpt>
      <trkpt lat="43.50397" lon="5.24887">
        <ele>165</ele>
        <time>2021-03-14T10:02:40Z</time>
      </trkpt>
      <trkpt lat="43.504" lon="5.24882">
        <ele>165.48</ele>
        <time>2021-03-14T10:02:45Z</time>
      </trkpt>
      <trkpt lat="43.50402" lon="5.2488">
        <ele>165.96</ele>
        <time>2021-03-14T10:02:47Z</time>
      </trkpt>
      <trkpt lat="43.50405" lon="5.24876">
        <ele>165.96</ele>
        <time>2021-03-14T10:02:50Z</time>
      </trkpt>
      <trkpt lat="43.50406" lon="5.24875">
        <ele>166.45</ele>
        <time>2021-03-14T10:02:52Z</time>
      </trkpt>
      <trkpt lat="43.50409" lon="5.24871">
        <ele>166.93</ele>
        <time>2021-03-14T10:02:55Z</time>
      </trkpt>
      <trkpt lat="43.50411" lon="5.2487">
        <ele>167.41</ele>
        <time>2021-03-14T10:02:57Z</time>
      </trkpt>
      <trkpt lat="43.50421" lon="5.24857">
        <ele>169.33</ele>
        <time>2021-03-14T10:03:10Z</time>
      </trkpt>
      <trkpt lat="43.50422" lon="5.24855">
        <ele>169.33</ele>
        <time>2021-03-14T10:03:12Z</time>
      </trkpt>
      <trkpt lat="43.5042" lon="5.24845">
        <ele>167.89</ele>
        <time>2021-03-14T10:03:25Z</time>
      </trkpt>
      <trkpt lat="43.5042" lon="5.24841">
        <ele>167.41</ele>
        <time>2021-03-14T10:03:35Z</time>
      </trkpt>
      <trkpt lat="43.50421" lon="5.24836">
        <ele>166.45</ele>
        <time>2021-03-14T10:03:40Z</time>
      </trkpt>
      <trkpt lat="43.50415" lon="5.2484">
        <ele>165.96</ele>
        <time>2021-03-14T10:03:46Z</time>
      </trkpt>
      <trkpt lat="43.50409" lon="5.2484">
        <ele>165.96</ele>
        <time>2021-03-14T10:03:52Z</time>
      </trkpt>
      <trkpt lat="43.50406" lon="5.24838">
        <ele>167.41</ele>
        <time>2021-03-14T10:04:03Z</time>
      </trkpt>
      <trkpt lat="43.50404" lon="5.24837">
        <ele>167.89</ele>
        <time>2021-03-14T10:04:09Z</time>
      </trkpt>
      <trkpt lat="43.50399" lon="5.24833">
        <ele>167.89</ele>
        <time>2021-03-14T10:04:15Z</time>
      </trkpt>
      <trkpt lat="43.50388" lon="5.24827">
        <ele>169.81</ele>
        <time>2021-03-14T10:04:27Z</time>
      </trkpt>
      <trkpt lat="43.50382" lon="5.24823">
        <ele>173.17</ele>
        <time>2021-03-14T10:04:39Z</time>
      </trkpt>
      <trkpt lat="43.50378" lon="5.24818">
        <ele>176.06</ele>
        <time>2021-03-14T10:04:52Z</time>
      </trkpt>
      <trkpt lat="43.50377" lon="5.24816">
        <ele>176.06</ele>
        <time>2021-03-14T10:04:57Z</time>
      </trkpt>
      <trkpt lat="43.50373" lon="5.24815">
        <ele>176.06</ele>
        <time>2021-03-14T10:05:00Z</time>
      </trkpt>
      <trkpt lat="43.5036" lon="5.24807">
        <ele>176.54</ele>
        <time>2021-03-14T10:05:13Z</time>
      </trkpt>
      <trkpt lat="43.50345" lon="5.24803">
        <ele>176.54</ele>
        <time>2021-03-14T10:05:26Z</time>
      </trkpt>
      <trkpt lat="43.50331" lon="5.24799">
        <ele>176.06</ele>
        <time>2021-03-14T10:05:38Z</time>
      </trkpt>
      <trkpt lat="43.50324" lon="5.24798">
        <ele>175.58</ele>
        <time>2021-03-14T10:05:48Z</time>
      </trkpt>
      <trkpt lat="43.50325" lon="5.24797">
        <ele>176.54</ele>
        <time>2021-03-14T10:06:00Z</time>
      </trkpt>
      <trkpt lat="43.50326" lon="5.24795">
        <ele>176.54</ele>
        <time>2021-03-14T10:06:03Z</time>
      </trkpt>
      <trkpt lat="43.50326" lon="5.24792">
        <ele>177.02</ele>
        <time>2021-03-14T10:06:21Z</time>
      </trkpt>
      <trkpt lat="43.50325" lon="5.24796">
        <ele>178.46</ele>
        <time>2021-03-14T10:06:44Z</time>
      </trkpt>
      <trkpt lat="43.50326" lon="5.24795">
        <ele>177.5</ele>
        <time>2021-03-14T10:06:57Z</time>
      </trkpt>
      <trkpt lat="43.50325" lon="5.24796">
        <ele>177.98</ele>
        <time>2021-03-14T10:06:58Z</time>
      </trkpt>
      <trkpt lat="43.5032" lon="5.248">
        <ele>177.98</ele>
        <time>2021-03-14T10:07:03Z</time>
      </trkpt>
      <trkpt lat="43.50318" lon="5.24801">
        <ele>177.98</ele>
        <time>2021-03-14T10:07:05Z</time>
      </trkpt>
      <trkpt lat="43.50312" lon="5.24805">
        <ele>178.46</ele>
        <time>2021-03-14T10:07:12Z</time>
      </trkpt>
      <trkpt lat="43.50309" lon="5.24807">
        <ele>177.98</ele>
        <time>2021-03-14T10:07:15Z</time>
      </trkpt>
      <trkpt lat="43.50308" lon="5.24808">
        <ele>177.98</ele>
        <time>2021-03-14T10:07:17Z</time>
      </trkpt>
      <trkpt lat="43.50298" lon="5.24814">
        <ele>177.02</ele>
        <time>2021-03-14T10:07:27Z</time>
      </trkpt>
      <trkpt lat="43.50295" lon="5.24814">
        <ele>177.02</ele>
        <time>2021-03-14T10:07:29Z</time>
      </trkpt>
      <trkpt lat="43.50292" lon="5.24816">
        <ele>177.02</ele>
        <time>2021-03-14T10:07:32Z</time>
      </trkpt>
      <trkpt lat="43.50287" lon="5.24818">
        <ele>177.5</ele>
        <time>2021-03-14T10:07:37Z</time>
      </trkpt>
      <trkpt lat="43.50284" lon="5.24819">
        <ele>177.5</ele>
        <time>2021-03-14T10:07:40Z</time>
      </trkpt>
      <trkpt lat="43.50282" lon="5.2482">
        <ele>177.5</ele>
        <time>2021-03-14T10:07:42Z</time>
      </trkpt>
      <trkpt lat="43.5028" lon="5.24821">
        <ele>177.5</ele>
        <time>2021-03-14T10:07:45Z</time>
      </trkpt>
      <trkpt lat="43.50281" lon="5.24821">
        <ele>178.46</ele>
        <time>2021-03-14T10:07:56Z</time>
      </trkpt>
      <trkpt lat="43.50283" lon="5.24819">
        <ele>179.9</ele>
        <time>2021-03-14T10:08:12Z</time>
      </trkpt>
      <trkpt lat="43.50281" lon="5.2482">
        <ele>180.38</ele>
        <time>2021-03-14T10:08:33Z</time>
      </trkpt>
      <trkpt lat="43.50282" lon="5.24819">
        <ele>179.9</ele>
        <time>2021-03-14T10:08:45Z</time>
      </trkpt>
      <trkpt lat="43.50281" lon="5.24818">
        <ele>180.87</ele>
        <time>2021-03-14T10:09:03Z</time>
      </trkpt>
      <trkpt lat="43.50281" lon="5.24818">
        <ele>180.87</ele>
        <time>2021-03-14T10:09:18Z</time>
      </trkpt>
      <trkpt lat="43.5028" lon="5.24815">
        <ele>181.35</ele>
        <time>2021-03-14T10:09:31Z</time>
      </trkpt>
      <trkpt lat="43.50279" lon="5.24817">
        <ele>180.38</ele>
        <time>2021-03-14T10:09:53Z</time>
      </trkpt>
      <trkpt lat="43.50278" lon="5.24817">
        <ele>179.42</ele>
        <time>2021-03-14T10:10:21Z</time>
      </trkpt>
      <trkpt lat="43.50279" lon="5.24817">
        <ele>178.94</ele>
        <time>2021-03-14T10:10:35Z</time>
      </trkpt>
      <trkpt lat="43.50267" lon="5.24822">
        <ele>178.94</ele>
        <time>2021-03-14T10:10:45Z</time>
      </trkpt>
      <trkpt lat="43.50264" lon="5.24823">
        <ele>178.94</ele>
        <time>2021-03-14T10:10:50Z</time>
      </trkpt>
      <trkpt lat="43.5026" lon="5.24826">
        <ele>178.94</ele>
        <time>2021-03-14T10:10:54Z</time>
      </trkpt>
      <trkpt lat="43.50248" lon="5.24829">
        <ele>178.46</ele>
        <time>2021-03-14T10:11:02Z</time>
      </trkpt>
      <trkpt lat="43.50246" lon="5.24831">
        <ele>177.5</ele>
        <time>2021-03-14T10:11:17Z</time>
      </trkpt>
      <trkpt lat="43.50248" lon="5.24831">
        <ele>177.02</ele>
        <time>2021-03-14T10:11:37Z</time>
      </trkpt>
      <trkpt lat="43.50242" lon="5.24836">
        <ele>177.5</ele>
        <time>2021-03-14T10:12:01Z</time>
      </trkpt>
      <trkpt lat="43.50224" lon="5.24844">
        <ele>176.54</ele>
        <time>2021-03-14T10:12:15Z</time>
      </trkpt>
      <trkpt lat="43.50205" lon="5.24851">
        <ele>175.58</ele>
        <time>2021-03-14T10:12:28Z</time>
      </trkpt>
      <trkpt lat="43.50201" lon="5.24851">
        <ele>175.58</ele>
        <time>2021-03-14T10:12:33Z</time>
      </trkpt>
      <trkpt lat="43.50197" lon="5.2485">
        <ele>176.54</ele>
        <time>2021-03-14T10:12:38Z</time>
      </trkpt>
      <trkpt lat="43.50186" lon="5.2485">
        <ele>176.54</ele>
        <time>2021-03-14T10:12:49Z</time>
      </trkpt>
      <trkpt lat="43.50174" lon="5.24855">
        <ele>176.54</ele>
        <time>2021-03-14T10:13:00Z</time>
      </trkpt>
      <trkpt lat="43.50163" lon="5.24858">
        <ele>177.02</ele>
        <time>2021-03-14T10:13:12Z</time>
      </trkpt>
      <trkpt lat="43.50163" lon="5.24858">
        <ele>174.14</ele>
        <time>2021-03-14T10:13:30Z</time>
      </trkpt>
      <trkpt lat="43.50162" lon="5.24858">
        <ele>173.17</ele>
        <time>2021-03-14T10:13:47Z</time>
      </trkpt>
      <trkpt lat="43.50161" lon="5.24858">
        <ele>173.66</ele>
        <time>2021-03-14T10:13:49Z</time>
      </trkpt>
      <trkpt lat="43.50159" lon="5.2486">
        <ele>174.62</ele>
        <time>2021-03-14T10:13:51Z</time>
      </trkpt>
      <trkpt lat="43.50147" lon="5.24863">
        <ele>176.54</ele>
        <time>2021-03-14T10:14:03Z</time>
      </trkpt>
      <trkpt lat="43.50121" lon="5.24877">
        <ele>176.06</ele>
        <time>2021-03-14T10:14:19Z</time>
      </trkpt>
      <trkpt lat="43.50103" lon="5.24899">
        <ele>171.73</ele>
        <time>2021-03-14T10:14:33Z</time>
      </trkpt>
      <trkpt lat="43.50076" lon="5.24903">
        <ele>172.21</ele>
        <time>2021-03-14T10:14:49Z</time>
      </trkpt>
      <trkpt lat="43.50053" lon="5.24903">
        <ele>171.25</ele>
        <time>2021-03-14T10:15:03Z</time>
      </trkpt>
      <trkpt lat="43.50041" lon="5.24903">
        <ele>173.17</ele>
        <time>2021-03-14T10:15:14Z</time>
      </trkpt>
      <trkpt lat="43.50031" lon="5.24901">
        <ele>174.14</ele>
        <time>2021-03-14T10:15:23Z</time>
      </trkpt>
      <trkpt lat="43.50029" lon="5.249">
        <ele>174.14</ele>
        <time>2021-03-14T10:15:25Z</time>
      </trkpt>
      <trkpt lat="43.50028" lon="5.249">
        <ele>174.14</ele>
        <time>2021-03-14T10:15:26Z</time>
      </trkpt>
      <trkpt lat="43.50027" lon="5.24899">
        <ele>174.14</ele>
        <time>2021-03-14T10:15:27Z</time>
      </trkpt>
      <trkpt lat="43.50025" lon="5.24899">
        <ele>174.14</ele>
        <time>2021-03-14T10:15:28Z</time>
      </trkpt>
      <trkpt lat="43.50023" lon="5.24898">
        <ele>174.14</ele>
        <time>2021-03-14T10:15:30Z</time>
      </trkpt>
      <trkpt lat="43.50022" lon="5.24896">
        <ele>174.62</ele>
        <time>2021-03-14T10:15:31Z</time>
      </trkpt>
      <trkpt lat="43.5002" lon="5.24895">
        <ele>174.62</ele>
        <time>2021-03-14T10:15:33Z</time>
      </trkpt>
      <trkpt lat="43.50008" lon="5.24889">
        <ele>174.14</ele>
        <time>2021-03-14T10:15:44Z</time>
      </trkpt>
      <trkpt lat="43.49998" lon="5.24886">
        <ele>174.62</ele>
        <time>2021-03-14T10:15:54Z</time>
      </trkpt>
      <trkpt lat="43.49991" lon="5.24885">
        <ele>176.06</ele>
        <time>2021-03-14T10:16:01Z</time>
      </trkpt>
      <trkpt lat="43.4998" lon="5.24882">
        <ele>177.02</ele>
        <time>2021-03-14T10:16:13Z</time>
      </trkpt>
      <trkpt lat="43.49969" lon="5.24881">
        <ele>177.98</ele>
        <time>2021-03-14T10:16:23Z</time>
      </trkpt>
      <trkpt lat="43.49966" lon="5.24882">
        <ele>178.46</ele>
        <time>2021-03-14T10:16:26Z</time>
      </trkpt>
      <trkpt lat="43.49957" lon="5.24885">
        <ele>178.94</ele>
        <time>2021-03-14T10:16:35Z</time>
      </trkpt>
      <trkpt lat="43.49949" lon="5.24887">
        <ele>178.94</ele>
        <time>2021-03-14T10:16:43Z</time>
      </trkpt>
      <trkpt lat="43.49948" lon="5.24887">
        <ele>178.94</ele>
        <time>2021-03-14T10:16:44Z</time>
      </trkpt>
      <trkpt lat="43.49947" lon="5.24888">
        <ele>178.94</ele>
        <time>2021-03-14T10:16:45Z</time>
      </trkpt>
      <trkpt lat="43.49946" lon="5.24888">
        <ele>178.94</ele>
        <time>2021-03-14T10:16:46Z</time>
      </trkpt>
      <trkpt lat="43.49938" lon="5.24891">
        <ele>178.46</ele>
        <time>2021-03-14T10:16:53Z</time>
      </trkpt>
      <trkpt lat="43.49926" lon="5.24892">
        <ele>177.02</ele>
        <time>2021-03-14T10:17:05Z</time>
      </trkpt>
      <trkpt lat="43.49914" lon="5.24892">
        <ele>176.06</ele>
        <time>2021-03-14T10:17:16Z</time>
      </trkpt>
      <trkpt lat="43.49902" lon="5.2489">
        <ele>175.1</ele>
        <time>2021-03-14T10:17:26Z</time>
      </trkpt>
      <trkpt lat="43.49898" lon="5.2489">
        <ele>175.1</ele>
        <time>2021-03-14T10:17:30Z</time>
      </trkpt>
      <trkpt lat="43.49896" lon="5.2489">
        <ele>175.1</ele>
        <time>2021-03-14T10:17:31Z</time>
      </trkpt>
      <trkpt lat="43.49885" lon="5.24896">
        <ele>175.58</ele>
        <time>2021-03-14T10:17:42Z</time>
      </trkpt>
      <trkpt lat="43.49884" lon="5.24896">
        <ele>175.58</ele>
        <time>2021-03-14T10:17:43Z</time>
      </trkpt>
      <trkpt lat="43.49883" lon="5.24896">
        <ele>175.58</ele>
        <time>2021-03-14T10:17:44Z</time>
      </trkpt>
      <trkpt lat="43.49877" lon="5.24899">
        <ele>175.1</ele>
        <time>2021-03-14T10:17:49Z</time>
      </trkpt>
      <trkpt lat="43.49876" lon="5.249">
        <ele>175.1</ele>
        <time>2021-03-14T10:17:50Z</time>
      </trkpt>
      <trkpt lat="43.49872" lon="5.24901">
        <ele>175.1</ele>
        <time>2021-03-14T10:17:54Z</time>
      </trkpt>
      <trkpt lat="43.49871" lon="5.24901">
        <ele>175.58</ele>
        <time>2021-03-14T10:17:55Z</time>
      </trkpt>
      <trkpt lat="43.49869" lon="5.24902">
        <ele>175.58</ele>
        <time>2021-03-14T10:17:57Z</time>
      </trkpt>
      <trkpt lat="43.49867" lon="5.24903">
        <ele>175.58</ele>
        <time>2021-03-14T10:17:59Z</time>
      </trkpt>
      <trkpt lat="43.49866" lon="5.24903">
        <ele>175.58</ele>
        <time>2021-03-14T10:18:00Z</time>
      </trkpt>
      <trkpt lat="43.49865" lon="5.24903">
        <ele>175.58</ele>
        <time>2021-03-14T10:18:01Z</time>
      </trkpt>
      <trkpt lat="43.49863" lon="5.24903">
        <ele>175.58</ele>
        <time>2021-03-14T10:18:02Z</time>
      </trkpt>
      <trkpt lat="43.49862" lon="5.24904">
        <ele>175.1</ele>
        <time>2021-03-14T10:18:03Z</time>
      </trkpt>
      <trkpt lat="43.49861" lon="5.24904">
        <ele>175.1</ele>
        <time>2021-03-14T10:18:04Z</time>
      </trkpt>
      <trkpt lat="43.4986" lon="5.24904">
        <ele>175.1</ele>
        <time>2021-03-14T10:18:05Z</time>
      </trkpt>
      <trkpt lat="43.49858" lon="5.24904">
        <ele>174.62</ele>
        <time>2021-03-14T10:18:06Z</time>
      </trkpt>
      <trkpt lat="43.49857" lon="5.24904">
        <ele>174.62</ele>
        <time>2021-03-14T10:18:07Z</time>
      </trkpt>
      <trkpt lat="43.49843" lon="5.24904">
        <ele>174.14</ele>
        <time>2021-03-14T10:18:19Z</time>
      </trkpt>
      <trkpt lat="43.49832" lon="5.24901">
        <ele>174.62</ele>
        <time>2021-03-14T10:18:30Z</time>
      </trkpt>
      <trkpt lat="43.49827" lon="5.24901">
        <ele>175.1</ele>
        <time>2021-03-14T10:18:34Z</time>
      </trkpt>
      <trkpt lat="43.49826" lon="5.24902">
        <ele>174.62</ele>
        <time>2021-03-14T10:18:35Z</time>
      </trkpt>
      <trkpt lat="43.49824" lon="5.24903">
        <ele>174.14</ele>
        <time>2021-03-14T10:18:37Z</time>
      </trkpt>
      <trkpt lat="43.49823" lon="5.24902">
        <ele>174.14</ele>
        <time>2021-03-14T10:18:38Z</time>
      </trkpt>
      <trkpt lat="43.49815" lon="5.24901">
        <ele>173.66</ele>
        <time>2021-03-14T10:18:44Z</time>
      </trkpt>
      <trkpt lat="43.49809" lon="5.24897">
        <ele>172.69</ele>
        <time>2021-03-14T10:18:53Z</time>
      </trkpt>
      <trkpt lat="43.4981" lon="5.24896">
        <ele>172.69</ele>
        <time>2021-03-14T10:18:54Z</time>
      </trkpt>
      <trkpt lat="43.49813" lon="5.24895">
        <ele>171.25</ele>
        <time>2021-03-14T10:18:58Z</time>
      </trkpt>
      <trkpt lat="43.49815" lon="5.24896">
        <ele>170.77</ele>
        <time>2021-03-14T10:19:13Z</time>
      </trkpt>
      <trkpt lat="43.49815" lon="5.24895">
        <ele>171.73</ele>
        <time>2021-03-14T10:19:33Z</time>
      </trkpt>
      <trkpt lat="43.49812" lon="5.24894">
        <ele>173.66</ele>
        <time>2021-03-14T10:19:42Z</time>
      </trkpt>
      <trkpt lat="43.49807" lon="5.24896">
        <ele>174.62</ele>
        <time>2021-03-14T10:19:46Z</time>
      </trkpt>
      <trkpt lat="43.49794" lon="5.24879">
        <ele>174.62</ele>
        <time>2021-03-14T10:19:59Z</time>
      </trkpt>
      <trkpt lat="43.49787" lon="5.24872">
        <ele>174.62</ele>
        <time>2021-03-14T10:20:07Z</time>
      </trkpt>
      <trkpt lat="43.49781" lon="5.24866">
        <ele>174.62</ele>
        <time>2021-03-14T10:20:12Z</time>
      </trkpt>
      <trkpt lat="43.49779" lon="5.24863">
        <ele>174.62</ele>
        <time>2021-03-14T10:20:15Z</time>
      </trkpt>
      <trkpt lat="43.4978" lon="5.2486">
        <ele>174.14</ele>
        <time>2021-03-14T10:20:28Z</time>
      </trkpt>
      <trkpt lat="43.49778" lon="5.24858">
        <ele>174.62</ele>
        <time>2021-03-14T10:20:47Z</time>
      </trkpt>
      <trkpt lat="43.49777" lon="5.24861">
        <ele>175.1</ele>
        <time>2021-03-14T10:20:49Z</time>
      </trkpt>
      <trkpt lat="43.4977" lon="5.24859">
        <ele>176.54</ele>
        <time>2021-03-14T10:20:56Z</time>
      </trkpt>
      <trkpt lat="43.49766" lon="5.24854">
        <ele>176.54</ele>
        <time>2021-03-14T10:21:01Z</time>
      </trkpt>
      <trkpt lat="43.49762" lon="5.24849">
        <ele>176.06</ele>
        <time>2021-03-14T10:21:06Z</time>
      </trkpt>
      <trkpt lat="43.49761" lon="5.24848">
        <ele>176.06</ele>
        <time>2021-03-14T10:21:08Z</time>
      </trkpt>
      <trkpt lat="43.49758" lon="5.24842">
        <ele>175.58</ele>
        <time>2021-03-14T10:21:14Z</time>
      </trkpt>
      <trkpt lat="43.49751" lon="5.24834">
        <ele>176.06</ele>
        <time>2021-03-14T10:21:24Z</time>
      </trkpt>
      <trkpt lat="43.49748" lon="5.24827">
        <ele>176.06</ele>
        <time>2021-03-14T10:21:31Z</time>
      </trkpt>
      <trkpt lat="43.49748" lon="5.24824">
        <ele>176.06</ele>
        <time>2021-03-14T10:21:33Z</time>
      </trkpt>
      <trkpt lat="43.49746" lon="5.2482">
        <ele>176.06</ele>
        <time>2021-03-14T10:21:36Z</time>
      </trkpt>
      <trkpt lat="43.49744" lon="5.24816">
        <ele>176.54</ele>
        <time>2021-03-14T10:21:40Z</time>
      </trkpt>
      <trkpt lat="43.49744" lon="5.24813">
        <ele>177.02</ele>
        <time>2021-03-14T10:21:42Z</time>
      </trkpt>
      <trkpt lat="43.49739" lon="5.24805">
        <ele>177.98</ele>
        <time>2021-03-14T10:21:50Z</time>
      </trkpt>
      <trkpt lat="43.49734" lon="5.248">
        <ele>177.98</ele>
        <time>2021-03-14T10:22:04Z</time>
      </trkpt>
      <trkpt lat="43.49734" lon="5.24801">
        <ele>177.98</ele>
        <time>2021-03-14T10:22:24Z</time>
      </trkpt>
      <trkpt lat="43.4973" lon="5.248">
        <ele>176.54</ele>
        <time>2021-03-14T10:22:40Z</time>
      </trkpt>
      <trkpt lat="43.49728" lon="5.24796">
        <ele>175.58</ele>
        <time>2021-03-14T10:22:55Z</time>
      </trkpt>
      <trkpt lat="43.49718" lon="5.24794">
        <ele>174.62</ele>
        <time>2021-03-14T10:23:05Z</time>
      </trkpt>
      <trkpt lat="43.49717" lon="5.24794">
        <ele>175.1</ele>
        <time>2021-03-14T10:23:06Z</time>
      </trkpt>
      <trkpt lat="43.49715" lon="5.24792">
        <ele>174.62</ele>
        <time>2021-03-14T10:23:08Z</time>
      </trkpt>
      <trkpt lat="43.49705" lon="5.2479">
        <ele>175.1</ele>
        <time>2021-03-14T10:23:18Z</time>
      </trkpt>
      <trkpt lat="43.49694" lon="5.24786">
        <ele>175.58</ele>
        <time>2021-03-14T10:23:28Z</time>
      </trkpt>
      <trkpt lat="43.49691" lon="5.24784">
        <ele>175.58</ele>
        <time>2021-03-14T10:23:32Z</time>
      </trkpt>
      <trkpt lat="43.49684" lon="5.24777">
        <ele>176.06</ele>
        <time>2021-03-14T10:23:39Z</time>
      </trkpt>
      <trkpt lat="43.49676" lon="5.24766">
        <ele>173.66</ele>
        <time>2021-03-14T10:23:50Z</time>
      </trkpt>
      <trkpt lat="43.49667" lon="5.24749">
        <ele>173.17</ele>
        <time>2021-03-14T10:24:03Z</time>
      </trkpt>
      <trkpt lat="43.49665" lon="5.24746">
        <ele>173.17</ele>
        <time>2021-03-14T10:24:06Z</time>
      </trkpt>
      <trkpt lat="43.49663" lon="5.24742">
        <ele>173.66</ele>
        <time>2021-03-14T10:24:09Z</time>
      </trkpt>
      <trkpt lat="43.49654" lon="5.24729">
        <ele>175.1</ele>
        <time>2021-03-14T10:24:21Z</time>
      </trkpt>
      <trkpt lat="43.49645" lon="5.24721">
        <ele>174.62</ele>
        <time>2021-03-14T10:24:32Z</time>
      </trkpt>
      <trkpt lat="43.49634" lon="5.24714">
        <ele>173.66</ele>
        <time>2021-03-14T10:24:43Z</time>
      </trkpt>
      <trkpt lat="43.49634" lon="5.24714">
        <ele>174.62</ele>
        <time>2021-03-14T10:24:58Z</time>
      </trkpt>
      <trkpt lat="43.49634" lon="5.24713">
        <ele>173.17</ele>
        <time>2021-03-14T10:25:17Z</time>
      </trkpt>
      <trkpt lat="43.49634" lon="5.24713">
        <ele>173.17</ele>
        <time>2021-03-14T10:25:47Z</time>
      </trkpt>
      <trkpt lat="43.49627" lon="5.24705">
        <ele>174.14</ele>
        <time>2021-03-14T10:26:08Z</time>
      </trkpt>
      <trkpt lat="43.49618" lon="5.24697">
        <ele>174.62</ele>
        <time>2021-03-14T10:26:14Z</time>
      </trkpt>
      <trkpt lat="43.49614" lon="5.24685">
        <ele>173.66</ele>
        <time>2021-03-14T10:26:21Z</time>
      </trkpt>
      <trkpt lat="43.49612" lon="5.24682">
        <ele>175.1</ele>
        <time>2021-03-14T10:26:23Z</time>
      </trkpt>
      <trkpt lat="43.496" lon="5.24661">
        <ele>177.5</ele>
        <time>2021-03-14T10:26:35Z</time>
      </trkpt>
      <trkpt lat="43.49595" lon="5.24656">
        <ele>177.5</ele>
        <time>2021-03-14T10:26:42Z</time>
      </trkpt>
      <trkpt lat="43.4959" lon="5.24645">
        <ele>179.9</ele>
        <time>2021-03-14T10:26:51Z</time>
      </trkpt>
      <trkpt lat="43.4957" lon="5.24631">
        <ele>184.71</ele>
        <time>2021-03-14T10:27:05Z</time>
      </trkpt>
      <trkpt lat="43.49565" lon="5.24628">
        <ele>184.23</ele>
        <time>2021-03-14T10:27:08Z</time>
      </trkpt>
      <trkpt lat="43.49553" lon="5.24621">
        <ele>182.79</ele>
        <time>2021-03-14T10:27:16Z</time>
      </trkpt>
      <trkpt lat="43.49537" lon="5.24609">
        <ele>184.23</ele>
        <time>2021-03-14T10:27:28Z</time>
      </trkpt>
      <trkpt lat="43.49517" lon="5.24598">
        <ele>182.79</ele>
        <time>2021-03-14T10:27:43Z</time>
      </trkpt>
      <trkpt lat="43.49513" lon="5.24599">
        <ele>182.31</ele>
        <time>2021-03-14T10:27:47Z</time>
      </trkpt>
      <trkpt lat="43.49507" lon="5.24599">
        <ele>181.35</ele>
        <time>2021-03-14T10:27:53Z</time>
      </trkpt>
      <trkpt lat="43.49497" lon="5.24602">
        <ele>180.38</ele>
        <time>2021-03-14T10:28:02Z</time>
      </trkpt>
      <trkpt lat="43.49494" lon="5.24604">
        <ele>180.38</ele>
        <time>2021-03-14T10:28:05Z</time>
      </trkpt>
      <trkpt lat="43.49491" lon="5.24605">
        <ele>180.38</ele>
        <time>2021-03-14T10:28:08Z</time>
      </trkpt>
      <trkpt lat="43.49488" lon="5.24606">
        <ele>180.87</ele>
        <time>2021-03-14T10:28:11Z</time>
      </trkpt>
      <trkpt lat="43.49486" lon="5.24606">
        <ele>180.87</ele>
        <time>2021-03-14T10:28:13Z</time>
      </trkpt>
      <trkpt lat="43.49484" lon="5.24608">
        <ele>180.87</ele>
        <time>2021-03-14T10:28:15Z</time>
      </trkpt>
      <trkpt lat="43.49479" lon="5.24609">
        <ele>179.9</ele>
        <time>2021-03-14T10:28:20Z</time>
      </trkpt>
      <trkpt lat="43.49474" lon="5.24612">
        <ele>179.42</ele>
        <time>2021-03-14T10:28:25Z</time>
      </trkpt>
      <trkpt lat="43.49463" lon="5.24618">
        <ele>179.42</ele>
        <time>2021-03-14T10:28:39Z</time>
      </trkpt>
      <trkpt lat="43.49457" lon="5.2462">
        <ele>178.94</ele>
        <time>2021-03-14T10:28:49Z</time>
      </trkpt>
      <trkpt lat="43.49443" lon="5.24622">
        <ele>179.42</ele>
        <time>2021-03-14T10:29:02Z</time>
      </trkpt>
      <trkpt lat="43.49435" lon="5.24623">
        <ele>178.46</ele>
        <time>2021-03-14T10:29:09Z</time>
      </trkpt>
      <trkpt lat="43.49426" lon="5.24624">
        <ele>178.94</ele>
        <time>2021-03-14T10:29:20Z</time>
      </trkpt>
      <trkpt lat="43.49423" lon="5.24624">
        <ele>178.94</ele>
        <time>2021-03-14T10:29:24Z</time>
      </trkpt>
      <trkpt lat="43.49421" lon="5.24625">
        <ele>179.9</ele>
        <time>2021-03-14T10:29:37Z</time>
      </trkpt>
      <trkpt lat="43.49415" lon="5.24623">
        <ele>179.9</ele>
        <time>2021-03-14T10:29:42Z</time>
      </trkpt>
      <trkpt lat="43.49411" lon="5.24623">
        <ele>179.42</ele>
        <time>2021-03-14T10:29:45Z</time>
      </trkpt>
      <trkpt lat="43.49396" lon="5.24621">
        <ele>178.94</ele>
        <time>2021-03-14T10:29:58Z</time>
      </trkpt>
      <trkpt lat="43.49393" lon="5.24622">
        <ele>178.46</ele>
        <time>2021-03-14T10:30:02Z</time>
      </trkpt>
      <trkpt lat="43.4939" lon="5.24621">
        <ele>178.46</ele>
        <time>2021-03-14T10:30:04Z</time>
      </trkpt>
      <trkpt lat="43.49388" lon="5.24621">
        <ele>177.98</ele>
        <time>2021-03-14T10:30:06Z</time>
      </trkpt>
      <trkpt lat="43.49376" lon="5.24617">
        <ele>177.5</ele>
        <time>2021-03-14T10:30:19Z</time>
      </trkpt>
      <trkpt lat="43.49375" lon="5.24618">
        <ele>177.02</ele>
        <time>2021-03-14T10:30:20Z</time>
      </trkpt>
      <trkpt lat="43.49361" lon="5.24605">
        <ele>176.06</ele>
        <time>2021-03-14T10:30:34Z</time>
      </trkpt>
      <trkpt lat="43.4935" lon="5.24598">
        <ele>176.06</ele>
        <time>2021-03-14T10:30:44Z</time>
      </trkpt>
      <trkpt lat="43.4934" lon="5.24595">
        <ele>176.06</ele>
        <time>2021-03-14T10:30:54Z</time>
      </trkpt>
      <trkpt lat="43.49333" lon="5.24592">
        <ele>176.54</ele>
        <time>2021-03-14T10:31:07Z</time>
      </trkpt>
      <trkpt lat="43.49332" lon="5.24593">
        <ele>177.02</ele>
        <time>2021-03-14T10:31:31Z</time>
      </trkpt>
      <trkpt lat="43.49333" lon="5.24593">
        <ele>177.02</ele>
        <time>2021-03-14T10:31:33Z</time>
      </trkpt>
      <trkpt lat="43.49324" lon="5.24584">
        <ele>177.5</ele>
        <time>2021-03-14T10:31:42Z</time>
      </trkpt>
      <trkpt lat="43.49306" lon="5.24558">
        <ele>175.58</ele>
        <time>2021-03-14T10:31:59Z</time>
      </trkpt>
      <trkpt lat="43.49296" lon="5.24544">
        <ele>176.06</ele>
        <time>2021-03-14T10:32:14Z</time>
      </trkpt>
      <trkpt lat="43.49296" lon="5.24543">
        <ele>179.42</ele>
        <time>2021-03-14T10:32:35Z</time>
      </trkpt>
      <trkpt lat="43.49295" lon="5.2454">
        <ele>179.9</ele>
        <time>2021-03-14T10:32:45Z</time>
      </trkpt>
      <trkpt lat="43.49288" lon="5.24516">
        <ele>177.5</ele>
        <time>2021-03-14T10:33:00Z</time>
      </trkpt>
      <trkpt lat="43.49284" lon="5.24498">
        <ele>179.42</ele>
        <time>2021-03-14T10:33:12Z</time>
      </trkpt>
      <trkpt lat="43.49281" lon="5.24477">
        <ele>180.38</ele>
        <time>2021-03-14T10:33:26Z</time>
      </trkpt>
      <trkpt lat="43.4928" lon="5.24472">
        <ele>180.87</ele>
        <time>2021-03-14T10:33:30Z</time>
      </trkpt>
      <trkpt lat="43.4928" lon="5.24463">
        <ele>180.38</ele>
        <time>2021-03-14T10:33:36Z</time>
      </trkpt>
      <trkpt lat="43.4928" lon="5.24447">
        <ele>182.79</ele>
        <time>2021-03-14T10:33:47Z</time>
      </trkpt>
      <trkpt lat="43.49279" lon="5.24441">
        <ele>182.79</ele>
        <time>2021-03-14T10:33:52Z</time>
      </trkpt>
      <trkpt lat="43.49278" lon="5.24436">
        <ele>182.79</ele>
        <time>2021-03-14T10:33:56Z</time>
      </trkpt>
      <trkpt lat="43.49276" lon="5.24425">
        <ele>183.27</ele>
        <time>2021-03-14T10:34:04Z</time>
      </trkpt>
      <trkpt lat="43.49275" lon="5.2442">
        <ele>183.75</ele>
        <time>2021-03-14T10:34:08Z</time>
      </trkpt>
      <trkpt lat="43.49262" lon="5.2441">
        <ele>183.75</ele>
        <time>2021-03-14T10:34:21Z</time>
      </trkpt>
      <trkpt lat="43.49258" lon="5.24408">
        <ele>184.71</ele>
        <time>2021-03-14T10:34:26Z</time>
      </trkpt>
      <trkpt lat="43.49252" lon="5.24409">
        <ele>184.71</ele>
        <time>2021-03-14T10:34:31Z</time>
      </trkpt>
      <trkpt lat="43.49238" lon="5.2441">
        <ele>185.19</ele>
        <time>2021-03-14T10:34:43Z</time>
      </trkpt>
      <trkpt lat="43.49232" lon="5.24411">
        <ele>185.19</ele>
        <time>2021-03-14T10:34:49Z</time>
      </trkpt>
      <trkpt lat="43.49222" lon="5.2441">
        <ele>184.71</ele>
        <time>2021-03-14T10:34:58Z</time>
      </trkpt>
      <trkpt lat="43.4922" lon="5.24409">
        <ele>184.71</ele>
        <time>2021-03-14T10:35:01Z</time>
      </trkpt>
      <trkpt lat="43.49202" lon="5.24414">
        <ele>183.75</ele>
        <time>2021-03-14T10:35:15Z</time>
      </trkpt>
      <trkpt lat="43.49199" lon="5.24415">
        <ele>184.23</ele>
        <time>2021-03-14T10:35:18Z</time>
      </trkpt>
      <trkpt lat="43.49188" lon="5.24415">
        <ele>184.23</ele>
        <time>2021-03-14T10:35:28Z</time>
      </trkpt>
      <trkpt lat="43.49176" lon="5.24417">
        <ele>184.71</ele>
        <time>2021-03-14T10:35:39Z</time>
      </trkpt>
      <trkpt lat="43.49163" lon="5.24418">
        <ele>184.23</ele>
        <time>2021-03-14T10:35:50Z</time>
      </trkpt>
      <trkpt lat="43.49153" lon="5.2442">
        <ele>183.75</ele>
        <time>2021-03-14T10:35:59Z</time>
      </trkpt>
      <trkpt lat="43.49151" lon="5.24419">
        <ele>184.23</ele>
        <time>2021-03-14T10:36:01Z</time>
      </trkpt>
      <trkpt lat="43.49138" lon="5.24421">
        <ele>183.75</ele>
        <time>2021-03-14T10:36:13Z</time>
      </trkpt>
      <trkpt lat="43.49126" lon="5.24424">
        <ele>183.75</ele>
        <time>2021-03-14T10:36:23Z</time>
      </trkpt>
      <trkpt lat="43.49117" lon="5.24427">
        <ele>183.27</ele>
        <time>2021-03-14T10:36:32Z</time>
      </trkpt>
      <trkpt lat="43.49106" lon="5.2443">
        <ele>182.79</ele>
        <time>2021-03-14T10:36:42Z</time>
      </trkpt>
      <trkpt lat="43.49095" lon="5.24433">
        <ele>184.71</ele>
        <time>2021-03-14T10:36:53Z</time>
      </trkpt>
      <trkpt lat="43.49083" lon="5.24435">
        <ele>185.19</ele>
        <time>2021-03-14T10:37:04Z</time>
      </trkpt>
      <trkpt lat="43.49079" lon="5.24436">
        <ele>185.19</ele>
        <time>2021-03-14T10:37:08Z</time>
      </trkpt>
      <trkpt lat="43.49071" lon="5.24439">
        <ele>185.19</ele>
        <time>2021-03-14T10:37:21Z</time>
      </trkpt>
      <trkpt lat="43.49067" lon="5.24447">
        <ele>184.23</ele>
        <time>2021-03-14T10:37:33Z</time>
      </trkpt>
      <trkpt lat="43.49065" lon="5.24449">
        <ele>182.79</ele>
        <time>2021-03-14T10:37:54Z</time>
      </trkpt>
      <trkpt lat="43.49065" lon="5.24449">
        <ele>181.35</ele>
        <time>2021-03-14T10:38:18Z</time>
      </trkpt>
      <trkpt lat="43.49065" lon="5.24452">
        <ele>180.38</ele>
        <time>2021-03-14T10:38:36Z</time>
      </trkpt>
      <trkpt lat="43.49064" lon="5.24449">
        <ele>179.42</ele>
        <time>2021-03-14T10:38:54Z</time>
      </trkpt>
      <trkpt lat="43.49066" lon="5.2444">
        <ele>179.42</ele>
        <time>2021-03-14T10:39:03Z</time>
      </trkpt>
      <trkpt lat="43.49067" lon="5.24436">
        <ele>180.38</ele>
        <time>2021-03-14T10:39:29Z</time>
      </trkpt>
      <trkpt lat="43.49069" lon="5.24432">
        <ele>181.35</ele>
        <time>2021-03-14T10:39:39Z</time>
      </trkpt>
      <trkpt lat="43.49069" lon="5.24433">
        <ele>182.79</ele>
        <time>2021-03-14T10:40:00Z</time>
      </trkpt>
      <trkpt lat="43.49069" lon="5.24432">
        <ele>183.75</ele>
        <time>2021-03-14T10:40:20Z</time>
      </trkpt>
      <trkpt lat="43.49067" lon="5.24432">
        <ele>183.75</ele>
        <time>2021-03-14T10:40:52Z</time>
      </trkpt>
      <trkpt lat="43.49066" lon="5.24432">
        <ele>183.75</ele>
        <time>2021-03-14T10:40:54Z</time>
      </trkpt>
      <trkpt lat="43.49064" lon="5.24433">
        <ele>183.27</ele>
        <time>2021-03-14T10:40:56Z</time>
      </trkpt>
      <trkpt lat="43.49061" lon="5.24438">
        <ele>182.31</ele>
        <time>2021-03-14T10:41:11Z</time>
      </trkpt>
      <trkpt lat="43.4906" lon="5.24436">
        <ele>182.31</ele>
        <time>2021-03-14T10:41:33Z</time>
      </trkpt>
      <trkpt lat="43.49059" lon="5.24435">
        <ele>183.75</ele>
        <time>2021-03-14T10:41:54Z</time>
      </trkpt>
      <trkpt lat="43.49059" lon="5.24435">
        <ele>184.23</ele>
        <time>2021-03-14T10:42:10Z</time>
      </trkpt>
      <trkpt lat="43.49059" lon="5.24435">
        <ele>183.75</ele>
        <time>2021-03-14T10:42:28Z</time>
      </trkpt>
      <trkpt lat="43.4906" lon="5.24434">
        <ele>183.75</ele>
        <time>2021-03-14T10:42:48Z</time>
      </trkpt>
      <trkpt lat="43.4906" lon="5.24436">
        <ele>184.23</ele>
        <time>2021-03-14T10:43:12Z</time>
      </trkpt>
      <trkpt lat="43.49058" lon="5.24435">
        <ele>183.75</ele>
        <time>2021-03-14T10:43:31Z</time>
      </trkpt>
      <trkpt lat="43.49057" lon="5.24435">
        <ele>183.27</ele>
        <time>2021-03-14T10:43:56Z</time>
      </trkpt>
      <trkpt lat="43.49058" lon="5.24435">
        <ele>183.27</ele>
        <time>2021-03-14T10:44:16Z</time>
      </trkpt>
      <trkpt lat="43.49058" lon="5.24435">
        <ele>182.31</ele>
        <time>2021-03-14T10:44:35Z</time>
      </trkpt>
      <trkpt lat="43.49057" lon="5.24438">
        <ele>182.31</ele>
        <time>2021-03-14T10:44:38Z</time>
      </trkpt>
      <trkpt lat="43.49051" lon="5.24448">
        <ele>182.31</ele>
        <time>2021-03-14T10:44:48Z</time>
      </trkpt>
      <trkpt lat="43.49048" lon="5.24453">
        <ele>182.31</ele>
        <time>2021-03-14T10:44:53Z</time>
      </trkpt>
      <trkpt lat="43.49044" lon="5.24458">
        <ele>183.27</ele>
        <time>2021-03-14T10:45:01Z</time>
      </trkpt>
      <trkpt lat="43.49036" lon="5.2447">
        <ele>182.79</ele>
        <time>2021-03-14T10:45:14Z</time>
      </trkpt>
      <trkpt lat="43.49026" lon="5.24478">
        <ele>182.31</ele>
        <time>2021-03-14T10:45:27Z</time>
      </trkpt>
      <trkpt lat="43.49018" lon="5.24483">
        <ele>181.35</ele>
        <time>2021-03-14T10:45:36Z</time>
      </trkpt>
      <trkpt lat="43.49009" lon="5.24491">
        <ele>180.87</ele>
        <time>2021-03-14T10:45:47Z</time>
      </trkpt>
      <trkpt lat="43.49" lon="5.245">
        <ele>179.9</ele>
        <time>2021-03-14T10:45:58Z</time>
      </trkpt>
      <trkpt lat="43.48998" lon="5.24502">
        <ele>179.9</ele>
        <time>2021-03-14T10:46:01Z</time>
      </trkpt>
      <trkpt lat="43.48989" lon="5.24511">
        <ele>179.42</ele>
        <time>2021-03-14T10:46:12Z</time>
      </trkpt>
      <trkpt lat="43.48981" lon="5.24519">
        <ele>180.38</ele>
        <time>2021-03-14T10:46:22Z</time>
      </trkpt>
      <trkpt lat="43.4898" lon="5.2452">
        <ele>180.38</ele>
        <time>2021-03-14T10:46:23Z</time>
      </trkpt>
      <trkpt lat="43.48978" lon="5.24521">
        <ele>180.87</ele>
        <time>2021-03-14T10:46:25Z</time>
      </trkpt>
      <trkpt lat="43.48976" lon="5.24522">
        <ele>180.87</ele>
        <time>2021-03-14T10:46:27Z</time>
      </trkpt>
      <trkpt lat="43.48973" lon="5.24526">
        <ele>181.35</ele>
        <time>2021-03-14T10:46:31Z</time>
      </trkpt>
      <trkpt lat="43.48972" lon="5.24528">
        <ele>181.83</ele>
        <time>2021-03-14T10:46:33Z</time>
      </trkpt>
      <trkpt lat="43.48968" lon="5.24533">
        <ele>181.83</ele>
        <time>2021-03-14T10:46:45Z</time>
      </trkpt>
      <trkpt lat="43.4896" lon="5.24539">
        <ele>182.79</ele>
        <time>2021-03-14T10:46:55Z</time>
      </trkpt>
      <trkpt lat="43.48955" lon="5.24541">
        <ele>182.79</ele>
        <time>2021-03-14T10:47:00Z</time>
      </trkpt>
      <trkpt lat="43.48954" lon="5.24543">
        <ele>182.79</ele>
        <time>2021-03-14T10:47:02Z</time>
      </trkpt>
      <trkpt lat="43.48952" lon="5.24544">
        <ele>182.79</ele>
        <time>2021-03-14T10:47:04Z</time>
      </trkpt>
      <trkpt lat="43.4895" lon="5.24545">
        <ele>182.79</ele>
        <time>2021-03-14T10:47:06Z</time>
      </trkpt>
      <trkpt lat="43.4894" lon="5.24554">
        <ele>181.83</ele>
        <time>2021-03-14T10:47:17Z</time>
      </trkpt>
      <trkpt lat="43.48937" lon="5.24557">
        <ele>182.31</ele>
        <time>2021-03-14T10:47:21Z</time>
      </trkpt>
      <trkpt lat="43.48935" lon="5.24559">
        <ele>182.31</ele>
        <time>2021-03-14T10:47:23Z</time>
      </trkpt>
      <trkpt lat="43.48927" lon="5.2457">
        <ele>181.83</ele>
        <time>2021-03-14T10:47:35Z</time>
      </trkpt>
      <trkpt lat="43.48923" lon="5.24576">
        <ele>181.83</ele>
        <time>2021-03-14T10:47:40Z</time>
      </trkpt>
      <trkpt lat="43.48921" lon="5.24579">
        <ele>181.35</ele>
        <time>2021-03-14T10:47:43Z</time>
      </trkpt>
      <trkpt lat="43.4892" lon="5.24581">
        <ele>181.35</ele>
        <time>2021-03-14T10:47:45Z</time>
      </trkpt>
      <trkpt lat="43.48911" lon="5.24592">
        <ele>182.31</ele>
        <time>2021-03-14T10:47:56Z</time>
      </trkpt>
      <trkpt lat="43.48904" lon="5.24601">
        <ele>181.35</ele>
        <time>2021-03-14T10:48:04Z</time>
      </trkpt>
      <trkpt lat="43.48902" lon="5.24604">
        <ele>181.35</ele>
        <time>2021-03-14T10:48:07Z</time>
      </trkpt>
      <trkpt lat="43.489" lon="5.24606">
        <ele>181.35</ele>
        <time>2021-03-14T10:48:09Z</time>
      </trkpt>
      <trkpt lat="43.48896" lon="5.24611">
        <ele>180.38</ele>
        <time>2021-03-14T10:48:14Z</time>
      </trkpt>
      <trkpt lat="43.48888" lon="5.24624">
        <ele>178.94</ele>
        <time>2021-03-14T10:48:25Z</time>
      </trkpt>
      <trkpt lat="43.48887" lon="5.24627">
        <ele>178.46</ele>
        <time>2021-03-14T10:48:27Z</time>
      </trkpt>
      <trkpt lat="43.48886" lon="5.24629">
        <ele>178.46</ele>
        <time>2021-03-14T10:48:29Z</time>
      </trkpt>
      <trkpt lat="43.48883" lon="5.24647">
        <ele>177.02</ele>
        <time>2021-03-14T10:48:41Z</time>
      </trkpt>
      <trkpt lat="43.48883" lon="5.24649">
        <ele>177.02</ele>
        <time>2021-03-14T10:48:42Z</time>
      </trkpt>
      <trkpt lat="43.48883" lon="5.24669">
        <ele>174.62</ele>
        <time>2021-03-14T10:48:54Z</time>
      </trkpt>
      <trkpt lat="43.48883" lon="5.24674">
        <ele>174.14</ele>
        <time>2021-03-14T10:48:57Z</time>
      </trkpt>
      <trkpt lat="43.48883" lon="5.24682">
        <ele>174.14</ele>
        <time>2021-03-14T10:49:02Z</time>
      </trkpt>
      <trkpt lat="43.48881" lon="5.24691">
        <ele>174.62</ele>
        <time>2021-03-14T10:49:08Z</time>
      </trkpt>
      <trkpt lat="43.48876" lon="5.24704">
        <ele>175.1</ele>
        <time>2021-03-14T10:49:19Z</time>
      </trkpt>
      <trkpt lat="43.48874" lon="5.24706">
        <ele>175.1</ele>
        <time>2021-03-14T10:49:21Z</time>
      </trkpt>
      <trkpt lat="43.48871" lon="5.24714">
        <ele>175.1</ele>
        <time>2021-03-14T10:49:27Z</time>
      </trkpt>
      <trkpt lat="43.4887" lon="5.24717">
        <ele>175.1</ele>
        <time>2021-03-14T10:49:30Z</time>
      </trkpt>
      <trkpt lat="43.48864" lon="5.24731">
        <ele>175.58</ele>
        <time>2021-03-14T10:49:41Z</time>
      </trkpt>
      <trkpt lat="43.48862" lon="5.24735">
        <ele>175.58</ele>
        <time>2021-03-14T10:49:44Z</time>
      </trkpt>
      <trkpt lat="43.4886" lon="5.24737">
        <ele>175.58</ele>
        <time>2021-03-14T10:49:46Z</time>
      </trkpt>
      <trkpt lat="43.48859" lon="5.24741">
        <ele>175.1</ele>
        <time>2021-03-14T10:49:49Z</time>
      </trkpt>
      <trkpt lat="43.48854" lon="5.24754">
        <ele>175.1</ele>
        <time>2021-03-14T10:50:02Z</time>
      </trkpt>
      <trkpt lat="43.48845" lon="5.24766">
        <ele>174.14</ele>
        <time>2021-03-14T10:50:13Z</time>
      </trkpt>
      <trkpt lat="43.48836" lon="5.24778">
        <ele>174.14</ele>
        <time>2021-03-14T10:50:25Z</time>
      </trkpt>
      <trkpt lat="43.48835" lon="5.24779">
        <ele>174.14</ele>
        <time>2021-03-14T10:50:26Z</time>
      </trkpt>
      <trkpt lat="43.48826" lon="5.24789">
        <ele>175.1</ele>
        <time>2021-03-14T10:50:38Z</time>
      </trkpt>
      <trkpt lat="43.48816" lon="5.24801">
        <ele>174.14</ele>
        <time>2021-03-14T10:50:49Z</time>
      </trkpt>
      <trkpt lat="43.48808" lon="5.24809">
        <ele>173.17</ele>
        <time>2021-03-14T10:50:58Z</time>
      </trkpt>
      <trkpt lat="43.48806" lon="5.24809">
        <ele>173.17</ele>
        <time>2021-03-14T10:51:00Z</time>
      </trkpt>
      <trkpt lat="43.48803" lon="5.24812">
        <ele>173.17</ele>
        <time>2021-03-14T10:51:03Z</time>
      </trkpt>
      <trkpt lat="43.488" lon="5.24814">
        <ele>174.14</ele>
        <time>2021-03-14T10:51:06Z</time>
      </trkpt>
      <trkpt lat="43.48788" lon="5.24827">
        <ele>173.17</ele>
        <time>2021-03-14T10:51:19Z</time>
      </trkpt>
      <trkpt lat="43.48782" lon="5.24833">
        <ele>172.69</ele>
        <time>2021-03-14T10:51:26Z</time>
      </trkpt>
      <trkpt lat="43.48779" lon="5.24835">
        <ele>172.69</ele>
        <time>2021-03-14T10:51:29Z</time>
      </trkpt>
      <trkpt lat="43.48768" lon="5.24845">
        <ele>174.14</ele>
        <time>2021-03-14T10:51:41Z</time>
      </trkpt>
      <trkpt lat="43.48761" lon="5.24852">
        <ele>173.17</ele>
        <time>2021-03-14T10:51:52Z</time>
      </trkpt>
      <trkpt lat="43.48754" lon="5.24855">
        <ele>171.73</ele>
        <time>2021-03-14T10:52:09Z</time>
      </trkpt>
      <trkpt lat="43.48752" lon="5.24855">
        <ele>171.73</ele>
        <time>2021-03-14T10:52:11Z</time>
      </trkpt>
      <trkpt lat="43.4875" lon="5.24857">
        <ele>171.25</ele>
        <time>2021-03-14T10:52:13Z</time>
      </trkpt>
      <trkpt lat="43.48747" lon="5.24859">
        <ele>170.77</ele>
        <time>2021-03-14T10:52:16Z</time>
      </trkpt>
      <trkpt lat="43.48745" lon="5.2486">
        <ele>170.77</ele>
        <time>2021-03-14T10:52:18Z</time>
      </trkpt>
      <trkpt lat="43.48734" lon="5.24869">
        <ele>170.29</ele>
        <time>2021-03-14T10:52:31Z</time>
      </trkpt>
      <trkpt lat="43.48726" lon="5.24874">
        <ele>169.81</ele>
        <time>2021-03-14T10:52:43Z</time>
      </trkpt>
      <trkpt lat="43.48723" lon="5.24877">
        <ele>169.33</ele>
        <time>2021-03-14T10:52:46Z</time>
      </trkpt>
      <trkpt lat="43.48718" lon="5.2489">
        <ele>168.85</ele>
        <time>2021-03-14T10:52:57Z</time>
      </trkpt>
      <trkpt lat="43.48717" lon="5.24898">
        <ele>168.85</ele>
        <time>2021-03-14T10:53:08Z</time>
      </trkpt>
      <trkpt lat="43.48717" lon="5.24906">
        <ele>166.93</ele>
        <time>2021-03-14T10:53:19Z</time>
      </trkpt>
      <trkpt lat="43.48717" lon="5.24904">
        <ele>166.45</ele>
        <time>2021-03-14T10:53:22Z</time>
      </trkpt>
      <trkpt lat="43.48722" lon="5.24902">
        <ele>166.93</ele>
        <time>2021-03-14T10:53:32Z</time>
      </trkpt>
      <trkpt lat="43.48722" lon="5.24901">
        <ele>166.93</ele>
        <time>2021-03-14T10:53:49Z</time>
      </trkpt>
      <trkpt lat="43.48723" lon="5.24901">
        <ele>166.45</ele>
        <time>2021-03-14T10:54:30Z</time>
      </trkpt>
      <trkpt lat="43.48721" lon="5.24901">
        <ele>168.37</ele>
        <time>2021-03-14T10:54:53Z</time>
      </trkpt>
      <trkpt lat="43.48717" lon="5.24907">
        <ele>167.89</ele>
        <time>2021-03-14T10:55:04Z</time>
      </trkpt>
      <trkpt lat="43.48714" lon="5.24912">
        <ele>167.41</ele>
        <time>2021-03-14T10:55:16Z</time>
      </trkpt>
      <trkpt lat="43.48714" lon="5.24912">
        <ele>167.41</ele>
        <time>2021-03-14T10:55:19Z</time>
      </trkpt>
      <trkpt lat="43.48714" lon="5.24942">
        <ele>162.12</ele>
        <time>2021-03-14T10:55:32Z</time>
      </trkpt>
      <trkpt lat="43.48711" lon="5.24958">
        <ele>159.72</ele>
        <time>2021-03-14T10:55:38Z</time>
      </trkpt>
      <trkpt lat="43.48702" lon="5.24971">
        <ele>157.31</ele>
        <time>2021-03-14T10:55:47Z</time>
      </trkpt>
      <trkpt lat="43.48697" lon="5.24977">
        <ele>159.24</ele>
        <time>2021-03-14T10:55:58Z</time>
      </trkpt>
      <trkpt lat="43.48697" lon="5.24978">
        <ele>161.16</ele>
        <time>2021-03-14T10:56:18Z</time>
      </trkpt>
      <trkpt lat="43.48697" lon="5.24979">
        <ele>161.16</ele>
        <time>2021-03-14T10:56:45Z</time>
      </trkpt>
      <trkpt lat="43.48694" lon="5.24986">
        <ele>162.6</ele>
        <time>2021-03-14T10:56:53Z</time>
      </trkpt>
      <trkpt lat="43.48689" lon="5.24996">
        <ele>163.08</ele>
        <time>2021-03-14T10:57:01Z</time>
      </trkpt>
      <trkpt lat="43.48685" lon="5.24996">
        <ele>162.6</ele>
        <time>2021-03-14T10:57:05Z</time>
      </trkpt>
      <trkpt lat="43.48677" lon="5.24999">
        <ele>162.12</ele>
        <time>2021-03-14T10:57:18Z</time>
      </trkpt>
      <trkpt lat="43.48673" lon="5.24998">
        <ele>162.6</ele>
        <time>2021-03-14T10:57:27Z</time>
      </trkpt>
      <trkpt lat="43.48671" lon="5.24997">
        <ele>161.16</ele>
        <time>2021-03-14T10:57:38Z</time>
      </trkpt>
      <trkpt lat="43.48668" lon="5.24994">
        <ele>160.68</ele>
        <time>2021-03-14T10:57:43Z</time>
      </trkpt>
      <trkpt lat="43.48666" lon="5.24993">
        <ele>160.68</ele>
        <time>2021-03-14T10:57:46Z</time>
      </trkpt>
      <trkpt lat="43.48653" lon="5.24998">
        <ele>159.72</ele>
        <time>2021-03-14T10:58:00Z</time>
      </trkpt>
      <trkpt lat="43.48642" lon="5.25003">
        <ele>158.75</ele>
        <time>2021-03-14T10:58:12Z</time>
      </trkpt>
      <trkpt lat="43.48638" lon="5.25004">
        <ele>159.24</ele>
        <time>2021-03-14T10:58:31Z</time>
      </trkpt>
      <trkpt lat="43.48633" lon="5.25005">
        <ele>156.35</ele>
        <time>2021-03-14T10:58:57Z</time>
      </trkpt>
      <trkpt lat="43.48627" lon="5.25009">
        <ele>152.51</ele>
        <time>2021-03-14T10:59:07Z</time>
      </trkpt>
      <trkpt lat="43.48624" lon="5.2501">
        <ele>152.03</ele>
        <time>2021-03-14T10:59:24Z</time>
      </trkpt>
      <trkpt lat="43.48623" lon="5.2501">
        <ele>152.51</ele>
        <time>2021-03-14T10:59:27Z</time>
      </trkpt>
      <trkpt lat="43.48617" lon="5.25007">
        <ele>151.06</ele>
        <time>2021-03-14T10:59:39Z</time>
      </trkpt>
      <trkpt lat="43.48615" lon="5.25006">
        <ele>149.14</ele>
        <time>2021-03-14T10:59:54Z</time>
      </trkpt>
      <trkpt lat="43.4861" lon="5.25002">
        <ele>148.66</ele>
        <time>2021-03-14T11:00:07Z</time>
      </trkpt>
      <trkpt lat="43.48604" lon="5.25">
        <ele>148.18</ele>
        <time>2021-03-14T11:00:25Z</time>
      </trkpt>
      <trkpt lat="43.48597" lon="5.24998">
        <ele>144.82</ele>
        <time>2021-03-14T11:00:36Z</time>
      </trkpt>
      <trkpt lat="43.48592" lon="5.24997">
        <ele>142.41</ele>
        <time>2021-03-14T11:00:51Z</time>
      </trkpt>
      <trkpt lat="43.48588" lon="5.24997">
        <ele>141.45</ele>
        <time>2021-03-14T11:01:05Z</time>
      </trkpt>
      <trkpt lat="43.48582" lon="5.24998">
        <ele>140.97</ele>
        <time>2021-03-14T11:01:12Z</time>
      </trkpt>
      <trkpt lat="43.4858" lon="5.24998">
        <ele>140.97</ele>
        <time>2021-03-14T11:01:14Z</time>
      </trkpt>
      <trkpt lat="43.48576" lon="5.24998">
        <ele>140.01</ele>
        <time>2021-03-14T11:01:19Z</time>
      </trkpt>
      <trkpt lat="43.4857" lon="5.25001">
        <ele>136.64</ele>
        <time>2021-03-14T11:01:33Z</time>
      </trkpt>
      <trkpt lat="43.48562" lon="5.25001">
        <ele>133.28</ele>
        <time>2021-03-14T11:01:46Z</time>
      </trkpt>
      <trkpt lat="43.48552" lon="5.25002">
        <ele>131.36</ele>
        <time>2021-03-14T11:01:58Z</time>
      </trkpt>
      <trkpt lat="43.48543" lon="5.25004">
        <ele>129.43</ele>
        <time>2021-03-14T11:02:09Z</time>
      </trkpt>
      <trkpt lat="43.48533" lon="5.25008">
        <ele>128.47</ele>
        <time>2021-03-14T11:02:21Z</time>
      </trkpt>
      <trkpt lat="43.48527" lon="5.25014">
        <ele>126.07</ele>
        <time>2021-03-14T11:02:34Z</time>
      </trkpt>
      <trkpt lat="43.48523" lon="5.25021">
        <ele>122.22</ele>
        <time>2021-03-14T11:02:47Z</time>
      </trkpt>
      <trkpt lat="43.4852" lon="5.25027">
        <ele>120.3</ele>
        <time>2021-03-14T11:02:58Z</time>
      </trkpt>
      <trkpt lat="43.4852" lon="5.2503">
        <ele>118.38</ele>
        <time>2021-03-14T11:03:19Z</time>
      </trkpt>
      <trkpt lat="43.48521" lon="5.25031">
        <ele>118.86</ele>
        <time>2021-03-14T11:03:43Z</time>
      </trkpt>
      <trkpt lat="43.4852" lon="5.25032">
        <ele>118.38</ele>
        <time>2021-03-14T11:03:57Z</time>
      </trkpt>
      <trkpt lat="43.48519" lon="5.25033">
        <ele>117.42</ele>
        <time>2021-03-14T11:04:15Z</time>
      </trkpt>
      <trkpt lat="43.48518" lon="5.25036">
        <ele>116.46</ele>
        <time>2021-03-14T11:04:31Z</time>
      </trkpt>
      <trkpt lat="43.48517" lon="5.25038">
        <ele>115.5</ele>
        <time>2021-03-14T11:04:36Z</time>
      </trkpt>
      <trkpt lat="43.48523" lon="5.25046">
        <ele>115.01</ele>
        <time>2021-03-14T11:04:44Z</time>
      </trkpt>
      <trkpt lat="43.48525" lon="5.25052">
        <ele>114.53</ele>
        <time>2021-03-14T11:04:49Z</time>
      </trkpt>
      <trkpt lat="43.48529" lon="5.25069">
        <ele>112.61</ele>
        <time>2021-03-14T11:05:02Z</time>
      </trkpt>
      <trkpt lat="43.48529" lon="5.25075">
        <ele>111.65</ele>
        <time>2021-03-14T11:05:06Z</time>
      </trkpt>
      <trkpt lat="43.48531" lon="5.25091">
        <ele>108.77</ele>
        <time>2021-03-14T11:05:17Z</time>
      </trkpt>
      <trkpt lat="43.48533" lon="5.25101">
        <ele>107.81</ele>
        <time>2021-03-14T11:05:24Z</time>
      </trkpt>
      <trkpt lat="43.48537" lon="5.25113">
        <ele>106.84</ele>
        <time>2021-03-14T11:05:38Z</time>
      </trkpt>
      <trkpt lat="43.48544" lon="5.25123">
        <ele>106.36</ele>
        <time>2021-03-14T11:05:52Z</time>
      </trkpt>
      <trkpt lat="43.48548" lon="5.25133">
        <ele>104.44</ele>
        <time>2021-03-14T11:06:05Z</time>
      </trkpt>
      <trkpt lat="43.48549" lon="5.25134">
        <ele>104.44</ele>
        <time>2021-03-14T11:06:07Z</time>
      </trkpt>
      <trkpt lat="43.4855" lon="5.25143">
        <ele>103.48</ele>
        <time>2021-03-14T11:06:13Z</time>
      </trkpt>
      <trkpt lat="43.48546" lon="5.2515">
        <ele>103.96</ele>
        <time>2021-03-14T11:06:20Z</time>
      </trkpt>
      <trkpt lat="43.48543" lon="5.25152">
        <ele>103.96</ele>
        <time>2021-03-14T11:06:23Z</time>
      </trkpt>
      <trkpt lat="43.48541" lon="5.25153">
        <ele>104.44</ele>
        <time>2021-03-14T11:06:26Z</time>
      </trkpt>
      <trkpt lat="43.48538" lon="5.25156">
        <ele>104.44</ele>
        <time>2021-03-14T11:06:29Z</time>
      </trkpt>
      <trkpt lat="43.48527" lon="5.25164">
        <ele>102.52</ele>
        <time>2021-03-14T11:06:41Z</time>
      </trkpt>
      <trkpt lat="43.48519" lon="5.2517">
        <ele>100.6</ele>
        <time>2021-03-14T11:06:49Z</time>
      </trkpt>
      <trkpt lat="43.48515" lon="5.25174">
        <ele>98.67</ele>
        <time>2021-03-14T11:06:54Z</time>
      </trkpt>
      <trkpt lat="43.48506" lon="5.25189">
        <ele>96.27</ele>
        <time>2021-03-14T11:07:06Z</time>
      </trkpt>
      <trkpt lat="43.485" lon="5.25206">
        <ele>94.83</ele>
        <time>2021-03-14T11:07:18Z</time>
      </trkpt>
      <trkpt lat="43.48497" lon="5.25219">
        <ele>94.35</ele>
        <time>2021-03-14T11:07:27Z</time>
      </trkpt>
      <trkpt lat="43.48495" lon="5.25226">
        <ele>94.83</ele>
        <time>2021-03-14T11:07:32Z</time>
      </trkpt>
      <trkpt lat="43.48492" lon="5.25235">
        <ele>94.83</ele>
        <time>2021-03-14T11:07:38Z</time>
      </trkpt>
      <trkpt lat="43.48488" lon="5.25244">
        <ele>95.31</ele>
        <time>2021-03-14T11:07:44Z</time>
      </trkpt>
      <trkpt lat="43.48479" lon="5.2526">
        <ele>95.31</ele>
        <time>2021-03-14T11:07:57Z</time>
      </trkpt>
      <trkpt lat="43.48478" lon="5.25262">
        <ele>95.31</ele>
        <time>2021-03-14T11:07:59Z</time>
      </trkpt>
      <trkpt lat="43.48477" lon="5.25265">
        <ele>98.19</ele>
        <time>2021-03-14T11:08:13Z</time>
      </trkpt>
      <trkpt lat="43.48478" lon="5.2527">
        <ele>94.83</ele>
        <time>2021-03-14T11:08:28Z</time>
      </trkpt>
      <trkpt lat="43.48477" lon="5.25274">
        <ele>95.31</ele>
        <time>2021-03-14T11:08:40Z</time>
      </trkpt>
      <trkpt lat="43.48475" lon="5.25277">
        <ele>95.31</ele>
        <time>2021-03-14T11:08:43Z</time>
      </trkpt>
      <trkpt lat="43.48469" lon="5.2528">
        <ele>94.35</ele>
        <time>2021-03-14T11:08:49Z</time>
      </trkpt>
      <trkpt lat="43.48465" lon="5.25276">
        <ele>95.31</ele>
        <time>2021-03-14T11:08:55Z</time>
      </trkpt>
      <trkpt lat="43.48464" lon="5.25274">
        <ele>96.27</ele>
        <time>2021-03-14T11:08:57Z</time>
      </trkpt>
      <trkpt lat="43.48464" lon="5.25269">
        <ele>99.63</ele>
        <time>2021-03-14T11:09:03Z</time>
      </trkpt>
      <trkpt lat="43.48465" lon="5.25267">
        <ele>101.56</ele>
        <time>2021-03-14T11:09:06Z</time>
      </trkpt>
      <trkpt lat="43.48466" lon="5.25263">
        <ele>103</ele>
        <time>2021-03-14T11:09:08Z</time>
      </trkpt>
      <trkpt lat="43.48469" lon="5.2525">
        <ele>108.77</ele>
        <time>2021-03-14T11:09:17Z</time>
      </trkpt>
      <trkpt lat="43.48469" lon="5.25244">
        <ele>110.21</ele>
        <time>2021-03-14T11:09:20Z</time>
      </trkpt>
      <trkpt lat="43.48467" lon="5.25236">
        <ele>111.65</ele>
        <time>2021-03-14T11:09:26Z</time>
      </trkpt>
      <trkpt lat="43.48463" lon="5.25227">
        <ele>111.65</ele>
        <time>2021-03-14T11:09:33Z</time>
      </trkpt>
      <trkpt lat="43.48461" lon="5.25225">
        <ele>111.17</ele>
        <time>2021-03-14T11:09:35Z</time>
      </trkpt>
      <trkpt lat="43.48457" lon="5.2522">
        <ele>110.21</ele>
        <time>2021-03-14T11:09:40Z</time>
      </trkpt>
      <trkpt lat="43.48446" lon="5.2521">
        <ele>106.84</ele>
        <time>2021-03-14T11:09:51Z</time>
      </trkpt>
      <trkpt lat="43.48436" lon="5.25202">
        <ele>106.36</ele>
        <time>2021-03-14T11:10:02Z</time>
      </trkpt>
      <trkpt lat="43.4843" lon="5.25199">
        <ele>104.92</ele>
        <time>2021-03-14T11:10:14Z</time>
      </trkpt>
      <trkpt lat="43.48429" lon="5.25195">
        <ele>104.44</ele>
        <time>2021-03-14T11:10:19Z</time>
      </trkpt>
      <trkpt lat="43.48416" lon="5.25188">
        <ele>103.96</ele>
        <time>2021-03-14T11:10:33Z</time>
      </trkpt>
      <trkpt lat="43.48415" lon="5.25188">
        <ele>103.96</ele>
        <time>2021-03-14T11:10:34Z</time>
      </trkpt>
      <trkpt lat="43.48413" lon="5.25187">
        <ele>103.48</ele>
        <time>2021-03-14T11:10:36Z</time>
      </trkpt>
      <trkpt lat="43.48412" lon="5.25186">
        <ele>103.48</ele>
        <time>2021-03-14T11:10:38Z</time>
      </trkpt>
      <trkpt lat="43.48409" lon="5.25185">
        <ele>103.96</ele>
        <time>2021-03-14T11:10:41Z</time>
      </trkpt>
      <trkpt lat="43.48407" lon="5.25182">
        <ele>103.48</ele>
        <time>2021-03-14T11:10:53Z</time>
      </trkpt>
      <trkpt lat="43.48404" lon="5.25182">
        <ele>103</ele>
        <time>2021-03-14T11:11:06Z</time>
      </trkpt>
      <trkpt lat="43.48403" lon="5.25183">
        <ele>103.48</ele>
        <time>2021-03-14T11:11:08Z</time>
      </trkpt>
      <trkpt lat="43.484" lon="5.2518">
        <ele>103</ele>
        <time>2021-03-14T11:11:12Z</time>
      </trkpt>
      <trkpt lat="43.48389" lon="5.25172">
        <ele>102.04</ele>
        <time>2021-03-14T11:11:23Z</time>
      </trkpt>
      <trkpt lat="43.48384" lon="5.2517">
        <ele>102.04</ele>
        <time>2021-03-14T11:11:28Z</time>
      </trkpt>
      <trkpt lat="43.48382" lon="5.25169">
        <ele>102.04</ele>
        <time>2021-03-14T11:11:31Z</time>
      </trkpt>
      <trkpt lat="43.4838" lon="5.25168">
        <ele>102.04</ele>
        <time>2021-03-14T11:11:33Z</time>
      </trkpt>
      <trkpt lat="43.48378" lon="5.25167">
        <ele>102.04</ele>
        <time>2021-03-14T11:11:35Z</time>
      </trkpt>
      <trkpt lat="43.48376" lon="5.25166">
        <ele>102.04</ele>
        <time>2021-03-14T11:11:37Z</time>
      </trkpt>
      <trkpt lat="43.48366" lon="5.25156">
        <ele>103.96</ele>
        <time>2021-03-14T11:11:49Z</time>
      </trkpt>
      <trkpt lat="43.48357" lon="5.25148">
        <ele>104.44</ele>
        <time>2021-03-14T11:12:00Z</time>
      </trkpt>
      <trkpt lat="43.48357" lon="5.25147">
        <ele>104.44</ele>
        <time>2021-03-14T11:12:01Z</time>
      </trkpt>
      <trkpt lat="43.48354" lon="5.25145">
        <ele>104.44</ele>
        <time>2021-03-14T11:12:04Z</time>
      </trkpt>
      <trkpt lat="43.48348" lon="5.25141">
        <ele>105.88</ele>
        <time>2021-03-14T11:12:12Z</time>
      </trkpt>
      <trkpt lat="43.48338" lon="5.25135">
        <ele>104.92</ele>
        <time>2021-03-14T11:12:21Z</time>
      </trkpt>
      <trkpt lat="43.48323" lon="5.2513">
        <ele>103</ele>
        <time>2021-03-14T11:12:33Z</time>
      </trkpt>
      <trkpt lat="43.4832" lon="5.25129">
        <ele>102.52</ele>
        <time>2021-03-14T11:12:36Z</time>
      </trkpt>
      <trkpt lat="43.48312" lon="5.25126">
        <ele>101.08</ele>
        <time>2021-03-14T11:12:43Z</time>
      </trkpt>
      <trkpt lat="43.48304" lon="5.25123">
        <ele>101.08</ele>
        <time>2021-03-14T11:12:49Z</time>
      </trkpt>
      <trkpt lat="43.48299" lon="5.25121">
        <ele>101.56</ele>
        <time>2021-03-14T11:12:53Z</time>
      </trkpt>
      <trkpt lat="43.48295" lon="5.25121">
        <ele>101.08</ele>
        <time>2021-03-14T11:12:56Z</time>
      </trkpt>
      <trkpt lat="43.4829" lon="5.25118">
        <ele>101.08</ele>
        <time>2021-03-14T11:13:00Z</time>
      </trkpt>
      <trkpt lat="43.48275" lon="5.25117">
        <ele>100.11</ele>
        <time>2021-03-14T11:13:12Z</time>
      </trkpt>
      <trkpt lat="43.48261" lon="5.25127">
        <ele>100.11</ele>
        <time>2021-03-14T11:13:26Z</time>
      </trkpt>
      <trkpt lat="43.48257" lon="5.25131">
        <ele>100.11</ele>
        <time>2021-03-14T11:13:30Z</time>
      </trkpt>
      <trkpt lat="43.4825" lon="5.25147">
        <ele>99.63</ele>
        <time>2021-03-14T11:13:42Z</time>
      </trkpt>
      <trkpt lat="43.48244" lon="5.25164">
        <ele>98.67</ele>
        <time>2021-03-14T11:13:54Z</time>
      </trkpt>
      <trkpt lat="43.4824" lon="5.25169">
        <ele>98.19</ele>
        <time>2021-03-14T11:13:59Z</time>
      </trkpt>
      <trkpt lat="43.48239" lon="5.25174">
        <ele>98.19</ele>
        <time>2021-03-14T11:14:02Z</time>
      </trkpt>
      <trkpt lat="43.48236" lon="5.25177">
        <ele>98.19</ele>
        <time>2021-03-14T11:14:05Z</time>
      </trkpt>
      <trkpt lat="43.48236" lon="5.25181">
        <ele>98.19</ele>
        <time>2021-03-14T11:14:07Z</time>
      </trkpt>
      <trkpt lat="43.48234" lon="5.2519">
        <ele>98.19</ele>
        <time>2021-03-14T11:14:13Z</time>
      </trkpt>
      <trkpt lat="43.48231" lon="5.25215">
        <ele>99.15</ele>
        <time>2021-03-14T11:14:28Z</time>
      </trkpt>
      <trkpt lat="43.4823" lon="5.25227">
        <ele>99.63</ele>
        <time>2021-03-14T11:14:35Z</time>
      </trkpt>
      <trkpt lat="43.48231" lon="5.2523">
        <ele>99.63</ele>
        <time>2021-03-14T11:14:37Z</time>
      </trkpt>
      <trkpt lat="43.4823" lon="5.25233">
        <ele>100.11</ele>
        <time>2021-03-14T11:14:39Z</time>
      </trkpt>
      <trkpt lat="43.48231" lon="5.25253">
        <ele>100.6</ele>
        <time>2021-03-14T11:14:51Z</time>
      </trkpt>
      <trkpt lat="43.48232" lon="5.2526">
        <ele>100.11</ele>
        <time>2021-03-14T11:14:55Z</time>
      </trkpt>
      <trkpt lat="43.48234" lon="5.25275">
        <ele>101.08</ele>
        <time>2021-03-14T11:15:06Z</time>
      </trkpt>
      <trkpt lat="43.48236" lon="5.25286">
        <ele>101.56</ele>
        <time>2021-03-14T11:15:14Z</time>
      </trkpt>
      <trkpt lat="43.48236" lon="5.25293">
        <ele>104.44</ele>
        <time>2021-03-14T11:15:28Z</time>
      </trkpt>
      <trkpt lat="43.48235" lon="5.253">
        <ele>104.92</ele>
        <time>2021-03-14T11:15:39Z</time>
      </trkpt>
      <trkpt lat="43.48236" lon="5.25299">
        <ele>105.88</ele>
        <time>2021-03-14T11:16:06Z</time>
      </trkpt>
      <trkpt lat="43.48237" lon="5.25295">
        <ele>104.92</ele>
        <time>2021-03-14T11:16:31Z</time>
      </trkpt>
      <trkpt lat="43.48239" lon="5.25294">
        <ele>105.88</ele>
        <time>2021-03-14T11:16:53Z</time>
      </trkpt>
      <trkpt lat="43.48236" lon="5.25298">
        <ele>104.44</ele>
        <time>2021-03-14T11:17:21Z</time>
      </trkpt>
      <trkpt lat="43.48238" lon="5.25301">
        <ele>104.44</ele>
        <time>2021-03-14T11:17:45Z</time>
      </trkpt>
      <trkpt lat="43.48238" lon="5.25301">
        <ele>104.92</ele>
        <time>2021-03-14T11:18:05Z</time>
      </trkpt>
      <trkpt lat="43.48237" lon="5.25297">
        <ele>103.96</ele>
        <time>2021-03-14T11:18:26Z</time>
      </trkpt>
      <trkpt lat="43.48235" lon="5.25299">
        <ele>104.92</ele>
        <time>2021-03-14T11:18:46Z</time>
      </trkpt>
      <trkpt lat="43.4823" lon="5.25301">
        <ele>104.92</ele>
        <time>2021-03-14T11:18:55Z</time>
      </trkpt>
      <trkpt lat="43.48225" lon="5.25302">
        <ele>104.92</ele>
        <time>2021-03-14T11:19:00Z</time>
      </trkpt>
      <trkpt lat="43.4822" lon="5.25298">
        <ele>104.92</ele>
        <time>2021-03-14T11:19:05Z</time>
      </trkpt>
      <trkpt lat="43.48215" lon="5.25295">
        <ele>104.92</ele>
        <time>2021-03-14T11:19:10Z</time>
      </trkpt>
      <trkpt lat="43.48208" lon="5.25288">
        <ele>103.48</ele>
        <time>2021-03-14T11:19:22Z</time>
      </trkpt>
      <trkpt lat="43.48204" lon="5.25285">
        <ele>103.48</ele>
        <time>2021-03-14T11:19:28Z</time>
      </trkpt>
      <trkpt lat="43.48202" lon="5.25283">
        <ele>103.48</ele>
        <time>2021-03-14T11:19:30Z</time>
      </trkpt>
      <trkpt lat="43.4819" lon="5.25276">
        <ele>102.52</ele>
        <time>2021-03-14T11:19:41Z</time>
      </trkpt>
      <trkpt lat="43.48188" lon="5.25275">
        <ele>102.04</ele>
        <time>2021-03-14T11:19:42Z</time>
      </trkpt>
      <trkpt lat="43.48186" lon="5.25275">
        <ele>101.56</ele>
        <time>2021-03-14T11:19:44Z</time>
      </trkpt>
      <trkpt lat="43.48173" lon="5.2527">
        <ele>99.63</ele>
        <time>2021-03-14T11:19:57Z</time>
      </trkpt>
      <trkpt lat="43.48162" lon="5.25268">
        <ele>98.19</ele>
        <time>2021-03-14T11:20:08Z</time>
      </trkpt>
      <trkpt lat="43.4816" lon="5.25268">
        <ele>98.19</ele>
        <time>2021-03-14T11:20:09Z</time>
      </trkpt>
      <trkpt lat="43.48158" lon="5.2527">
        <ele>98.19</ele>
        <time>2021-03-14T11:20:12Z</time>
      </trkpt>
      <trkpt lat="43.48144" lon="5.25273">
        <ele>99.15</ele>
        <time>2021-03-14T11:20:25Z</time>
      </trkpt>
      <trkpt lat="43.4814" lon="5.25273">
        <ele>99.15</ele>
        <time>2021-03-14T11:20:29Z</time>
      </trkpt>
      <trkpt lat="43.48123" lon="5.2528">
        <ele>100.11</ele>
        <time>2021-03-14T11:20:44Z</time>
      </trkpt>
      <trkpt lat="43.48113" lon="5.25287">
        <ele>100.11</ele>
        <time>2021-03-14T11:20:55Z</time>
      </trkpt>
      <trkpt lat="43.48112" lon="5.25288">
        <ele>100.11</ele>
        <time>2021-03-14T11:20:57Z</time>
      </trkpt>
      <trkpt lat="43.48109" lon="5.2529">
        <ele>100.11</ele>
        <time>2021-03-14T11:21:00Z</time>
      </trkpt>
      <trkpt lat="43.48099" lon="5.25287">
        <ele>99.15</ele>
        <time>2021-03-14T11:21:11Z</time>
      </trkpt>
      <trkpt lat="43.48098" lon="5.25285">
        <ele>99.63</ele>
        <time>2021-03-14T11:21:13Z</time>
      </trkpt>
      <trkpt lat="43.4809" lon="5.2527">
        <ele>102.04</ele>
        <time>2021-03-14T11:21:26Z</time>
      </trkpt>
      <trkpt lat="43.48086" lon="5.25261">
        <ele>102.04</ele>
        <time>2021-03-14T11:21:34Z</time>
      </trkpt>
      <trkpt lat="43.48086" lon="5.25254">
        <ele>102.52</ele>
        <time>2021-03-14T11:21:39Z</time>
      </trkpt>
      <trkpt lat="43.48088" lon="5.25248">
        <ele>102.52</ele>
        <time>2021-03-14T11:21:45Z</time>
      </trkpt>
      <trkpt lat="43.48097" lon="5.25238">
        <ele>104.92</ele>
        <time>2021-03-14T11:21:57Z</time>
      </trkpt>
      <trkpt lat="43.48103" lon="5.25231">
        <ele>107.32</ele>
        <time>2021-03-14T11:22:06Z</time>
      </trkpt>
      <trkpt lat="43.48105" lon="5.25229">
        <ele>107.81</ele>
        <time>2021-03-14T11:22:09Z</time>
      </trkpt>
      <trkpt lat="43.48115" lon="5.25219">
        <ele>108.77</ele>
        <time>2021-03-14T11:22:22Z</time>
      </trkpt>
      <trkpt lat="43.48119" lon="5.25215">
        <ele>108.29</ele>
        <time>2021-03-14T11:22:27Z</time>
      </trkpt>
      <trkpt lat="43.48127" lon="5.252">
        <ele>108.29</ele>
        <time>2021-03-14T11:22:38Z</time>
      </trkpt>
      <trkpt lat="43.48135" lon="5.25178">
        <ele>110.21</ele>
        <time>2021-03-14T11:22:52Z</time>
      </trkpt>
      <trkpt lat="43.48137" lon="5.25162">
        <ele>110.21</ele>
        <time>2021-03-14T11:23:03Z</time>
      </trkpt>
      <trkpt lat="43.48139" lon="5.25151">
        <ele>110.21</ele>
        <time>2021-03-14T11:23:10Z</time>
      </trkpt>
      <trkpt lat="43.4814" lon="5.25147">
        <ele>110.21</ele>
        <time>2021-03-14T11:23:13Z</time>
      </trkpt>
      <trkpt lat="43.48139" lon="5.2514">
        <ele>109.73</ele>
        <time>2021-03-14T11:23:17Z</time>
      </trkpt>
      <trkpt lat="43.48137" lon="5.25136">
        <ele>109.73</ele>
        <time>2021-03-14T11:23:20Z</time>
      </trkpt>
      <trkpt lat="43.48133" lon="5.25134">
        <ele>108.77</ele>
        <time>2021-03-14T11:23:24Z</time>
      </trkpt>
      <trkpt lat="43.48129" lon="5.25138">
        <ele>108.77</ele>
        <time>2021-03-14T11:23:29Z</time>
      </trkpt>
      <trkpt lat="43.48124" lon="5.2515">
        <ele>110.21</ele>
        <time>2021-03-14T11:23:42Z</time>
      </trkpt>
      <trkpt lat="43.48116" lon="5.2516">
        <ele>111.65</ele>
        <time>2021-03-14T11:23:54Z</time>
      </trkpt>
      <trkpt lat="43.48107" lon="5.2517">
        <ele>112.61</ele>
        <time>2021-03-14T11:24:07Z</time>
      </trkpt>
      <trkpt lat="43.481" lon="5.25178">
        <ele>112.61</ele>
        <time>2021-03-14T11:24:17Z</time>
      </trkpt>
      <trkpt lat="43.48092" lon="5.25187">
        <ele>114.53</ele>
        <time>2021-03-14T11:24:30Z</time>
      </trkpt>
      <trkpt lat="43.48083" lon="5.25192">
        <ele>116.46</ele>
        <time>2021-03-14T11:24:42Z</time>
      </trkpt>
      <trkpt lat="43.48079" lon="5.25196">
        <ele>117.9</ele>
        <time>2021-03-14T11:24:48Z</time>
      </trkpt>
      <trkpt lat="43.48075" lon="5.25198">
        <ele>118.86</ele>
        <time>2021-03-14T11:24:53Z</time>
      </trkpt>
      <trkpt lat="43.48068" lon="5.25201">
        <ele>119.34</ele>
        <time>2021-03-14T11:25:01Z</time>
      </trkpt>
      <trkpt lat="43.48064" lon="5.25202">
        <ele>119.82</ele>
        <time>2021-03-14T11:25:05Z</time>
      </trkpt>
      <trkpt lat="43.48061" lon="5.25204">
        <ele>120.3</ele>
        <time>2021-03-14T11:25:09Z</time>
      </trkpt>
      <trkpt lat="43.48053" lon="5.25211">
        <ele>121.26</ele>
        <time>2021-03-14T11:25:19Z</time>
      </trkpt>
      <trkpt lat="43.48044" lon="5.2522">
        <ele>120.3</ele>
        <time>2021-03-14T11:25:30Z</time>
      </trkpt>
      <trkpt lat="43.48037" lon="5.25229">
        <ele>120.78</ele>
        <time>2021-03-14T11:25:41Z</time>
      </trkpt>
      <trkpt lat="43.48034" lon="5.25248">
        <ele>122.71</ele>
        <time>2021-03-14T11:25:54Z</time>
      </trkpt>
      <trkpt lat="43.48034" lon="5.2525">
        <ele>123.67</ele>
        <time>2021-03-14T11:25:56Z</time>
      </trkpt>
      <trkpt lat="43.48032" lon="5.25258">
        <ele>123.19</ele>
        <time>2021-03-14T11:26:07Z</time>
      </trkpt>
      <trkpt lat="43.48029" lon="5.2527">
        <ele>123.19</ele>
        <time>2021-03-14T11:26:15Z</time>
      </trkpt>
      <trkpt lat="43.48027" lon="5.25277">
        <ele>123.19</ele>
        <time>2021-03-14T11:26:20Z</time>
      </trkpt>
      <trkpt lat="43.48024" lon="5.25281">
        <ele>123.19</ele>
        <time>2021-03-14T11:26:23Z</time>
      </trkpt>
      <trkpt lat="43.48018" lon="5.25289">
        <ele>123.67</ele>
        <time>2021-03-14T11:26:32Z</time>
      </trkpt>
      <trkpt lat="43.48016" lon="5.25291">
        <ele>124.15</ele>
        <time>2021-03-14T11:26:35Z</time>
      </trkpt>
      <trkpt lat="43.48014" lon="5.25293">
        <ele>124.15</ele>
        <time>2021-03-14T11:26:37Z</time>
      </trkpt>
      <trkpt lat="43.48005" lon="5.25302">
        <ele>122.71</ele>
        <time>2021-03-14T11:26:48Z</time>
      </trkpt>
      <trkpt lat="43.47997" lon="5.2531">
        <ele>123.19</ele>
        <time>2021-03-14T11:26:59Z</time>
      </trkpt>
      <trkpt lat="43.47989" lon="5.25317">
        <ele>124.15</ele>
        <time>2021-03-14T11:27:09Z</time>
      </trkpt>
      <trkpt lat="43.47982" lon="5.25323">
        <ele>125.59</ele>
        <time>2021-03-14T11:27:20Z</time>
      </trkpt>
      <trkpt lat="43.47975" lon="5.25327">
        <ele>127.03</ele>
        <time>2021-03-14T11:27:30Z</time>
      </trkpt>
      <trkpt lat="43.47968" lon="5.25331">
        <ele>129.43</ele>
        <time>2021-03-14T11:27:39Z</time>
      </trkpt>
      <trkpt lat="43.47967" lon="5.25333">
        <ele>129.92</ele>
        <time>2021-03-14T11:27:41Z</time>
      </trkpt>
      <trkpt lat="43.47968" lon="5.2534">
        <ele>131.36</ele>
        <time>2021-03-14T11:27:56Z</time>
      </trkpt>
      <trkpt lat="43.4797" lon="5.25349">
        <ele>131.36</ele>
        <time>2021-03-14T11:28:06Z</time>
      </trkpt>
      <trkpt lat="43.47974" lon="5.25354">
        <ele>131.36</ele>
        <time>2021-03-14T11:28:12Z</time>
      </trkpt>
      <trkpt lat="43.47984" lon="5.25359">
        <ele>131.36</ele>
        <time>2021-03-14T11:28:22Z</time>
      </trkpt>
      <trkpt lat="43.47987" lon="5.25361">
        <ele>131.36</ele>
        <time>2021-03-14T11:28:25Z</time>
      </trkpt>
      <trkpt lat="43.47997" lon="5.25366">
        <ele>131.36</ele>
        <time>2021-03-14T11:28:35Z</time>
      </trkpt>
      <trkpt lat="43.48002" lon="5.25371">
        <ele>132.32</ele>
        <time>2021-03-14T11:28:40Z</time>
      </trkpt>
      <trkpt lat="43.48006" lon="5.25376">
        <ele>132.8</ele>
        <time>2021-03-14T11:28:45Z</time>
      </trkpt>
      <trkpt lat="43.48008" lon="5.25381">
        <ele>132.32</ele>
        <time>2021-03-14T11:28:50Z</time>
      </trkpt>
      <trkpt lat="43.48016" lon="5.25391">
        <ele>133.28</ele>
        <time>2021-03-14T11:29:02Z</time>
      </trkpt>
      <trkpt lat="43.48022" lon="5.25399">
        <ele>135.2</ele>
        <time>2021-03-14T11:29:13Z</time>
      </trkpt>
      <trkpt lat="43.48029" lon="5.25405">
        <ele>135.2</ele>
        <time>2021-03-14T11:29:22Z</time>
      </trkpt>
      <trkpt lat="43.48033" lon="5.2541">
        <ele>134.24</ele>
        <time>2021-03-14T11:29:27Z</time>
      </trkpt>
      <trkpt lat="43.48037" lon="5.25411">
        <ele>133.76</ele>
        <time>2021-03-14T11:29:31Z</time>
      </trkpt>
      <trkpt lat="43.48049" lon="5.25417">
        <ele>134.72</ele>
        <time>2021-03-14T11:29:42Z</time>
      </trkpt>
      <trkpt lat="43.48062" lon="5.25419">
        <ele>134.72</ele>
        <time>2021-03-14T11:29:54Z</time>
      </trkpt>
      <trkpt lat="43.48073" lon="5.25427">
        <ele>136.16</ele>
        <time>2021-03-14T11:30:07Z</time>
      </trkpt>
      <trkpt lat="43.48076" lon="5.25429">
        <ele>136.64</ele>
        <time>2021-03-14T11:30:10Z</time>
      </trkpt>
      <trkpt lat="43.48078" lon="5.2543">
        <ele>136.16</ele>
        <time>2021-03-14T11:30:12Z</time>
      </trkpt>
      <trkpt lat="43.4809" lon="5.25437">
        <ele>137.61</ele>
        <time>2021-03-14T11:30:24Z</time>
      </trkpt>
      <trkpt lat="43.48092" lon="5.25437">
        <ele>137.61</ele>
        <time>2021-03-14T11:30:26Z</time>
      </trkpt>
      <trkpt lat="43.481" lon="5.25442">
        <ele>136.64</ele>
        <time>2021-03-14T11:30:34Z</time>
      </trkpt>
      <trkpt lat="43.48108" lon="5.25446">
        <ele>135.68</ele>
        <time>2021-03-14T11:30:41Z</time>
      </trkpt>
      <trkpt lat="43.4812" lon="5.25452">
        <ele>136.16</ele>
        <time>2021-03-14T11:30:53Z</time>
      </trkpt>
      <trkpt lat="43.4813" lon="5.25455">
        <ele>136.64</ele>
        <time>2021-03-14T11:31:02Z</time>
      </trkpt>
      <trkpt lat="43.4814" lon="5.25454">
        <ele>137.13</ele>
        <time>2021-03-14T11:31:11Z</time>
      </trkpt>
      <trkpt lat="43.48153" lon="5.25456">
        <ele>137.61</ele>
        <time>2021-03-14T11:31:23Z</time>
      </trkpt>
      <trkpt lat="43.48158" lon="5.25455">
        <ele>138.09</ele>
        <time>2021-03-14T11:31:29Z</time>
      </trkpt>
      <trkpt lat="43.48163" lon="5.25455">
        <ele>138.09</ele>
        <time>2021-03-14T11:31:34Z</time>
      </trkpt>
      <trkpt lat="43.48177" lon="5.25448">
        <ele>137.61</ele>
        <time>2021-03-14T11:31:47Z</time>
      </trkpt>
      <trkpt lat="43.4818" lon="5.25446">
        <ele>137.61</ele>
        <time>2021-03-14T11:31:50Z</time>
      </trkpt>
      <trkpt lat="43.48192" lon="5.2544">
        <ele>137.61</ele>
        <time>2021-03-14T11:32:00Z</time>
      </trkpt>
      <trkpt lat="43.48195" lon="5.25438">
        <ele>137.61</ele>
        <time>2021-03-14T11:32:03Z</time>
      </trkpt>
      <trkpt lat="43.48209" lon="5.25437">
        <ele>138.09</ele>
        <time>2021-03-14T11:32:15Z</time>
      </trkpt>
      <trkpt lat="43.48212" lon="5.25438">
        <ele>138.09</ele>
        <time>2021-03-14T11:32:18Z</time>
      </trkpt>
      <trkpt lat="43.48224" lon="5.25444">
        <ele>138.09</ele>
        <time>2021-03-14T11:32:30Z</time>
      </trkpt>
      <trkpt lat="43.48233" lon="5.25449">
        <ele>138.09</ele>
        <time>2021-03-14T11:32:42Z</time>
      </trkpt>
      <trkpt lat="43.48236" lon="5.2545">
        <ele>138.09</ele>
        <time>2021-03-14T11:32:46Z</time>
      </trkpt>
      <trkpt lat="43.48238" lon="5.25449">
        <ele>138.09</ele>
        <time>2021-03-14T11:32:48Z</time>
      </trkpt>
      <trkpt lat="43.48251" lon="5.25442">
        <ele>135.68</ele>
        <time>2021-03-14T11:32:59Z</time>
      </trkpt>
      <trkpt lat="43.48264" lon="5.25432">
        <ele>135.68</ele>
        <time>2021-03-14T11:33:13Z</time>
      </trkpt>
      <trkpt lat="43.48269" lon="5.25429">
        <ele>136.64</ele>
        <time>2021-03-14T11:33:19Z</time>
      </trkpt>
      <trkpt lat="43.48271" lon="5.25428">
        <ele>137.13</ele>
        <time>2021-03-14T11:33:21Z</time>
      </trkpt>
      <trkpt lat="43.48279" lon="5.25421">
        <ele>140.01</ele>
        <time>2021-03-14T11:33:32Z</time>
      </trkpt>
      <trkpt lat="43.4828" lon="5.25421">
        <ele>140.49</ele>
        <time>2021-03-14T11:33:33Z</time>
      </trkpt>
      <trkpt lat="43.48284" lon="5.25419">
        <ele>141.93</ele>
        <time>2021-03-14T11:33:38Z</time>
      </trkpt>
      <trkpt lat="43.48296" lon="5.25416">
        <ele>144.34</ele>
        <time>2021-03-14T11:33:49Z</time>
      </trkpt>
      <trkpt lat="43.48307" lon="5.25414">
        <ele>145.3</ele>
        <time>2021-03-14T11:34:00Z</time>
      </trkpt>
      <trkpt lat="43.48311" lon="5.25412">
        <ele>145.3</ele>
        <time>2021-03-14T11:34:06Z</time>
      </trkpt>
      <trkpt lat="43.48313" lon="5.25411">
        <ele>145.3</ele>
        <time>2021-03-14T11:34:08Z</time>
      </trkpt>
      <trkpt lat="43.48323" lon="5.25409">
        <ele>144.82</ele>
        <time>2021-03-14T11:34:19Z</time>
      </trkpt>
      <trkpt lat="43.4833" lon="5.2541">
        <ele>144.34</ele>
        <time>2021-03-14T11:34:34Z</time>
      </trkpt>
      <trkpt lat="43.48341" lon="5.25407">
        <ele>145.78</ele>
        <time>2021-03-14T11:34:46Z</time>
      </trkpt>
      <trkpt lat="43.48349" lon="5.25405">
        <ele>146.26</ele>
        <time>2021-03-14T11:34:56Z</time>
      </trkpt>
      <trkpt lat="43.48351" lon="5.25404">
        <ele>146.26</ele>
        <time>2021-03-14T11:34:59Z</time>
      </trkpt>
      <trkpt lat="43.4836" lon="5.254">
        <ele>146.74</ele>
        <time>2021-03-14T11:35:09Z</time>
      </trkpt>
      <trkpt lat="43.48371" lon="5.25398">
        <ele>147.22</ele>
        <time>2021-03-14T11:35:20Z</time>
      </trkpt>
      <trkpt lat="43.48374" lon="5.25396">
        <ele>147.7</ele>
        <time>2021-03-14T11:35:31Z</time>
      </trkpt>
      <trkpt lat="43.48375" lon="5.25396">
        <ele>147.7</ele>
        <time>2021-03-14T11:35:36Z</time>
      </trkpt>
      <trkpt lat="43.48379" lon="5.25396">
        <ele>147.7</ele>
        <time>2021-03-14T11:35:40Z</time>
      </trkpt>
      <trkpt lat="43.48388" lon="5.25393">
        <ele>147.22</ele>
        <time>2021-03-14T11:35:51Z</time>
      </trkpt>
      <trkpt lat="43.48394" lon="5.25393">
        <ele>147.7</ele>
        <time>2021-03-14T11:36:06Z</time>
      </trkpt>
      <trkpt lat="43.48401" lon="5.25392">
        <ele>147.7</ele>
        <time>2021-03-14T11:36:12Z</time>
      </trkpt>
      <trkpt lat="43.48408" lon="5.25391">
        <ele>148.18</ele>
        <time>2021-03-14T11:36:18Z</time>
      </trkpt>
      <trkpt lat="43.48415" lon="5.25392">
        <ele>148.18</ele>
        <time>2021-03-14T11:36:24Z</time>
      </trkpt>
      <trkpt lat="43.48425" lon="5.25393">
        <ele>147.7</ele>
        <time>2021-03-14T11:36:33Z</time>
      </trkpt>
      <trkpt lat="43.48428" lon="5.25392">
        <ele>147.7</ele>
        <time>2021-03-14T11:36:36Z</time>
      </trkpt>
      <trkpt lat="43.4844" lon="5.25393">
        <ele>146.26</ele>
        <time>2021-03-14T11:36:47Z</time>
      </trkpt>
      <trkpt lat="43.48455" lon="5.25394">
        <ele>146.26</ele>
        <time>2021-03-14T11:37:00Z</time>
      </trkpt>
      <trkpt lat="43.48463" lon="5.25393">
        <ele>145.78</ele>
        <time>2021-03-14T11:37:10Z</time>
      </trkpt>
      <trkpt lat="43.4847" lon="5.25391">
        <ele>146.74</ele>
        <time>2021-03-14T11:37:22Z</time>
      </trkpt>
      <trkpt lat="43.48472" lon="5.25391">
        <ele>147.22</ele>
        <time>2021-03-14T11:37:31Z</time>
      </trkpt>
      <trkpt lat="43.48486" lon="5.25387">
        <ele>147.22</ele>
        <time>2021-03-14T11:37:46Z</time>
      </trkpt>
      <trkpt lat="43.48492" lon="5.25385">
        <ele>147.22</ele>
        <time>2021-03-14T11:37:52Z</time>
      </trkpt>
      <trkpt lat="43.48504" lon="5.25381">
        <ele>146.26</ele>
        <time>2021-03-14T11:38:03Z</time>
      </trkpt>
      <trkpt lat="43.48507" lon="5.25381">
        <ele>146.74</ele>
        <time>2021-03-14T11:38:06Z</time>
      </trkpt>
      <trkpt lat="43.48509" lon="5.25379">
        <ele>146.74</ele>
        <time>2021-03-14T11:38:08Z</time>
      </trkpt>
      <trkpt lat="43.48511" lon="5.2538">
        <ele>147.22</ele>
        <time>2021-03-14T11:38:10Z</time>
      </trkpt>
      <trkpt lat="43.48523" lon="5.2538">
        <ele>149.14</ele>
        <time>2021-03-14T11:38:23Z</time>
      </trkpt>
      <trkpt lat="43.48534" lon="5.25384">
        <ele>150.1</ele>
        <time>2021-03-14T11:38:34Z</time>
      </trkpt>
      <trkpt lat="43.48543" lon="5.25388">
        <ele>150.1</ele>
        <time>2021-03-14T11:38:43Z</time>
      </trkpt>
      <trkpt lat="43.48545" lon="5.2539">
        <ele>150.1</ele>
        <time>2021-03-14T11:38:46Z</time>
      </trkpt>
      <trkpt lat="43.48547" lon="5.25391">
        <ele>150.1</ele>
        <time>2021-03-14T11:38:48Z</time>
      </trkpt>
      <trkpt lat="43.48558" lon="5.254">
        <ele>151.06</ele>
        <time>2021-03-14T11:39:00Z</time>
      </trkpt>
      <trkpt lat="43.48559" lon="5.25401">
        <ele>151.54</ele>
        <time>2021-03-14T11:39:02Z</time>
      </trkpt>
      <trkpt lat="43.48565" lon="5.25406">
        <ele>151.54</ele>
        <time>2021-03-14T11:39:09Z</time>
      </trkpt>
      <trkpt lat="43.48567" lon="5.25407">
        <ele>151.54</ele>
        <time>2021-03-14T11:39:11Z</time>
      </trkpt>
      <trkpt lat="43.48578" lon="5.25421">
        <ele>153.47</ele>
        <time>2021-03-14T11:39:25Z</time>
      </trkpt>
      <trkpt lat="43.48584" lon="5.25432">
        <ele>153.47</ele>
        <time>2021-03-14T11:39:35Z</time>
      </trkpt>
      <trkpt lat="43.4859" lon="5.25447">
        <ele>153.47</ele>
        <time>2021-03-14T11:39:47Z</time>
      </trkpt>
      <trkpt lat="43.48594" lon="5.25462">
        <ele>154.43</ele>
        <time>2021-03-14T11:39:58Z</time>
      </trkpt>
      <trkpt lat="43.48595" lon="5.25471">
        <ele>154.91</ele>
        <time>2021-03-14T11:40:05Z</time>
      </trkpt>
      <trkpt lat="43.48595" lon="5.25476">
        <ele>155.39</ele>
        <time>2021-03-14T11:40:09Z</time>
      </trkpt>
      <trkpt lat="43.48594" lon="5.25478">
        <ele>155.39</ele>
        <time>2021-03-14T11:40:11Z</time>
      </trkpt>
      <trkpt lat="43.48592" lon="5.25479">
        <ele>155.39</ele>
        <time>2021-03-14T11:40:13Z</time>
      </trkpt>
      <trkpt lat="43.48587" lon="5.25481">
        <ele>154.43</ele>
        <time>2021-03-14T11:40:18Z</time>
      </trkpt>
      <trkpt lat="43.48586" lon="5.2548">
        <ele>153.95</ele>
        <time>2021-03-14T11:40:20Z</time>
      </trkpt>
      <trkpt lat="43.48573" lon="5.25481">
        <ele>153.95</ele>
        <time>2021-03-14T11:40:32Z</time>
      </trkpt>
      <trkpt lat="43.48559" lon="5.25485">
        <ele>153.47</ele>
        <time>2021-03-14T11:40:44Z</time>
      </trkpt>
      <trkpt lat="43.48553" lon="5.2549">
        <ele>153.47</ele>
        <time>2021-03-14T11:40:50Z</time>
      </trkpt>
      <trkpt lat="43.48549" lon="5.25494">
        <ele>153.95</ele>
        <time>2021-03-14T11:40:54Z</time>
      </trkpt>
      <trkpt lat="43.48542" lon="5.25503">
        <ele>153.95</ele>
        <time>2021-03-14T11:41:03Z</time>
      </trkpt>
      <trkpt lat="43.4853" lon="5.25509">
        <ele>154.43</ele>
        <time>2021-03-14T11:41:15Z</time>
      </trkpt>
      <trkpt lat="43.4852" lon="5.25514">
        <ele>153.95</ele>
        <time>2021-03-14T11:41:25Z</time>
      </trkpt>
      <trkpt lat="43.48513" lon="5.25517">
        <ele>152.99</ele>
        <time>2021-03-14T11:41:32Z</time>
      </trkpt>
      <trkpt lat="43.48501" lon="5.25523">
        <ele>152.03</ele>
        <time>2021-03-14T11:41:44Z</time>
      </trkpt>
      <trkpt lat="43.48498" lon="5.25524">
        <ele>152.03</ele>
        <time>2021-03-14T11:41:47Z</time>
      </trkpt>
      <trkpt lat="43.48492" lon="5.25526">
        <ele>151.54</ele>
        <time>2021-03-14T11:41:52Z</time>
      </trkpt>
      <trkpt lat="43.4848" lon="5.25525">
        <ele>151.06</ele>
        <time>2021-03-14T11:42:05Z</time>
      </trkpt>
      <trkpt lat="43.48478" lon="5.25525">
        <ele>151.06</ele>
        <time>2021-03-14T11:42:07Z</time>
      </trkpt>
      <trkpt lat="43.48468" lon="5.25524">
        <ele>151.06</ele>
        <time>2021-03-14T11:42:20Z</time>
      </trkpt>
      <trkpt lat="43.48466" lon="5.25527">
        <ele>150.58</ele>
        <time>2021-03-14T11:42:23Z</time>
      </trkpt>
      <trkpt lat="43.48465" lon="5.25534">
        <ele>150.58</ele>
        <time>2021-03-14T11:42:27Z</time>
      </trkpt>
      <trkpt lat="43.48465" lon="5.25538">
        <ele>151.06</ele>
        <time>2021-03-14T11:42:30Z</time>
      </trkpt>
      <trkpt lat="43.48464" lon="5.25545">
        <ele>151.54</ele>
        <time>2021-03-14T11:42:35Z</time>
      </trkpt>
      <trkpt lat="43.48463" lon="5.25552">
        <ele>151.54</ele>
        <time>2021-03-14T11:42:40Z</time>
      </trkpt>
      <trkpt lat="43.48461" lon="5.25556">
        <ele>152.03</ele>
        <time>2021-03-14T11:42:43Z</time>
      </trkpt>
      <trkpt lat="43.4846" lon="5.25558">
        <ele>152.03</ele>
        <time>2021-03-14T11:42:45Z</time>
      </trkpt>
      <trkpt lat="43.48453" lon="5.25569">
        <ele>152.51</ele>
        <time>2021-03-14T11:42:55Z</time>
      </trkpt>
      <trkpt lat="43.48451" lon="5.2557">
        <ele>153.47</ele>
        <time>2021-03-14T11:42:58Z</time>
      </trkpt>
      <trkpt lat="43.48442" lon="5.25582">
        <ele>154.91</ele>
        <time>2021-03-14T11:43:10Z</time>
      </trkpt>
      <trkpt lat="43.48438" lon="5.25594">
        <ele>154.91</ele>
        <time>2021-03-14T11:43:19Z</time>
      </trkpt>
      <trkpt lat="43.48428" lon="5.25605">
        <ele>156.83</ele>
        <time>2021-03-14T11:43:31Z</time>
      </trkpt>
      <trkpt lat="43.48417" lon="5.25612">
        <ele>157.79</ele>
        <time>2021-03-14T11:43:46Z</time>
      </trkpt>
      <trkpt lat="43.48411" lon="5.25619">
        <ele>157.79</ele>
        <time>2021-03-14T11:43:55Z</time>
      </trkpt>
      <trkpt lat="43.48404" lon="5.25625">
        <ele>159.24</ele>
        <time>2021-03-14T11:44:05Z</time>
      </trkpt>
      <trkpt lat="43.48396" lon="5.25631">
        <ele>160.2</ele>
        <time>2021-03-14T11:44:17Z</time>
      </trkpt>
      <trkpt lat="43.48388" lon="5.25635">
        <ele>160.68</ele>
        <time>2021-03-14T11:44:27Z</time>
      </trkpt>
      <trkpt lat="43.48383" lon="5.25646">
        <ele>161.16</ele>
        <time>2021-03-14T11:44:37Z</time>
      </trkpt>
      <trkpt lat="43.48382" lon="5.25656">
        <ele>161.64</ele>
        <time>2021-03-14T11:44:51Z</time>
      </trkpt>
      <trkpt lat="43.48379" lon="5.25667">
        <ele>162.6</ele>
        <time>2021-03-14T11:45:01Z</time>
      </trkpt>
      <trkpt lat="43.48378" lon="5.25669">
        <ele>163.08</ele>
        <time>2021-03-14T11:45:03Z</time>
      </trkpt>
      <trkpt lat="43.48376" lon="5.25682">
        <ele>164.04</ele>
        <time>2021-03-14T11:45:13Z</time>
      </trkpt>
      <trkpt lat="43.48375" lon="5.25695">
        <ele>165</ele>
        <time>2021-03-14T11:45:25Z</time>
      </trkpt>
      <trkpt lat="43.48375" lon="5.25703">
        <ele>166.45</ele>
        <time>2021-03-14T11:45:34Z</time>
      </trkpt>
      <trkpt lat="43.48374" lon="5.25705">
        <ele>166.45</ele>
        <time>2021-03-14T11:45:36Z</time>
      </trkpt>
      <trkpt lat="43.48374" lon="5.25716">
        <ele>166.93</ele>
        <time>2021-03-14T11:45:47Z</time>
      </trkpt>
      <trkpt lat="43.48374" lon="5.25719">
        <ele>166.93</ele>
        <time>2021-03-14T11:45:57Z</time>
      </trkpt>
      <trkpt lat="43.48375" lon="5.2573">
        <ele>166.93</ele>
        <time>2021-03-14T11:46:07Z</time>
      </trkpt>
      <trkpt lat="43.48379" lon="5.25741">
        <ele>167.89</ele>
        <time>2021-03-14T11:46:19Z</time>
      </trkpt>
      <trkpt lat="43.48382" lon="5.2575">
        <ele>168.85</ele>
        <time>2021-03-14T11:46:28Z</time>
      </trkpt>
      <trkpt lat="43.48384" lon="5.2576">
        <ele>171.25</ele>
        <time>2021-03-14T11:46:38Z</time>
      </trkpt>
      <trkpt lat="43.48384" lon="5.25762">
        <ele>171.73</ele>
        <time>2021-03-14T11:46:40Z</time>
      </trkpt>
      <trkpt lat="43.48385" lon="5.25776">
        <ele>172.69</ele>
        <time>2021-03-14T11:46:53Z</time>
      </trkpt>
      <trkpt lat="43.48385" lon="5.25779">
        <ele>172.69</ele>
        <time>2021-03-14T11:46:56Z</time>
      </trkpt>
      <trkpt lat="43.48387" lon="5.25783">
        <ele>172.69</ele>
        <time>2021-03-14T11:47:00Z</time>
      </trkpt>
      <trkpt lat="43.48388" lon="5.2579">
        <ele>173.17</ele>
        <time>2021-03-14T11:47:05Z</time>
      </trkpt>
      <trkpt lat="43.48389" lon="5.25802">
        <ele>175.58</ele>
        <time>2021-03-14T11:47:20Z</time>
      </trkpt>
      <trkpt lat="43.48389" lon="5.25802">
        <ele>175.58</ele>
        <time>2021-03-14T11:47:21Z</time>
      </trkpt>
      <trkpt lat="43.48386" lon="5.25808">
        <ele>177.98</ele>
        <time>2021-03-14T11:47:28Z</time>
      </trkpt>
      <trkpt lat="43.48378" lon="5.2581">
        <ele>180.87</ele>
        <time>2021-03-14T11:47:39Z</time>
      </trkpt>
      <trkpt lat="43.48369" lon="5.25809">
        <ele>185.19</ele>
        <time>2021-03-14T11:47:52Z</time>
      </trkpt>
      <trkpt lat="43.48367" lon="5.25808">
        <ele>185.67</ele>
        <time>2021-03-14T11:48:04Z</time>
      </trkpt>
      <trkpt lat="43.48367" lon="5.2581">
        <ele>186.63</ele>
        <time>2021-03-14T11:48:27Z</time>
      </trkpt>
      <trkpt lat="43.48363" lon="5.25814">
        <ele>187.59</ele>
        <time>2021-03-14T11:48:44Z</time>
      </trkpt>
      <trkpt lat="43.48364" lon="5.2582">
        <ele>188.56</ele>
        <time>2021-03-14T11:48:52Z</time>
      </trkpt>
      <trkpt lat="43.48368" lon="5.25833">
        <ele>190</ele>
        <time>2021-03-14T11:49:06Z</time>
      </trkpt>
      <trkpt lat="43.48371" lon="5.25842">
        <ele>192.88</ele>
        <time>2021-03-14T11:49:17Z</time>
      </trkpt>
      <trkpt lat="43.48374" lon="5.25852">
        <ele>195.28</ele>
        <time>2021-03-14T11:49:29Z</time>
      </trkpt>
      <trkpt lat="43.4838" lon="5.25865">
        <ele>198.17</ele>
        <time>2021-03-14T11:49:45Z</time>
      </trkpt>
      <trkpt lat="43.48383" lon="5.25869">
        <ele>198.65</ele>
        <time>2021-03-14T11:49:51Z</time>
      </trkpt>
      <trkpt lat="43.48388" lon="5.25879">
        <ele>200.09</ele>
        <time>2021-03-14T11:50:04Z</time>
      </trkpt>
      <trkpt lat="43.48392" lon="5.25889">
        <ele>202.98</ele>
        <time>2021-03-14T11:50:16Z</time>
      </trkpt>
      <trkpt lat="43.48394" lon="5.25898">
        <ele>204.42</ele>
        <time>2021-03-14T11:50:27Z</time>
      </trkpt>
      <trkpt lat="43.48396" lon="5.25911">
        <ele>206.82</ele>
        <time>2021-03-14T11:50:40Z</time>
      </trkpt>
      <trkpt lat="43.48393" lon="5.25924">
        <ele>206.34</ele>
        <time>2021-03-14T11:50:54Z</time>
      </trkpt>
      <trkpt lat="43.48394" lon="5.25925">
        <ele>204.9</ele>
        <time>2021-03-14T11:51:11Z</time>
      </trkpt>
      <trkpt lat="43.48394" lon="5.25925">
        <ele>204.9</ele>
        <time>2021-03-14T11:51:34Z</time>
      </trkpt>
      <trkpt lat="43.48395" lon="5.25927">
        <ele>205.38</ele>
        <time>2021-03-14T11:51:41Z</time>
      </trkpt>
      <trkpt lat="43.48399" lon="5.25927">
        <ele>206.34</ele>
        <time>2021-03-14T11:51:52Z</time>
      </trkpt>
      <trkpt lat="43.48413" lon="5.25926">
        <ele>203.46</ele>
        <time>2021-03-14T11:52:04Z</time>
      </trkpt>
      <trkpt lat="43.48428" lon="5.2592">
        <ele>202.49</ele>
        <time>2021-03-14T11:52:15Z</time>
      </trkpt>
      <trkpt lat="43.4843" lon="5.2591">
        <ele>202.98</ele>
        <time>2021-03-14T11:52:28Z</time>
      </trkpt>
      <trkpt lat="43.4843" lon="5.25909">
        <ele>202.98</ele>
        <time>2021-03-14T11:52:30Z</time>
      </trkpt>
      <trkpt lat="43.48425" lon="5.25911">
        <ele>203.94</ele>
        <time>2021-03-14T11:52:38Z</time>
      </trkpt>
      <trkpt lat="43.4842" lon="5.25916">
        <ele>204.42</ele>
        <time>2021-03-14T11:52:44Z</time>
      </trkpt>
      <trkpt lat="43.48419" lon="5.25918">
        <ele>204.42</ele>
        <time>2021-03-14T11:52:46Z</time>
      </trkpt>
      <trkpt lat="43.48418" lon="5.2592">
        <ele>203.94</ele>
        <time>2021-03-14T11:52:48Z</time>
      </trkpt>
      <trkpt lat="43.48417" lon="5.25922">
        <ele>202.01</ele>
        <time>2021-03-14T11:53:03Z</time>
      </trkpt>
      <trkpt lat="43.48421" lon="5.25923">
        <ele>202.01</ele>
        <time>2021-03-14T11:53:08Z</time>
      </trkpt>
      <trkpt lat="43.48416" lon="5.25926">
        <ele>202.49</ele>
        <time>2021-03-14T11:53:12Z</time>
      </trkpt>
      <trkpt lat="43.48405" lon="5.25935">
        <ele>202.01</ele>
        <time>2021-03-14T11:53:26Z</time>
      </trkpt>
      <trkpt lat="43.48404" lon="5.25935">
        <ele>202.98</ele>
        <time>2021-03-14T11:53:45Z</time>
      </trkpt>
      <trkpt lat="43.48403" lon="5.2594">
        <ele>202.98</ele>
        <time>2021-03-14T11:53:52Z</time>
      </trkpt>
      <trkpt lat="43.48401" lon="5.25953">
        <ele>202.49</ele>
        <time>2021-03-14T11:54:03Z</time>
      </trkpt>
      <trkpt lat="43.48402" lon="5.25972">
        <ele>203.46</ele>
        <time>2021-03-14T11:54:17Z</time>
      </trkpt>
      <trkpt lat="43.48404" lon="5.25991">
        <ele>204.9</ele>
        <time>2021-03-14T11:54:29Z</time>
      </trkpt>
      <trkpt lat="43.48405" lon="5.26003">
        <ele>208.74</ele>
        <time>2021-03-14T11:54:38Z</time>
      </trkpt>
      <trkpt lat="43.48405" lon="5.26008">
        <ele>210.19</ele>
        <time>2021-03-14T11:54:41Z</time>
      </trkpt>
      <trkpt lat="43.48406" lon="5.26026">
        <ele>212.59</ele>
        <time>2021-03-14T11:54:52Z</time>
      </trkpt>
      <trkpt lat="43.48408" lon="5.26033">
        <ele>212.11</ele>
        <time>2021-03-14T11:54:57Z</time>
      </trkpt>
      <trkpt lat="43.4841" lon="5.26052">
        <ele>209.7</ele>
        <time>2021-03-14T11:55:10Z</time>
      </trkpt>
      <trkpt lat="43.48412" lon="5.26069">
        <ele>209.22</ele>
        <time>2021-03-14T11:55:21Z</time>
      </trkpt>
      <trkpt lat="43.48414" lon="5.26087">
        <ele>210.19</ele>
        <time>2021-03-14T11:55:33Z</time>
      </trkpt>
      <trkpt lat="43.48416" lon="5.2611">
        <ele>212.11</ele>
        <time>2021-03-14T11:55:46Z</time>
      </trkpt>
      <trkpt lat="43.4842" lon="5.26129">
        <ele>210.19</ele>
        <time>2021-03-14T11:55:57Z</time>
      </trkpt>
      <trkpt lat="43.48423" lon="5.26151">
        <ele>208.26</ele>
        <time>2021-03-14T11:56:10Z</time>
      </trkpt>
      <trkpt lat="43.48428" lon="5.26168">
        <ele>202.01</ele>
        <time>2021-03-14T11:56:22Z</time>
      </trkpt>
      <trkpt lat="43.48429" lon="5.26177">
        <ele>200.57</ele>
        <time>2021-03-14T11:56:28Z</time>
      </trkpt>
      <trkpt lat="43.48432" lon="5.26199">
        <ele>201.05</ele>
        <time>2021-03-14T11:56:41Z</time>
      </trkpt>
      <trkpt lat="43.48434" lon="5.26216">
        <ele>200.09</ele>
        <time>2021-03-14T11:56:53Z</time>
      </trkpt>
      <trkpt lat="43.48435" lon="5.26221">
        <ele>200.09</ele>
        <time>2021-03-14T11:56:56Z</time>
      </trkpt>
      <trkpt lat="43.48437" lon="5.26241">
        <ele>201.53</ele>
        <time>2021-03-14T11:57:09Z</time>
      </trkpt>
      <trkpt lat="43.48439" lon="5.26259">
        <ele>201.05</ele>
        <time>2021-03-14T11:57:20Z</time>
      </trkpt>
      <trkpt lat="43.48441" lon="5.26276">
        <ele>200.09</ele>
        <time>2021-03-14T11:57:31Z</time>
      </trkpt>
      <trkpt lat="43.48444" lon="5.26294">
        <ele>198.65</ele>
        <time>2021-03-14T11:57:43Z</time>
      </trkpt>
      <trkpt lat="43.48445" lon="5.26302">
        <ele>198.17</ele>
        <time>2021-03-14T11:57:48Z</time>
      </trkpt>
      <trkpt lat="43.48446" lon="5.26306">
        <ele>198.17</ele>
        <time>2021-03-14T11:57:51Z</time>
      </trkpt>
      <trkpt lat="43.48447" lon="5.26315">
        <ele>198.17</ele>
        <time>2021-03-14T11:57:57Z</time>
      </trkpt>
      <trkpt lat="43.48453" lon="5.26341">
        <ele>197.21</ele>
        <time>2021-03-14T11:58:13Z</time>
      </trkpt>
      <trkpt lat="43.48454" lon="5.26355">
        <ele>199.61</ele>
        <time>2021-03-14T11:58:23Z</time>
      </trkpt>
      <trkpt lat="43.48456" lon="5.26374">
        <ele>200.09</ele>
        <time>2021-03-14T11:58:36Z</time>
      </trkpt>
      <trkpt lat="43.48457" lon="5.26384">
        <ele>200.09</ele>
        <time>2021-03-14T11:58:43Z</time>
      </trkpt>
      <trkpt lat="43.48458" lon="5.26392">
        <ele>200.57</ele>
        <time>2021-03-14T11:58:48Z</time>
      </trkpt>
      <trkpt lat="43.48462" lon="5.26408">
        <ele>201.05</ele>
        <time>2021-03-14T11:59:00Z</time>
      </trkpt>
      <trkpt lat="43.48461" lon="5.26411">
        <ele>201.05</ele>
        <time>2021-03-14T11:59:02Z</time>
      </trkpt>
      <trkpt lat="43.48463" lon="5.26426">
        <ele>200.09</ele>
        <time>2021-03-14T11:59:11Z</time>
      </trkpt>
      <trkpt lat="43.48465" lon="5.26447">
        <ele>201.05</ele>
        <time>2021-03-14T11:59:24Z</time>
      </trkpt>
      <trkpt lat="43.48467" lon="5.2646">
        <ele>202.01</ele>
        <time>2021-03-14T11:59:33Z</time>
      </trkpt>
      <trkpt lat="43.48468" lon="5.26478">
        <ele>203.46</ele>
        <time>2021-03-14T11:59:45Z</time>
      </trkpt>
      <trkpt lat="43.48469" lon="5.26491">
        <ele>203.46</ele>
        <time>2021-03-14T11:59:52Z</time>
      </trkpt>
      <trkpt lat="43.48473" lon="5.26508">
        <ele>204.42</ele>
        <time>2021-03-14T12:00:03Z</time>
      </trkpt>
      <trkpt lat="43.48475" lon="5.2652">
        <ele>203.46</ele>
        <time>2021-03-14T12:00:11Z</time>
      </trkpt>
      <trkpt lat="43.48478" lon="5.26538">
        <ele>201.05</ele>
        <time>2021-03-14T12:00:23Z</time>
      </trkpt>
      <trkpt lat="43.48478" lon="5.26542">
        <ele>200.09</ele>
        <time>2021-03-14T12:00:26Z</time>
      </trkpt>
      <trkpt lat="43.48479" lon="5.26551">
        <ele>199.61</ele>
        <time>2021-03-14T12:00:31Z</time>
      </trkpt>
      <trkpt lat="43.4848" lon="5.26555">
        <ele>199.13</ele>
        <time>2021-03-14T12:00:34Z</time>
      </trkpt>
      <trkpt lat="43.48483" lon="5.26575">
        <ele>199.61</ele>
        <time>2021-03-14T12:00:47Z</time>
      </trkpt>
      <trkpt lat="43.48484" lon="5.2658">
        <ele>200.57</ele>
        <time>2021-03-14T12:00:50Z</time>
      </trkpt>
      <trkpt lat="43.48484" lon="5.26584">
        <ele>200.57</ele>
        <time>2021-03-14T12:00:53Z</time>
      </trkpt>
      <trkpt lat="43.48486" lon="5.26601">
        <ele>200.09</ele>
        <time>2021-03-14T12:01:05Z</time>
      </trkpt>
      <trkpt lat="43.48488" lon="5.26616">
        <ele>200.09</ele>
        <time>2021-03-14T12:01:16Z</time>
      </trkpt>
      <trkpt lat="43.48488" lon="5.26627">
        <ele>203.46</ele>
        <time>2021-03-14T12:01:22Z</time>
      </trkpt>
      <trkpt lat="43.48491" lon="5.26647">
        <ele>205.38</ele>
        <time>2021-03-14T12:01:36Z</time>
      </trkpt>
      <trkpt lat="43.48492" lon="5.26662">
        <ele>204.42</ele>
        <time>2021-03-14T12:01:48Z</time>
      </trkpt>
      <trkpt lat="43.48494" lon="5.26683">
        <ele>205.38</ele>
        <time>2021-03-14T12:02:03Z</time>
      </trkpt>
      <trkpt lat="43.48495" lon="5.267">
        <ele>209.7</ele>
        <time>2021-03-14T12:02:16Z</time>
      </trkpt>
      <trkpt lat="43.48497" lon="5.26718">
        <ele>212.59</ele>
        <time>2021-03-14T12:02:30Z</time>
      </trkpt>
      <trkpt lat="43.485" lon="5.26731">
        <ele>210.67</ele>
        <time>2021-03-14T12:02:42Z</time>
      </trkpt>
      <trkpt lat="43.48502" lon="5.26748">
        <ele>210.67</ele>
        <time>2021-03-14T12:02:57Z</time>
      </trkpt>
      <trkpt lat="43.48506" lon="5.26765">
        <ele>212.11</ele>
        <time>2021-03-14T12:03:08Z</time>
      </trkpt>
      <trkpt lat="43.48512" lon="5.2678">
        <ele>216.91</ele>
        <time>2021-03-14T12:03:20Z</time>
      </trkpt>
      <trkpt lat="43.48519" lon="5.26783">
        <ele>215.95</ele>
        <time>2021-03-14T12:03:34Z</time>
      </trkpt>
      <trkpt lat="43.48529" lon="5.26788">
        <ele>212.59</ele>
        <time>2021-03-14T12:03:41Z</time>
      </trkpt>
      <trkpt lat="43.48536" lon="5.26789">
        <ele>210.67</ele>
        <time>2021-03-14T12:03:52Z</time>
      </trkpt>
      <trkpt lat="43.48539" lon="5.26794">
        <ele>211.15</ele>
        <time>2021-03-14T12:04:04Z</time>
      </trkpt>
      <trkpt lat="43.48541" lon="5.26798">
        <ele>211.63</ele>
        <time>2021-03-14T12:04:16Z</time>
      </trkpt>
      <trkpt lat="43.48544" lon="5.26802">
        <ele>214.03</ele>
        <time>2021-03-14T12:04:29Z</time>
      </trkpt>
      <trkpt lat="43.48542" lon="5.26804">
        <ele>214.99</ele>
        <time>2021-03-14T12:04:56Z</time>
      </trkpt>
      <trkpt lat="43.48549" lon="5.26801">
        <ele>214.51</ele>
        <time>2021-03-14T12:05:11Z</time>
      </trkpt>
      <trkpt lat="43.48553" lon="5.268">
        <ele>210.19</ele>
        <time>2021-03-14T12:05:37Z</time>
      </trkpt>
      <trkpt lat="43.48553" lon="5.26801">
        <ele>206.82</ele>
        <time>2021-03-14T12:06:08Z</time>
      </trkpt>
      <trkpt lat="43.48551" lon="5.268">
        <ele>204.42</ele>
        <time>2021-03-14T12:06:46Z</time>
      </trkpt>
      <trkpt lat="43.48551" lon="5.26801">
        <ele>208.26</ele>
        <time>2021-03-14T12:07:27Z</time>
      </trkpt>
      <trkpt lat="43.48549" lon="5.268">
        <ele>207.3</ele>
        <time>2021-03-14T12:07:43Z</time>
      </trkpt>
      <trkpt lat="43.48552" lon="5.26801">
        <ele>200.57</ele>
        <time>2021-03-14T12:08:11Z</time>
      </trkpt>
      <trkpt lat="43.48549" lon="5.26802">
        <ele>204.42</ele>
        <time>2021-03-14T12:08:48Z</time>
      </trkpt>
      <trkpt lat="43.48545" lon="5.26806">
        <ele>205.38</ele>
        <time>2021-03-14T12:09:27Z</time>
      </trkpt>
      <trkpt lat="43.4855" lon="5.26803">
        <ele>198.65</ele>
        <time>2021-03-14T12:10:09Z</time>
      </trkpt>
      <trkpt lat="43.48553" lon="5.26799">
        <ele>198.65</ele>
        <time>2021-03-14T12:10:41Z</time>
      </trkpt>
      <trkpt lat="43.48551" lon="5.26798">
        <ele>196.73</ele>
        <time>2021-03-14T12:11:19Z</time>
      </trkpt>
      <trkpt lat="43.48549" lon="5.268">
        <ele>198.17</ele>
        <time>2021-03-14T12:11:58Z</time>
      </trkpt>
      <trkpt lat="43.48551" lon="5.26799">
        <ele>197.69</ele>
        <time>2021-03-14T12:12:38Z</time>
      </trkpt>
      <trkpt lat="43.48554" lon="5.26798">
        <ele>196.73</ele>
        <time>2021-03-14T12:13:22Z</time>
      </trkpt>
      <trkpt lat="43.48553" lon="5.26795">
        <ele>195.28</ele>
        <time>2021-03-14T12:13:58Z</time>
      </trkpt>
      <trkpt lat="43.48552" lon="5.26796">
        <ele>196.25</ele>
        <time>2021-03-14T12:14:42Z</time>
      </trkpt>
      <trkpt lat="43.48553" lon="5.26796">
        <ele>196.25</ele>
        <time>2021-03-14T12:15:15Z</time>
      </trkpt>
      <trkpt lat="43.48553" lon="5.26797">
        <ele>195.28</ele>
        <time>2021-03-14T12:15:54Z</time>
      </trkpt>
      <trkpt lat="43.48552" lon="5.26792">
        <ele>201.53</ele>
        <time>2021-03-14T12:16:26Z</time>
      </trkpt>
      <trkpt lat="43.48551" lon="5.26793">
        <ele>202.49</ele>
        <time>2021-03-14T12:17:01Z</time>
      </trkpt>
      <trkpt lat="43.48549" lon="5.26795">
        <ele>202.01</ele>
        <time>2021-03-14T12:17:40Z</time>
      </trkpt>
      <trkpt lat="43.48547" lon="5.26797">
        <ele>207.78</ele>
        <time>2021-03-14T12:18:18Z</time>
      </trkpt>
      <trkpt lat="43.48547" lon="5.26797">
        <ele>211.63</ele>
        <time>2021-03-14T12:18:58Z</time>
      </trkpt>
      <trkpt lat="43.48546" lon="5.26797">
        <ele>221.72</ele>
        <time>2021-03-14T12:19:31Z</time>
      </trkpt>
      <trkpt lat="43.48547" lon="5.26795">
        <ele>218.36</ele>
        <time>2021-03-14T12:20:10Z</time>
      </trkpt>
      <trkpt lat="43.48549" lon="5.26793">
        <ele>214.51</ele>
        <time>2021-03-14T12:20:49Z</time>
      </trkpt>
      <trkpt lat="43.4855" lon="5.26794">
        <ele>209.22</ele>
        <time>2021-03-14T12:21:32Z</time>
      </trkpt>
      <trkpt lat="43.48551" lon="5.26796">
        <ele>206.34</ele>
        <time>2021-03-14T12:22:09Z</time>
      </trkpt>
      <trkpt lat="43.48549" lon="5.26796">
        <ele>209.22</ele>
        <time>2021-03-14T12:22:44Z</time>
      </trkpt>
      <trkpt lat="43.48548" lon="5.26799">
        <ele>214.03</ele>
        <time>2021-03-14T12:23:18Z</time>
      </trkpt>
      <trkpt lat="43.48548" lon="5.26799">
        <ele>216.91</ele>
        <time>2021-03-14T12:23:57Z</time>
      </trkpt>
      <trkpt lat="43.48547" lon="5.268">
        <ele>215.95</ele>
        <time>2021-03-14T12:24:30Z</time>
      </trkpt>
      <trkpt lat="43.48547" lon="5.26799">
        <ele>219.8</ele>
        <time>2021-03-14T12:25:09Z</time>
      </trkpt>
      <trkpt lat="43.48545" lon="5.26803">
        <ele>221.72</ele>
        <time>2021-03-14T12:25:42Z</time>
      </trkpt>
      <trkpt lat="43.48545" lon="5.26801">
        <ele>218.84</ele>
        <time>2021-03-14T12:26:22Z</time>
      </trkpt>
      <trkpt lat="43.48548" lon="5.26801">
        <ele>215.95</ele>
        <time>2021-03-14T12:26:51Z</time>
      </trkpt>
      <trkpt lat="43.48548" lon="5.26801">
        <ele>211.63</ele>
        <time>2021-03-14T12:27:24Z</time>
      </trkpt>
      <trkpt lat="43.48549" lon="5.26799">
        <ele>219.8</ele>
        <time>2021-03-14T12:28:06Z</time>
      </trkpt>
      <trkpt lat="43.48548" lon="5.26797">
        <ele>217.4</ele>
        <time>2021-03-14T12:28:47Z</time>
      </trkpt>
      <trkpt lat="43.48549" lon="5.26795">
        <ele>208.26</ele>
        <time>2021-03-14T12:29:25Z</time>
      </trkpt>
      <trkpt lat="43.48549" lon="5.26796">
        <ele>208.74</ele>
        <time>2021-03-14T12:29:58Z</time>
      </trkpt>
      <trkpt lat="43.4855" lon="5.26795">
        <ele>208.26</ele>
        <time>2021-03-14T12:30:29Z</time>
      </trkpt>
      <trkpt lat="43.48548" lon="5.26797">
        <ele>213.55</ele>
        <time>2021-03-14T12:31:06Z</time>
      </trkpt>
      <trkpt lat="43.48547" lon="5.26799">
        <ele>214.03</ele>
        <time>2021-03-14T12:31:40Z</time>
      </trkpt>
      <trkpt lat="43.48549" lon="5.26797">
        <ele>204.42</ele>
        <time>2021-03-14T12:32:13Z</time>
      </trkpt>
      <trkpt lat="43.48551" lon="5.26797">
        <ele>202.98</ele>
        <time>2021-03-14T12:32:46Z</time>
      </trkpt>
      <trkpt lat="43.4855" lon="5.26798">
        <ele>204.9</ele>
        <time>2021-03-14T12:33:24Z</time>
      </trkpt>
      <trkpt lat="43.4855" lon="5.268">
        <ele>205.38</ele>
        <time>2021-03-14T12:34:01Z</time>
      </trkpt>
      <trkpt lat="43.48551" lon="5.26798">
        <ele>202.98</ele>
        <time>2021-03-14T12:34:30Z</time>
      </trkpt>
      <trkpt lat="43.48548" lon="5.268">
        <ele>203.94</ele>
        <time>2021-03-14T12:35:04Z</time>
      </trkpt>
      <trkpt lat="43.48549" lon="5.26799">
        <ele>204.9</ele>
        <time>2021-03-14T12:35:37Z</time>
      </trkpt>
      <trkpt lat="43.48552" lon="5.26801">
        <ele>208.26</ele>
        <time>2021-03-14T12:36:09Z</time>
      </trkpt>
      <trkpt lat="43.48551" lon="5.268">
        <ele>208.26</ele>
        <time>2021-03-14T12:36:46Z</time>
      </trkpt>
      <trkpt lat="43.48553" lon="5.26802">
        <ele>204.9</ele>
        <time>2021-03-14T12:37:19Z</time>
      </trkpt>
      <trkpt lat="43.4855" lon="5.26804">
        <ele>207.78</ele>
        <time>2021-03-14T12:37:49Z</time>
      </trkpt>
      <trkpt lat="43.48551" lon="5.26804">
        <ele>208.74</ele>
        <time>2021-03-14T12:38:22Z</time>
      </trkpt>
      <trkpt lat="43.48552" lon="5.26801">
        <ele>206.34</ele>
        <time>2021-03-14T12:38:41Z</time>
      </trkpt>
      <trkpt lat="43.48553" lon="5.26802">
        <ele>205.38</ele>
        <time>2021-03-14T12:38:55Z</time>
      </trkpt>
      <trkpt lat="43.48555" lon="5.268">
        <ele>204.9</ele>
        <time>2021-03-14T12:39:10Z</time>
      </trkpt>
      <trkpt lat="43.48555" lon="5.268">
        <ele>203.46</ele>
        <time>2021-03-14T12:39:28Z</time>
      </trkpt>
      <trkpt lat="43.48554" lon="5.268">
        <ele>204.9</ele>
        <time>2021-03-14T12:39:49Z</time>
      </trkpt>
      <trkpt lat="43.48554" lon="5.26798">
        <ele>205.38</ele>
        <time>2021-03-14T12:40:10Z</time>
      </trkpt>
      <trkpt lat="43.48555" lon="5.268">
        <ele>204.9</ele>
        <time>2021-03-14T12:40:29Z</time>
      </trkpt>
      <trkpt lat="43.48553" lon="5.26803">
        <ele>205.38</ele>
        <time>2021-03-14T12:40:46Z</time>
      </trkpt>
      <trkpt lat="43.48554" lon="5.26803">
        <ele>205.38</ele>
        <time>2021-03-14T12:41:03Z</time>
      </trkpt>
      <trkpt lat="43.48554" lon="5.26801">
        <ele>204.9</ele>
        <time>2021-03-14T12:41:16Z</time>
      </trkpt>
      <trkpt lat="43.48549" lon="5.26801">
        <ele>202.49</ele>
        <time>2021-03-14T12:41:27Z</time>
      </trkpt>
      <trkpt lat="43.48543" lon="5.2679">
        <ele>202.49</ele>
        <time>2021-03-14T12:41:37Z</time>
      </trkpt>
      <trkpt lat="43.48541" lon="5.26785">
        <ele>202.98</ele>
        <time>2021-03-14T12:41:50Z</time>
      </trkpt>
      <trkpt lat="43.48539" lon="5.26784">
        <ele>202.49</ele>
        <time>2021-03-14T12:41:56Z</time>
      </trkpt>
      <trkpt lat="43.48531" lon="5.26788">
        <ele>201.53</ele>
        <time>2021-03-14T12:42:08Z</time>
      </trkpt>
      <trkpt lat="43.48525" lon="5.26793">
        <ele>201.53</ele>
        <time>2021-03-14T12:42:18Z</time>
      </trkpt>
      <trkpt lat="43.48525" lon="5.26796">
        <ele>202.01</ele>
        <time>2021-03-14T12:42:22Z</time>
      </trkpt>
      <trkpt lat="43.48525" lon="5.26805">
        <ele>201.53</ele>
        <time>2021-03-14T12:42:29Z</time>
      </trkpt>
      <trkpt lat="43.48526" lon="5.26811">
        <ele>201.53</ele>
        <time>2021-03-14T12:42:33Z</time>
      </trkpt>
      <trkpt lat="43.48527" lon="5.26813">
        <ele>202.01</ele>
        <time>2021-03-14T12:42:35Z</time>
      </trkpt>
      <trkpt lat="43.48528" lon="5.26822">
        <ele>202.49</ele>
        <time>2021-03-14T12:42:41Z</time>
      </trkpt>
      <trkpt lat="43.48528" lon="5.26836">
        <ele>206.34</ele>
        <time>2021-03-14T12:42:54Z</time>
      </trkpt>
      <trkpt lat="43.48523" lon="5.26847">
        <ele>207.3</ele>
        <time>2021-03-14T12:43:04Z</time>
      </trkpt>
      <trkpt lat="43.48521" lon="5.26857">
        <ele>208.26</ele>
        <time>2021-03-14T12:43:15Z</time>
      </trkpt>
      <trkpt lat="43.48523" lon="5.26871">
        <ele>208.26</ele>
        <time>2021-03-14T12:43:26Z</time>
      </trkpt>
      <trkpt lat="43.4853" lon="5.26881">
        <ele>208.74</ele>
        <time>2021-03-14T12:43:39Z</time>
      </trkpt>
      <trkpt lat="43.48533" lon="5.2689">
        <ele>210.67</ele>
        <time>2021-03-14T12:43:50Z</time>
      </trkpt>
      <trkpt lat="43.48531" lon="5.26895">
        <ele>211.63</ele>
        <time>2021-03-14T12:43:56Z</time>
      </trkpt>
      <trkpt lat="43.48527" lon="5.26907">
        <ele>213.55</ele>
        <time>2021-03-14T12:44:08Z</time>
      </trkpt>
      <trkpt lat="43.48526" lon="5.26909">
        <ele>213.55</ele>
        <time>2021-03-14T12:44:10Z</time>
      </trkpt>
      <trkpt lat="43.48522" lon="5.26916">
        <ele>214.51</ele>
        <time>2021-03-14T12:44:18Z</time>
      </trkpt>
      <trkpt lat="43.48516" lon="5.26926">
        <ele>214.99</ele>
        <time>2021-03-14T12:44:29Z</time>
      </trkpt>
      <trkpt lat="43.48514" lon="5.26928">
        <ele>215.47</ele>
        <time>2021-03-14T12:44:32Z</time>
      </trkpt>
      <trkpt lat="43.48513" lon="5.2693">
        <ele>215.47</ele>
        <time>2021-03-14T12:44:34Z</time>
      </trkpt>
      <trkpt lat="43.48513" lon="5.26933">
        <ele>215.47</ele>
        <time>2021-03-14T12:44:36Z</time>
      </trkpt>
      <trkpt lat="43.48509" lon="5.26943">
        <ele>214.99</ele>
        <time>2021-03-14T12:44:48Z</time>
      </trkpt>
      <trkpt lat="43.48507" lon="5.26948">
        <ele>214.99</ele>
        <time>2021-03-14T12:44:51Z</time>
      </trkpt>
      <trkpt lat="43.48506" lon="5.2695">
        <ele>214.99</ele>
        <time>2021-03-14T12:44:53Z</time>
      </trkpt>
      <trkpt lat="43.48503" lon="5.26963">
        <ele>216.91</ele>
        <time>2021-03-14T12:45:03Z</time>
      </trkpt>
      <trkpt lat="43.48503" lon="5.2697">
        <ele>217.4</ele>
        <time>2021-03-14T12:45:07Z</time>
      </trkpt>
      <trkpt lat="43.48504" lon="5.26979">
        <ele>217.88</ele>
        <time>2021-03-14T12:45:15Z</time>
      </trkpt>
      <trkpt lat="43.48508" lon="5.26995">
        <ele>218.36</ele>
        <time>2021-03-14T12:45:29Z</time>
      </trkpt>
      <trkpt lat="43.4851" lon="5.27002">
        <ele>218.84</ele>
        <time>2021-03-14T12:45:35Z</time>
      </trkpt>
      <trkpt lat="43.48512" lon="5.27007">
        <ele>218.84</ele>
        <time>2021-03-14T12:45:40Z</time>
      </trkpt>
      <trkpt lat="43.48519" lon="5.27018">
        <ele>219.32</ele>
        <time>2021-03-14T12:45:53Z</time>
      </trkpt>
      <trkpt lat="43.48523" lon="5.27022">
        <ele>221.24</ele>
        <time>2021-03-14T12:46:06Z</time>
      </trkpt>
      <trkpt lat="43.48531" lon="5.27031">
        <ele>222.68</ele>
        <time>2021-03-14T12:46:18Z</time>
      </trkpt>
      <trkpt lat="43.48541" lon="5.27039">
        <ele>224.12</ele>
        <time>2021-03-14T12:46:31Z</time>
      </trkpt>
      <trkpt lat="43.48546" lon="5.27045">
        <ele>226.53</ele>
        <time>2021-03-14T12:46:45Z</time>
      </trkpt>
      <trkpt lat="43.48546" lon="5.27046">
        <ele>225.57</ele>
        <time>2021-03-14T12:47:05Z</time>
      </trkpt>
      <trkpt lat="43.48553" lon="5.27055">
        <ele>226.05</ele>
        <time>2021-03-14T12:47:18Z</time>
      </trkpt>
      <trkpt lat="43.48556" lon="5.27059">
        <ele>226.05</ele>
        <time>2021-03-14T12:47:23Z</time>
      </trkpt>
      <trkpt lat="43.48563" lon="5.2707">
        <ele>227.49</ele>
        <time>2021-03-14T12:47:37Z</time>
      </trkpt>
      <trkpt lat="43.48566" lon="5.27076">
        <ele>227.01</ele>
        <time>2021-03-14T12:47:43Z</time>
      </trkpt>
      <trkpt lat="43.48574" lon="5.27087">
        <ele>227.97</ele>
        <time>2021-03-14T12:47:55Z</time>
      </trkpt>
      <trkpt lat="43.48583" lon="5.27097">
        <ele>227.97</ele>
        <time>2021-03-14T12:48:08Z</time>
      </trkpt>
      <trkpt lat="43.4859" lon="5.27105">
        <ele>230.85</ele>
        <time>2021-03-14T12:48:21Z</time>
      </trkpt>
      <trkpt lat="43.48598" lon="5.27115">
        <ele>235.18</ele>
        <time>2021-03-14T12:48:32Z</time>
      </trkpt>
      <trkpt lat="43.48604" lon="5.27125">
        <ele>238.06</ele>
        <time>2021-03-14T12:48:44Z</time>
      </trkpt>
      <trkpt lat="43.48612" lon="5.27135">
        <ele>240.47</ele>
        <time>2021-03-14T12:48:55Z</time>
      </trkpt>
      <trkpt lat="43.48619" lon="5.27142">
        <ele>240.95</ele>
        <time>2021-03-14T12:49:06Z</time>
      </trkpt>
      <trkpt lat="43.48622" lon="5.27143">
        <ele>239.51</ele>
        <time>2021-03-14T12:49:27Z</time>
      </trkpt>
      <trkpt lat="43.48622" lon="5.27143">
        <ele>238.06</ele>
        <time>2021-03-14T12:49:51Z</time>
      </trkpt>
      <trkpt lat="43.4862" lon="5.27143">
        <ele>237.58</ele>
        <time>2021-03-14T12:50:15Z</time>
      </trkpt>
      <trkpt lat="43.4862" lon="5.27142">
        <ele>239.51</ele>
        <time>2021-03-14T12:50:39Z</time>
      </trkpt>
      <trkpt lat="43.48622" lon="5.27144">
        <ele>239.99</ele>
        <time>2021-03-14T12:51:07Z</time>
      </trkpt>
      <trkpt lat="43.48628" lon="5.27148">
        <ele>239.99</ele>
        <time>2021-03-14T12:51:31Z</time>
      </trkpt>
      <trkpt lat="43.48637" lon="5.27152">
        <ele>240.47</ele>
        <time>2021-03-14T12:51:39Z</time>
      </trkpt>
      <trkpt lat="43.48653" lon="5.2716">
        <ele>242.39</ele>
        <time>2021-03-14T12:51:52Z</time>
      </trkpt>
      <trkpt lat="43.48665" lon="5.27164">
        <ele>243.35</ele>
        <time>2021-03-14T12:52:03Z</time>
      </trkpt>
      <trkpt lat="43.48677" lon="5.27167">
        <ele>243.83</ele>
        <time>2021-03-14T12:52:17Z</time>
      </trkpt>
      <trkpt lat="43.48688" lon="5.27168">
        <ele>244.31</ele>
        <time>2021-03-14T12:52:29Z</time>
      </trkpt>
      <trkpt lat="43.48698" lon="5.27169">
        <ele>247.2</ele>
        <time>2021-03-14T12:52:42Z</time>
      </trkpt>
      <trkpt lat="43.48702" lon="5.27169">
        <ele>247.68</ele>
        <time>2021-03-14T12:52:46Z</time>
      </trkpt>
      <trkpt lat="43.48704" lon="5.2717">
        <ele>247.68</ele>
        <time>2021-03-14T12:52:48Z</time>
      </trkpt>
      <trkpt lat="43.48708" lon="5.2717">
        <ele>248.16</ele>
        <time>2021-03-14T12:52:52Z</time>
      </trkpt>
      <trkpt lat="43.4872" lon="5.27169">
        <ele>248.16</ele>
        <time>2021-03-14T12:53:05Z</time>
      </trkpt>
      <trkpt lat="43.48729" lon="5.27169">
        <ele>248.64</ele>
        <time>2021-03-14T12:53:14Z</time>
      </trkpt>
      <trkpt lat="43.48741" lon="5.27169">
        <ele>250.56</ele>
        <time>2021-03-14T12:53:28Z</time>
      </trkpt>
      <trkpt lat="43.48751" lon="5.27167">
        <ele>253.93</ele>
        <time>2021-03-14T12:53:39Z</time>
      </trkpt>
      <trkpt lat="43.48752" lon="5.27167">
        <ele>253.93</ele>
        <time>2021-03-14T12:53:40Z</time>
      </trkpt>
      <trkpt lat="43.48753" lon="5.27167">
        <ele>254.41</ele>
        <time>2021-03-14T12:53:42Z</time>
      </trkpt>
      <trkpt lat="43.48758" lon="5.27166">
        <ele>255.37</ele>
        <time>2021-03-14T12:53:47Z</time>
      </trkpt>
      <trkpt lat="43.4876" lon="5.27166">
        <ele>255.37</ele>
        <time>2021-03-14T12:53:49Z</time>
      </trkpt>
      <trkpt lat="43.48767" lon="5.27164">
        <ele>254.41</ele>
        <time>2021-03-14T12:54:02Z</time>
      </trkpt>
      <trkpt lat="43.48769" lon="5.27165">
        <ele>255.85</ele>
        <time>2021-03-14T12:54:26Z</time>
      </trkpt>
      <trkpt lat="43.48771" lon="5.27164">
        <ele>256.33</ele>
        <time>2021-03-14T12:54:28Z</time>
      </trkpt>
      <trkpt lat="43.48777" lon="5.27164">
        <ele>258.25</ele>
        <time>2021-03-14T12:54:41Z</time>
      </trkpt>
      <trkpt lat="43.4878" lon="5.27163">
        <ele>258.25</ele>
        <time>2021-03-14T12:54:45Z</time>
      </trkpt>
      <trkpt lat="43.48787" lon="5.27162">
        <ele>258.73</ele>
        <time>2021-03-14T12:54:52Z</time>
      </trkpt>
      <trkpt lat="43.48793" lon="5.27162">
        <ele>258.25</ele>
        <time>2021-03-14T12:54:58Z</time>
      </trkpt>
      <trkpt lat="43.48802" lon="5.27161">
        <ele>258.73</ele>
        <time>2021-03-14T12:55:06Z</time>
      </trkpt>
      <trkpt lat="43.48814" lon="5.27159">
        <ele>260.17</ele>
        <time>2021-03-14T12:55:18Z</time>
      </trkpt>
      <trkpt lat="43.48824" lon="5.27157">
        <ele>260.65</ele>
        <time>2021-03-14T12:55:29Z</time>
      </trkpt>
      <trkpt lat="43.48825" lon="5.27157">
        <ele>260.65</ele>
        <time>2021-03-14T12:55:30Z</time>
      </trkpt>
      <trkpt lat="43.48827" lon="5.27157">
        <ele>260.65</ele>
        <time>2021-03-14T12:55:32Z</time>
      </trkpt>
      <trkpt lat="43.48839" lon="5.27154">
        <ele>260.65</ele>
        <time>2021-03-14T12:55:44Z</time>
      </trkpt>
      <trkpt lat="43.48853" lon="5.27153">
        <ele>262.58</ele>
        <time>2021-03-14T12:55:57Z</time>
      </trkpt>
      <trkpt lat="43.48863" lon="5.27152">
        <ele>263.54</ele>
        <time>2021-03-14T12:56:06Z</time>
      </trkpt>
      <trkpt lat="43.48868" lon="5.27152">
        <ele>264.02</ele>
        <time>2021-03-14T12:56:11Z</time>
      </trkpt>
      <trkpt lat="43.48875" lon="5.27151">
        <ele>264.02</ele>
        <time>2021-03-14T12:56:17Z</time>
      </trkpt>
      <trkpt lat="43.48888" lon="5.27152">
        <ele>264.98</ele>
        <time>2021-03-14T12:56:29Z</time>
      </trkpt>
      <trkpt lat="43.4889" lon="5.27151">
        <ele>264.98</ele>
        <time>2021-03-14T12:56:31Z</time>
      </trkpt>
      <trkpt lat="43.48896" lon="5.27152">
        <ele>265.46</ele>
        <time>2021-03-14T12:56:36Z</time>
      </trkpt>
      <trkpt lat="43.48903" lon="5.27153">
        <ele>264.5</ele>
        <time>2021-03-14T12:56:43Z</time>
      </trkpt>
      <trkpt lat="43.48913" lon="5.27155">
        <ele>264.98</ele>
        <time>2021-03-14T12:56:52Z</time>
      </trkpt>
      <trkpt lat="43.48926" lon="5.27157">
        <ele>263.54</ele>
        <time>2021-03-14T12:57:04Z</time>
      </trkpt>
      <trkpt lat="43.48937" lon="5.27159">
        <ele>264.02</ele>
        <time>2021-03-14T12:57:14Z</time>
      </trkpt>
      <trkpt lat="43.48947" lon="5.2716">
        <ele>263.54</ele>
        <time>2021-03-14T12:57:23Z</time>
      </trkpt>
      <trkpt lat="43.48959" lon="5.27164">
        <ele>262.1</ele>
        <time>2021-03-14T12:57:34Z</time>
      </trkpt>
      <trkpt lat="43.48961" lon="5.27165">
        <ele>262.1</ele>
        <time>2021-03-14T12:57:36Z</time>
      </trkpt>
      <trkpt lat="43.48971" lon="5.27165">
        <ele>262.58</ele>
        <time>2021-03-14T12:57:45Z</time>
      </trkpt>
      <trkpt lat="43.48976" lon="5.27165">
        <ele>261.62</ele>
        <time>2021-03-14T12:57:49Z</time>
      </trkpt>
      <trkpt lat="43.48988" lon="5.27167">
        <ele>261.14</ele>
        <time>2021-03-14T12:58:00Z</time>
      </trkpt>
      <trkpt lat="43.4899" lon="5.27166">
        <ele>261.62</ele>
        <time>2021-03-14T12:58:06Z</time>
      </trkpt>
      <trkpt lat="43.48992" lon="5.27166">
        <ele>262.1</ele>
        <time>2021-03-14T12:58:11Z</time>
      </trkpt>
      <trkpt lat="43.48989" lon="5.27166">
        <ele>261.14</ele>
        <time>2021-03-14T12:58:16Z</time>
      </trkpt>
      <trkpt lat="43.48996" lon="5.27165">
        <ele>261.14</ele>
        <time>2021-03-14T12:58:24Z</time>
      </trkpt>
      <trkpt lat="43.48999" lon="5.27166">
        <ele>261.14</ele>
        <time>2021-03-14T12:58:29Z</time>
      </trkpt>
      <trkpt lat="43.49005" lon="5.27164">
        <ele>260.65</ele>
        <time>2021-03-14T12:58:34Z</time>
      </trkpt>
      <trkpt lat="43.49012" lon="5.2716">
        <ele>260.17</ele>
        <time>2021-03-14T12:58:40Z</time>
      </trkpt>
      <trkpt lat="43.49027" lon="5.27154">
        <ele>261.14</ele>
        <time>2021-03-14T12:58:53Z</time>
      </trkpt>
      <trkpt lat="43.49031" lon="5.27151">
        <ele>261.14</ele>
        <time>2021-03-14T12:58:57Z</time>
      </trkpt>
      <trkpt lat="43.49033" lon="5.2715">
        <ele>261.62</ele>
        <time>2021-03-14T12:58:59Z</time>
      </trkpt>
      <trkpt lat="43.49044" lon="5.27144">
        <ele>261.62</ele>
        <time>2021-03-14T12:59:11Z</time>
      </trkpt>
      <trkpt lat="43.4905" lon="5.27142">
        <ele>262.1</ele>
        <time>2021-03-14T12:59:17Z</time>
      </trkpt>
      <trkpt lat="43.49058" lon="5.27139">
        <ele>262.58</ele>
        <time>2021-03-14T12:59:27Z</time>
      </trkpt>
      <trkpt lat="43.4907" lon="5.27133">
        <ele>262.58</ele>
        <time>2021-03-14T12:59:38Z</time>
      </trkpt>
      <trkpt lat="43.49082" lon="5.27126">
        <ele>262.58</ele>
        <time>2021-03-14T12:59:51Z</time>
      </trkpt>
      <trkpt lat="43.49093" lon="5.27122">
        <ele>264.02</ele>
        <time>2021-03-14T13:00:02Z</time>
      </trkpt>
      <trkpt lat="43.49102" lon="5.27118">
        <ele>263.54</ele>
        <time>2021-03-14T13:00:10Z</time>
      </trkpt>
      <trkpt lat="43.49108" lon="5.27114">
        <ele>263.06</ele>
        <time>2021-03-14T13:00:17Z</time>
      </trkpt>
      <trkpt lat="43.49121" lon="5.27108">
        <ele>263.06</ele>
        <time>2021-03-14T13:00:30Z</time>
      </trkpt>
      <trkpt lat="43.49129" lon="5.27104">
        <ele>263.54</ele>
        <time>2021-03-14T13:00:41Z</time>
      </trkpt>
      <trkpt lat="43.49139" lon="5.27102">
        <ele>264.5</ele>
        <time>2021-03-14T13:00:51Z</time>
      </trkpt>
      <trkpt lat="43.49148" lon="5.271">
        <ele>264.5</ele>
        <time>2021-03-14T13:01:00Z</time>
      </trkpt>
      <trkpt lat="43.49151" lon="5.271">
        <ele>264.98</ele>
        <time>2021-03-14T13:01:02Z</time>
      </trkpt>
      <trkpt lat="43.49157" lon="5.27098">
        <ele>265.94</ele>
        <time>2021-03-14T13:01:08Z</time>
      </trkpt>
      <trkpt lat="43.49171" lon="5.27093">
        <ele>265.94</ele>
        <time>2021-03-14T13:01:22Z</time>
      </trkpt>
      <trkpt lat="43.49181" lon="5.27093">
        <ele>266.9</ele>
        <time>2021-03-14T13:01:32Z</time>
      </trkpt>
      <trkpt lat="43.49192" lon="5.27089">
        <ele>268.35</ele>
        <time>2021-03-14T13:01:43Z</time>
      </trkpt>
      <trkpt lat="43.49203" lon="5.27088">
        <ele>268.35</ele>
        <time>2021-03-14T13:01:54Z</time>
      </trkpt>
      <trkpt lat="43.49213" lon="5.27087">
        <ele>268.35</ele>
        <time>2021-03-14T13:02:04Z</time>
      </trkpt>
      <trkpt lat="43.4922" lon="5.27086">
        <ele>268.35</ele>
        <time>2021-03-14T13:02:10Z</time>
      </trkpt>
      <trkpt lat="43.49234" lon="5.27083">
        <ele>269.31</ele>
        <time>2021-03-14T13:02:23Z</time>
      </trkpt>
      <trkpt lat="43.49245" lon="5.27079">
        <ele>268.35</ele>
        <time>2021-03-14T13:02:32Z</time>
      </trkpt>
      <trkpt lat="43.49255" lon="5.27077">
        <ele>267.86</ele>
        <time>2021-03-14T13:02:41Z</time>
      </trkpt>
      <trkpt lat="43.49257" lon="5.27076">
        <ele>267.86</ele>
        <time>2021-03-14T13:02:43Z</time>
      </trkpt>
      <trkpt lat="43.4926" lon="5.27075">
        <ele>268.35</ele>
        <time>2021-03-14T13:02:46Z</time>
      </trkpt>
      <trkpt lat="43.49274" lon="5.27072">
        <ele>267.86</ele>
        <time>2021-03-14T13:02:58Z</time>
      </trkpt>
      <trkpt lat="43.4928" lon="5.27071">
        <ele>267.86</ele>
        <time>2021-03-14T13:03:04Z</time>
      </trkpt>
      <trkpt lat="43.49288" lon="5.27068">
        <ele>267.86</ele>
        <time>2021-03-14T13:03:17Z</time>
      </trkpt>
      <trkpt lat="43.49294" lon="5.27064">
        <ele>267.38</ele>
        <time>2021-03-14T13:03:30Z</time>
      </trkpt>
      <trkpt lat="43.49302" lon="5.27064">
        <ele>268.35</ele>
        <time>2021-03-14T13:03:36Z</time>
      </trkpt>
      <trkpt lat="43.49306" lon="5.27062">
        <ele>268.83</ele>
        <time>2021-03-14T13:03:39Z</time>
      </trkpt>
      <trkpt lat="43.49314" lon="5.27061">
        <ele>269.31</ele>
        <time>2021-03-14T13:03:47Z</time>
      </trkpt>
      <trkpt lat="43.49322" lon="5.27059">
        <ele>268.83</ele>
        <time>2021-03-14T13:03:55Z</time>
      </trkpt>
      <trkpt lat="43.49336" lon="5.27058">
        <ele>269.31</ele>
        <time>2021-03-14T13:04:07Z</time>
      </trkpt>
      <trkpt lat="43.49348" lon="5.27056">
        <ele>269.31</ele>
        <time>2021-03-14T13:04:17Z</time>
      </trkpt>
      <trkpt lat="43.4935" lon="5.27055">
        <ele>269.31</ele>
        <time>2021-03-14T13:04:19Z</time>
      </trkpt>
      <trkpt lat="43.49363" lon="5.27052">
        <ele>269.79</ele>
        <time>2021-03-14T13:04:31Z</time>
      </trkpt>
      <trkpt lat="43.49375" lon="5.27048">
        <ele>269.79</ele>
        <time>2021-03-14T13:04:42Z</time>
      </trkpt>
      <trkpt lat="43.49388" lon="5.27045">
        <ele>269.79</ele>
        <time>2021-03-14T13:04:53Z</time>
      </trkpt>
      <trkpt lat="43.494" lon="5.27041">
        <ele>268.83</ele>
        <time>2021-03-14T13:05:04Z</time>
      </trkpt>
      <trkpt lat="43.49411" lon="5.27037">
        <ele>268.83</ele>
        <time>2021-03-14T13:05:14Z</time>
      </trkpt>
      <trkpt lat="43.49419" lon="5.27036">
        <ele>268.35</ele>
        <time>2021-03-14T13:05:22Z</time>
      </trkpt>
      <trkpt lat="43.49424" lon="5.27033">
        <ele>268.35</ele>
        <time>2021-03-14T13:05:26Z</time>
      </trkpt>
      <trkpt lat="43.4943" lon="5.2703">
        <ele>269.31</ele>
        <time>2021-03-14T13:05:40Z</time>
      </trkpt>
      <trkpt lat="43.49448" lon="5.27024">
        <ele>270.27</ele>
        <time>2021-03-14T13:05:55Z</time>
      </trkpt>
      <trkpt lat="43.49462" lon="5.27018">
        <ele>270.27</ele>
        <time>2021-03-14T13:06:06Z</time>
      </trkpt>
      <trkpt lat="43.49477" lon="5.27011">
        <ele>270.27</ele>
        <time>2021-03-14T13:06:18Z</time>
      </trkpt>
      <trkpt lat="43.49485" lon="5.27007">
        <ele>270.75</ele>
        <time>2021-03-14T13:06:27Z</time>
      </trkpt>
      <trkpt lat="43.49487" lon="5.27007">
        <ele>270.75</ele>
        <time>2021-03-14T13:06:28Z</time>
      </trkpt>
      <trkpt lat="43.49499" lon="5.27">
        <ele>271.23</ele>
        <time>2021-03-14T13:06:41Z</time>
      </trkpt>
      <trkpt lat="43.4951" lon="5.26994">
        <ele>271.23</ele>
        <time>2021-03-14T13:06:52Z</time>
      </trkpt>
      <trkpt lat="43.4952" lon="5.26988">
        <ele>270.75</ele>
        <time>2021-03-14T13:07:04Z</time>
      </trkpt>
      <trkpt lat="43.49525" lon="5.26983">
        <ele>272.19</ele>
        <time>2021-03-14T13:07:10Z</time>
      </trkpt>
      <trkpt lat="43.49527" lon="5.2698">
        <ele>271.71</ele>
        <time>2021-03-14T13:07:12Z</time>
      </trkpt>
      <trkpt lat="43.49531" lon="5.26974">
        <ele>271.71</ele>
        <time>2021-03-14T13:07:17Z</time>
      </trkpt>
      <trkpt lat="43.49532" lon="5.26973">
        <ele>271.71</ele>
        <time>2021-03-14T13:07:18Z</time>
      </trkpt>
      <trkpt lat="43.49535" lon="5.26964">
        <ele>271.71</ele>
        <time>2021-03-14T13:07:31Z</time>
      </trkpt>
      <trkpt lat="43.49536" lon="5.26965">
        <ele>270.75</ele>
        <time>2021-03-14T13:07:44Z</time>
      </trkpt>
      <trkpt lat="43.49537" lon="5.26966">
        <ele>270.75</ele>
        <time>2021-03-14T13:07:45Z</time>
      </trkpt>
      <trkpt lat="43.49544" lon="5.26964">
        <ele>270.75</ele>
        <time>2021-03-14T13:07:57Z</time>
      </trkpt>
      <trkpt lat="43.49544" lon="5.26962">
        <ele>272.19</ele>
        <time>2021-03-14T13:08:20Z</time>
      </trkpt>
      <trkpt lat="43.49545" lon="5.26961">
        <ele>272.67</ele>
        <time>2021-03-14T13:08:22Z</time>
      </trkpt>
      <trkpt lat="43.49549" lon="5.26956">
        <ele>271.23</ele>
        <time>2021-03-14T13:08:33Z</time>
      </trkpt>
      <trkpt lat="43.49546" lon="5.26953">
        <ele>272.67</ele>
        <time>2021-03-14T13:08:51Z</time>
      </trkpt>
      <trkpt lat="43.49546" lon="5.26948">
        <ele>271.71</ele>
        <time>2021-03-14T13:09:04Z</time>
      </trkpt>
      <trkpt lat="43.49549" lon="5.26943">
        <ele>269.31</ele>
        <time>2021-03-14T13:09:19Z</time>
      </trkpt>
      <trkpt lat="43.4955" lon="5.26938">
        <ele>265.94</ele>
        <time>2021-03-14T13:09:34Z</time>
      </trkpt>
      <trkpt lat="43.49551" lon="5.26936">
        <ele>263.54</ele>
        <time>2021-03-14T13:09:53Z</time>
      </trkpt>
      <trkpt lat="43.49554" lon="5.26931">
        <ele>262.1</ele>
        <time>2021-03-14T13:10:05Z</time>
      </trkpt>
      <trkpt lat="43.49555" lon="5.26926">
        <ele>259.69</ele>
        <time>2021-03-14T13:10:18Z</time>
      </trkpt>
      <trkpt lat="43.49555" lon="5.26925">
        <ele>257.77</ele>
        <time>2021-03-14T13:10:35Z</time>
      </trkpt>
      <trkpt lat="43.49558" lon="5.26919">
        <ele>257.29</ele>
        <time>2021-03-14T13:10:56Z</time>
      </trkpt>
      <trkpt lat="43.49563" lon="5.26912">
        <ele>252</ele>
        <time>2021-03-14T13:11:11Z</time>
      </trkpt>
      <trkpt lat="43.49566" lon="5.26907">
        <ele>250.08</ele>
        <time>2021-03-14T13:11:30Z</time>
      </trkpt>
      <trkpt lat="43.49571" lon="5.26896">
        <ele>247.2</ele>
        <time>2021-03-14T13:11:41Z</time>
      </trkpt>
      <trkpt lat="43.4957" lon="5.26884">
        <ele>242.87</ele>
        <time>2021-03-14T13:11:54Z</time>
      </trkpt>
      <trkpt lat="43.49569" lon="5.2688">
        <ele>241.43</ele>
        <time>2021-03-14T13:12:09Z</time>
      </trkpt>
      <trkpt lat="43.49557" lon="5.26875">
        <ele>237.58</ele>
        <time>2021-03-14T13:12:21Z</time>
      </trkpt>
      <trkpt lat="43.49551" lon="5.26874">
        <ele>235.66</ele>
        <time>2021-03-14T13:12:25Z</time>
      </trkpt>
      <trkpt lat="43.49534" lon="5.26868">
        <ele>228.93</ele>
        <time>2021-03-14T13:12:39Z</time>
      </trkpt>
      <trkpt lat="43.49532" lon="5.26868">
        <ele>228.45</ele>
        <time>2021-03-14T13:12:41Z</time>
      </trkpt>
      <trkpt lat="43.49518" lon="5.26871">
        <ele>227.49</ele>
        <time>2021-03-14T13:12:53Z</time>
      </trkpt>
      <trkpt lat="43.49515" lon="5.26871">
        <ele>227.01</ele>
        <time>2021-03-14T13:12:55Z</time>
      </trkpt>
      <trkpt lat="43.49499" lon="5.26865">
        <ele>225.09</ele>
        <time>2021-03-14T13:13:09Z</time>
      </trkpt>
      <trkpt lat="43.49486" lon="5.2686">
        <ele>224.12</ele>
        <time>2021-03-14T13:13:20Z</time>
      </trkpt>
      <trkpt lat="43.49484" lon="5.26859">
        <ele>224.61</ele>
        <time>2021-03-14T13:13:22Z</time>
      </trkpt>
      <trkpt lat="43.4947" lon="5.26854">
        <ele>224.12</ele>
        <time>2021-03-14T13:13:35Z</time>
      </trkpt>
      <trkpt lat="43.49463" lon="5.26854">
        <ele>223.64</ele>
        <time>2021-03-14T13:13:40Z</time>
      </trkpt>
      <trkpt lat="43.49448" lon="5.26848">
        <ele>223.64</ele>
        <time>2021-03-14T13:13:53Z</time>
      </trkpt>
      <trkpt lat="43.49436" lon="5.26841">
        <ele>223.64</ele>
        <time>2021-03-14T13:14:04Z</time>
      </trkpt>
      <trkpt lat="43.49422" lon="5.26836">
        <ele>224.12</ele>
        <time>2021-03-14T13:14:16Z</time>
      </trkpt>
      <trkpt lat="43.49409" lon="5.26832">
        <ele>224.61</ele>
        <time>2021-03-14T13:14:28Z</time>
      </trkpt>
      <trkpt lat="43.49393" lon="5.26832">
        <ele>224.61</ele>
        <time>2021-03-14T13:14:41Z</time>
      </trkpt>
      <trkpt lat="43.4938" lon="5.26838">
        <ele>223.16</ele>
        <time>2021-03-14T13:14:52Z</time>
      </trkpt>
      <trkpt lat="43.4937" lon="5.26842">
        <ele>222.68</ele>
        <time>2021-03-14T13:15:00Z</time>
      </trkpt>
      <trkpt lat="43.49354" lon="5.26848">
        <ele>223.64</ele>
        <time>2021-03-14T13:15:14Z</time>
      </trkpt>
      <trkpt lat="43.49346" lon="5.26853">
        <ele>227.01</ele>
        <time>2021-03-14T13:15:23Z</time>
      </trkpt>
      <trkpt lat="43.49332" lon="5.26859">
        <ele>227.97</ele>
        <time>2021-03-14T13:15:35Z</time>
      </trkpt>
      <trkpt lat="43.49325" lon="5.2686">
        <ele>227.49</ele>
        <time>2021-03-14T13:15:42Z</time>
      </trkpt>
      <trkpt lat="43.49323" lon="5.2686">
        <ele>226.53</ele>
        <time>2021-03-14T13:15:45Z</time>
      </trkpt>
      <trkpt lat="43.49321" lon="5.26858">
        <ele>226.05</ele>
        <time>2021-03-14T13:15:47Z</time>
      </trkpt>
      <trkpt lat="43.49304" lon="5.26857">
        <ele>221.72</ele>
        <time>2021-03-14T13:16:02Z</time>
      </trkpt>
      <trkpt lat="43.49294" lon="5.26859">
        <ele>219.8</ele>
        <time>2021-03-14T13:16:11Z</time>
      </trkpt>
      <trkpt lat="43.49291" lon="5.2686">
        <ele>219.8</ele>
        <time>2021-03-14T13:16:17Z</time>
      </trkpt>
      <trkpt lat="43.49276" lon="5.26865">
        <ele>217.88</ele>
        <time>2021-03-14T13:16:30Z</time>
      </trkpt>
      <trkpt lat="43.49272" lon="5.26866">
        <ele>216.91</ele>
        <time>2021-03-14T13:16:33Z</time>
      </trkpt>
      <trkpt lat="43.49258" lon="5.26861">
        <ele>214.03</ele>
        <time>2021-03-14T13:16:46Z</time>
      </trkpt>
      <trkpt lat="43.49257" lon="5.26859">
        <ele>214.03</ele>
        <time>2021-03-14T13:16:48Z</time>
      </trkpt>
      <trkpt lat="43.49253" lon="5.26851">
        <ele>211.15</ele>
        <time>2021-03-14T13:16:55Z</time>
      </trkpt>
      <trkpt lat="43.49253" lon="5.26847">
        <ele>211.63</ele>
        <time>2021-03-14T13:16:58Z</time>
      </trkpt>
      <trkpt lat="43.49254" lon="5.26842">
        <ele>211.63</ele>
        <time>2021-03-14T13:17:01Z</time>
      </trkpt>
      <trkpt lat="43.49259" lon="5.26833">
        <ele>213.07</ele>
        <time>2021-03-14T13:17:08Z</time>
      </trkpt>
      <trkpt lat="43.49265" lon="5.26826">
        <ele>214.51</ele>
        <time>2021-03-14T13:17:15Z</time>
      </trkpt>
      <trkpt lat="43.49272" lon="5.26817">
        <ele>215.47</ele>
        <time>2021-03-14T13:17:23Z</time>
      </trkpt>
      <trkpt lat="43.49274" lon="5.26813">
        <ele>215.95</ele>
        <time>2021-03-14T13:17:26Z</time>
      </trkpt>
      <trkpt lat="43.49275" lon="5.26809">
        <ele>215.95</ele>
        <time>2021-03-14T13:17:28Z</time>
      </trkpt>
      <trkpt lat="43.49277" lon="5.268">
        <ele>215.47</ele>
        <time>2021-03-14T13:17:34Z</time>
      </trkpt>
      <trkpt lat="43.49279" lon="5.26788">
        <ele>214.99</ele>
        <time>2021-03-14T13:17:41Z</time>
      </trkpt>
      <trkpt lat="43.49281" lon="5.26779">
        <ele>214.51</ele>
        <time>2021-03-14T13:17:47Z</time>
      </trkpt>
      <trkpt lat="43.49288" lon="5.26769">
        <ele>214.03</ele>
        <time>2021-03-14T13:17:57Z</time>
      </trkpt>
      <trkpt lat="43.49293" lon="5.26756">
        <ele>211.15</ele>
        <time>2021-03-14T13:18:06Z</time>
      </trkpt>
      <trkpt lat="43.49296" lon="5.26746">
        <ele>211.15</ele>
        <time>2021-03-14T13:18:12Z</time>
      </trkpt>
      <trkpt lat="43.49297" lon="5.26743">
        <ele>210.67</ele>
        <time>2021-03-14T13:18:14Z</time>
      </trkpt>
      <trkpt lat="43.49297" lon="5.26739">
        <ele>209.7</ele>
        <time>2021-03-14T13:18:17Z</time>
      </trkpt>
      <trkpt lat="43.49296" lon="5.26729">
        <ele>207.78</ele>
        <time>2021-03-14T13:18:23Z</time>
      </trkpt>
      <trkpt lat="43.49294" lon="5.2672">
        <ele>208.74</ele>
        <time>2021-03-14T13:18:29Z</time>
      </trkpt>
      <trkpt lat="43.49292" lon="5.2671">
        <ele>209.22</ele>
        <time>2021-03-14T13:18:36Z</time>
      </trkpt>
      <trkpt lat="43.49292" lon="5.26687">
        <ele>207.78</ele>
        <time>2021-03-14T13:18:51Z</time>
      </trkpt>
      <trkpt lat="43.49294" lon="5.26672">
        <ele>207.3</ele>
        <time>2021-03-14T13:19:01Z</time>
      </trkpt>
      <trkpt lat="43.49294" lon="5.26666">
        <ele>205.86</ele>
        <time>2021-03-14T13:19:05Z</time>
      </trkpt>
      <trkpt lat="43.49294" lon="5.26662">
        <ele>204.9</ele>
        <time>2021-03-14T13:19:08Z</time>
      </trkpt>
      <trkpt lat="43.49298" lon="5.26655">
        <ele>203.94</ele>
        <time>2021-03-14T13:19:17Z</time>
      </trkpt>
      <trkpt lat="43.49314" lon="5.26648">
        <ele>204.42</ele>
        <time>2021-03-14T13:19:33Z</time>
      </trkpt>
      <trkpt lat="43.49331" lon="5.26645">
        <ele>204.42</ele>
        <time>2021-03-14T13:19:49Z</time>
      </trkpt>
      <trkpt lat="43.49335" lon="5.26644">
        <ele>204.42</ele>
        <time>2021-03-14T13:19:52Z</time>
      </trkpt>
      <trkpt lat="43.49342" lon="5.26644">
        <ele>205.38</ele>
        <time>2021-03-14T13:19:59Z</time>
      </trkpt>
      <trkpt lat="43.49345" lon="5.26645">
        <ele>205.38</ele>
        <time>2021-03-14T13:20:02Z</time>
      </trkpt>
      <trkpt lat="43.49356" lon="5.26644">
        <ele>206.34</ele>
        <time>2021-03-14T13:20:12Z</time>
      </trkpt>
      <trkpt lat="43.49372" lon="5.26642">
        <ele>204.9</ele>
        <time>2021-03-14T13:20:25Z</time>
      </trkpt>
      <trkpt lat="43.49386" lon="5.2664">
        <ele>203.94</ele>
        <time>2021-03-14T13:20:38Z</time>
      </trkpt>
      <trkpt lat="43.49397" lon="5.26638">
        <ele>203.46</ele>
        <time>2021-03-14T13:20:49Z</time>
      </trkpt>
      <trkpt lat="43.49404" lon="5.26637">
        <ele>202.98</ele>
        <time>2021-03-14T13:20:55Z</time>
      </trkpt>
      <trkpt lat="43.49411" lon="5.26635">
        <ele>203.46</ele>
        <time>2021-03-14T13:21:01Z</time>
      </trkpt>
      <trkpt lat="43.49414" lon="5.26635">
        <ele>202.98</ele>
        <time>2021-03-14T13:21:03Z</time>
      </trkpt>
      <trkpt lat="43.49417" lon="5.26634">
        <ele>202.98</ele>
        <time>2021-03-14T13:21:06Z</time>
      </trkpt>
      <trkpt lat="43.49424" lon="5.26634">
        <ele>203.94</ele>
        <time>2021-03-14T13:21:12Z</time>
      </trkpt>
      <trkpt lat="43.49425" lon="5.26635">
        <ele>203.46</ele>
        <time>2021-03-14T13:21:14Z</time>
      </trkpt>
      <trkpt lat="43.4944" lon="5.26632">
        <ele>203.46</ele>
        <time>2021-03-14T13:21:27Z</time>
      </trkpt>
      <trkpt lat="43.49458" lon="5.26634">
        <ele>202.98</ele>
        <time>2021-03-14T13:21:42Z</time>
      </trkpt>
      <trkpt lat="43.49468" lon="5.26636">
        <ele>203.46</ele>
        <time>2021-03-14T13:21:55Z</time>
      </trkpt>
      <trkpt lat="43.49468" lon="5.26638">
        <ele>204.42</ele>
        <time>2021-03-14T13:22:09Z</time>
      </trkpt>
      <trkpt lat="43.49477" lon="5.26655">
        <ele>203.94</ele>
        <time>2021-03-14T13:22:19Z</time>
      </trkpt>
      <trkpt lat="43.49488" lon="5.26661">
        <ele>204.9</ele>
        <time>2021-03-14T13:22:27Z</time>
      </trkpt>
      <trkpt lat="43.49506" lon="5.26663">
        <ele>203.46</ele>
        <time>2021-03-14T13:22:39Z</time>
      </trkpt>
      <trkpt lat="43.49517" lon="5.26666">
        <ele>203.46</ele>
        <time>2021-03-14T13:22:48Z</time>
      </trkpt>
      <trkpt lat="43.49525" lon="5.26673">
        <ele>202.98</ele>
        <time>2021-03-14T13:23:00Z</time>
      </trkpt>
      <trkpt lat="43.49525" lon="5.26683">
        <ele>203.46</ele>
        <time>2021-03-14T13:23:07Z</time>
      </trkpt>
      <trkpt lat="43.49523" lon="5.26698">
        <ele>203.46</ele>
        <time>2021-03-14T13:23:19Z</time>
      </trkpt>
      <trkpt lat="43.49521" lon="5.26705">
        <ele>202.98</ele>
        <time>2021-03-14T13:23:24Z</time>
      </trkpt>
      <trkpt lat="43.49515" lon="5.26719">
        <ele>201.05</ele>
        <time>2021-03-14T13:23:34Z</time>
      </trkpt>
      <trkpt lat="43.49516" lon="5.26731">
        <ele>201.05</ele>
        <time>2021-03-14T13:23:41Z</time>
      </trkpt>
      <trkpt lat="43.49527" lon="5.26745">
        <ele>198.17</ele>
        <time>2021-03-14T13:23:53Z</time>
      </trkpt>
      <trkpt lat="43.49535" lon="5.26745">
        <ele>196.25</ele>
        <time>2021-03-14T13:24:01Z</time>
      </trkpt>
      <trkpt lat="43.49542" lon="5.26744">
        <ele>195.77</ele>
        <time>2021-03-14T13:24:06Z</time>
      </trkpt>
      <trkpt lat="43.49553" lon="5.26742">
        <ele>195.28</ele>
        <time>2021-03-14T13:24:16Z</time>
      </trkpt>
      <trkpt lat="43.49569" lon="5.26738">
        <ele>193.84</ele>
        <time>2021-03-14T13:24:29Z</time>
      </trkpt>
      <trkpt lat="43.49573" lon="5.26736">
        <ele>194.32</ele>
        <time>2021-03-14T13:24:32Z</time>
      </trkpt>
      <trkpt lat="43.49576" lon="5.26722">
        <ele>191.92</ele>
        <time>2021-03-14T13:24:43Z</time>
      </trkpt>
      <trkpt lat="43.49576" lon="5.26719">
        <ele>190.96</ele>
        <time>2021-03-14T13:24:45Z</time>
      </trkpt>
      <trkpt lat="43.49574" lon="5.26711">
        <ele>190.48</ele>
        <time>2021-03-14T13:24:55Z</time>
      </trkpt>
      <trkpt lat="43.49574" lon="5.26705">
        <ele>189.04</ele>
        <time>2021-03-14T13:25:01Z</time>
      </trkpt>
      <trkpt lat="43.49576" lon="5.26694">
        <ele>188.56</ele>
        <time>2021-03-14T13:25:12Z</time>
      </trkpt>
      <trkpt lat="43.49576" lon="5.26685">
        <ele>189.04</ele>
        <time>2021-03-14T13:25:26Z</time>
      </trkpt>
      <trkpt lat="43.49577" lon="5.26679">
        <ele>189.04</ele>
        <time>2021-03-14T13:25:39Z</time>
      </trkpt>
      <trkpt lat="43.49576" lon="5.26678">
        <ele>188.08</ele>
        <time>2021-03-14T13:26:01Z</time>
      </trkpt>
      <trkpt lat="43.49576" lon="5.26679">
        <ele>188.08</ele>
        <time>2021-03-14T13:26:18Z</time>
      </trkpt>
      <trkpt lat="43.49577" lon="5.26669">
        <ele>186.15</ele>
        <time>2021-03-14T13:26:30Z</time>
      </trkpt>
      <trkpt lat="43.49577" lon="5.26667">
        <ele>185.67</ele>
        <time>2021-03-14T13:26:31Z</time>
      </trkpt>
      <trkpt lat="43.49577" lon="5.26662">
        <ele>185.19</ele>
        <time>2021-03-14T13:26:35Z</time>
      </trkpt>
      <trkpt lat="43.4958" lon="5.2665">
        <ele>184.71</ele>
        <time>2021-03-14T13:26:42Z</time>
      </trkpt>
      <trkpt lat="43.49585" lon="5.26627">
        <ele>182.31</ele>
        <time>2021-03-14T13:26:56Z</time>
      </trkpt>
      <trkpt lat="43.49587" lon="5.26623">
        <ele>181.83</ele>
        <time>2021-03-14T13:26:58Z</time>
      </trkpt>
      <trkpt lat="43.49588" lon="5.26616">
        <ele>180.38</ele>
        <time>2021-03-14T13:27:02Z</time>
      </trkpt>
      <trkpt lat="43.4959" lon="5.26604">
        <ele>179.42</ele>
        <time>2021-03-14T13:27:08Z</time>
      </trkpt>
      <trkpt lat="43.4959" lon="5.26598">
        <ele>179.9</ele>
        <time>2021-03-14T13:27:11Z</time>
      </trkpt>
      <trkpt lat="43.49592" lon="5.26591">
        <ele>179.9</ele>
        <time>2021-03-14T13:27:15Z</time>
      </trkpt>
      <trkpt lat="43.49593" lon="5.26583">
        <ele>179.9</ele>
        <time>2021-03-14T13:27:19Z</time>
      </trkpt>
      <trkpt lat="43.49593" lon="5.26571">
        <ele>178.46</ele>
        <time>2021-03-14T13:27:26Z</time>
      </trkpt>
      <trkpt lat="43.49592" lon="5.26563">
        <ele>177.5</ele>
        <time>2021-03-14T13:27:30Z</time>
      </trkpt>
      <trkpt lat="43.49595" lon="5.26553">
        <ele>177.98</ele>
        <time>2021-03-14T13:27:35Z</time>
      </trkpt>
      <trkpt lat="43.496" lon="5.26534">
        <ele>179.42</ele>
        <time>2021-03-14T13:27:47Z</time>
      </trkpt>
      <trkpt lat="43.496" lon="5.26529">
        <ele>180.87</ele>
        <time>2021-03-14T13:28:00Z</time>
      </trkpt>
      <trkpt lat="43.49599" lon="5.26527">
        <ele>180.38</ele>
        <time>2021-03-14T13:28:12Z</time>
      </trkpt>
      <trkpt lat="43.49601" lon="5.26523">
        <ele>180.87</ele>
        <time>2021-03-14T13:28:16Z</time>
      </trkpt>
      <trkpt lat="43.49606" lon="5.26515">
        <ele>181.35</ele>
        <time>2021-03-14T13:28:23Z</time>
      </trkpt>
      <trkpt lat="43.4962" lon="5.26501">
        <ele>184.71</ele>
        <time>2021-03-14T13:28:36Z</time>
      </trkpt>
      <trkpt lat="43.49621" lon="5.26498">
        <ele>185.19</ele>
        <time>2021-03-14T13:28:38Z</time>
      </trkpt>
      <trkpt lat="43.49631" lon="5.26481">
        <ele>185.67</ele>
        <time>2021-03-14T13:28:51Z</time>
      </trkpt>
      <trkpt lat="43.49635" lon="5.26475">
        <ele>186.63</ele>
        <time>2021-03-14T13:28:56Z</time>
      </trkpt>
      <trkpt lat="43.4964" lon="5.2647">
        <ele>189.04</ele>
        <time>2021-03-14T13:29:01Z</time>
      </trkpt>
      <trkpt lat="43.49644" lon="5.26462">
        <ele>189.52</ele>
        <time>2021-03-14T13:29:06Z</time>
      </trkpt>
      <trkpt lat="43.49646" lon="5.26455">
        <ele>188.56</ele>
        <time>2021-03-14T13:29:16Z</time>
      </trkpt>
      <trkpt lat="43.49654" lon="5.2645">
        <ele>184.23</ele>
        <time>2021-03-14T13:29:25Z</time>
      </trkpt>
      <trkpt lat="43.49665" lon="5.26448">
        <ele>179.9</ele>
        <time>2021-03-14T13:29:38Z</time>
      </trkpt>
      <trkpt lat="43.49673" lon="5.2645">
        <ele>175.58</ele>
        <time>2021-03-14T13:29:48Z</time>
      </trkpt>
      <trkpt lat="43.49683" lon="5.26451">
        <ele>174.14</ele>
        <time>2021-03-14T13:30:01Z</time>
      </trkpt>
      <trkpt lat="43.49688" lon="5.26449">
        <ele>175.1</ele>
        <time>2021-03-14T13:30:07Z</time>
      </trkpt>
      <trkpt lat="43.49701" lon="5.26435">
        <ele>174.14</ele>
        <time>2021-03-14T13:30:20Z</time>
      </trkpt>
      <trkpt lat="43.49704" lon="5.26432">
        <ele>173.66</ele>
        <time>2021-03-14T13:30:36Z</time>
      </trkpt>
      <trkpt lat="43.49714" lon="5.26416">
        <ele>171.25</ele>
        <time>2021-03-14T13:30:48Z</time>
      </trkpt>
      <trkpt lat="43.49716" lon="5.2641">
        <ele>170.29</ele>
        <time>2021-03-14T13:30:55Z</time>
      </trkpt>
      <trkpt lat="43.49721" lon="5.26396">
        <ele>166.45</ele>
        <time>2021-03-14T13:31:08Z</time>
      </trkpt>
      <trkpt lat="43.49722" lon="5.26393">
        <ele>165.48</ele>
        <time>2021-03-14T13:31:10Z</time>
      </trkpt>
      <trkpt lat="43.49724" lon="5.2639">
        <ele>164.52</ele>
        <time>2021-03-14T13:31:12Z</time>
      </trkpt>
      <trkpt lat="43.49728" lon="5.2637">
        <ele>163.08</ele>
        <time>2021-03-14T13:31:29Z</time>
      </trkpt>
      <trkpt lat="43.49729" lon="5.26364">
        <ele>161.16</ele>
        <time>2021-03-14T13:31:43Z</time>
      </trkpt>
      <trkpt lat="43.49731" lon="5.26358">
        <ele>159.72</ele>
        <time>2021-03-14T13:31:47Z</time>
      </trkpt>
      <trkpt lat="43.49742" lon="5.26336">
        <ele>156.83</ele>
        <time>2021-03-14T13:31:59Z</time>
      </trkpt>
      <trkpt lat="43.49744" lon="5.2633">
        <ele>155.39</ele>
        <time>2021-03-14T13:32:04Z</time>
      </trkpt>
      <trkpt lat="43.49747" lon="5.26324">
        <ele>155.39</ele>
        <time>2021-03-14T13:32:08Z</time>
      </trkpt>
      <trkpt lat="43.49751" lon="5.26319">
        <ele>154.43</ele>
        <time>2021-03-14T13:32:12Z</time>
      </trkpt>
      <trkpt lat="43.49753" lon="5.26316">
        <ele>153.95</ele>
        <time>2021-03-14T13:32:15Z</time>
      </trkpt>
      <trkpt lat="43.49755" lon="5.26313">
        <ele>153.47</ele>
        <time>2021-03-14T13:32:17Z</time>
      </trkpt>
      <trkpt lat="43.49758" lon="5.2631">
        <ele>152.99</ele>
        <time>2021-03-14T13:32:20Z</time>
      </trkpt>
      <trkpt lat="43.49761" lon="5.26302">
        <ele>153.47</ele>
        <time>2021-03-14T13:32:25Z</time>
      </trkpt>
      <trkpt lat="43.49772" lon="5.26287">
        <ele>155.39</ele>
        <time>2021-03-14T13:32:36Z</time>
      </trkpt>
      <trkpt lat="43.49778" lon="5.2628">
        <ele>156.35</ele>
        <time>2021-03-14T13:32:42Z</time>
      </trkpt>
      <trkpt lat="43.49785" lon="5.26269">
        <ele>158.75</ele>
        <time>2021-03-14T13:32:50Z</time>
      </trkpt>
      <trkpt lat="43.4979" lon="5.26256">
        <ele>158.75</ele>
        <time>2021-03-14T13:32:59Z</time>
      </trkpt>
      <trkpt lat="43.49791" lon="5.26245">
        <ele>158.75</ele>
        <time>2021-03-14T13:33:07Z</time>
      </trkpt>
      <trkpt lat="43.49792" lon="5.26239">
        <ele>158.27</ele>
        <time>2021-03-14T13:33:11Z</time>
      </trkpt>
      <trkpt lat="43.49792" lon="5.26232">
        <ele>157.31</ele>
        <time>2021-03-14T13:33:15Z</time>
      </trkpt>
      <trkpt lat="43.49797" lon="5.26221">
        <ele>154.43</ele>
        <time>2021-03-14T13:33:26Z</time>
      </trkpt>
      <trkpt lat="43.49805" lon="5.26208">
        <ele>154.91</ele>
        <time>2021-03-14T13:33:37Z</time>
      </trkpt>
      <trkpt lat="43.49811" lon="5.26191">
        <ele>156.35</ele>
        <time>2021-03-14T13:33:47Z</time>
      </trkpt>
      <trkpt lat="43.4982" lon="5.26171">
        <ele>157.31</ele>
        <time>2021-03-14T13:33:59Z</time>
      </trkpt>
      <trkpt lat="43.49828" lon="5.26149">
        <ele>157.79</ele>
        <time>2021-03-14T13:34:12Z</time>
      </trkpt>
      <trkpt lat="43.49833" lon="5.2613">
        <ele>156.83</ele>
        <time>2021-03-14T13:34:25Z</time>
      </trkpt>
      <trkpt lat="43.49832" lon="5.26129">
        <ele>156.83</ele>
        <time>2021-03-14T13:34:31Z</time>
      </trkpt>
      <trkpt lat="43.49837" lon="5.26118">
        <ele>155.87</ele>
        <time>2021-03-14T13:34:38Z</time>
      </trkpt>
      <trkpt lat="43.49843" lon="5.261">
        <ele>153.47</ele>
        <time>2021-03-14T13:34:51Z</time>
      </trkpt>
      <trkpt lat="43.49844" lon="5.26098">
        <ele>152.99</ele>
        <time>2021-03-14T13:34:53Z</time>
      </trkpt>
      <trkpt lat="43.49846" lon="5.26096">
        <ele>152.99</ele>
        <time>2021-03-14T13:34:55Z</time>
      </trkpt>
      <trkpt lat="43.49856" lon="5.26086">
        <ele>151.06</ele>
        <time>2021-03-14T13:35:06Z</time>
      </trkpt>
      <trkpt lat="43.49865" lon="5.2607">
        <ele>148.66</ele>
        <time>2021-03-14T13:35:17Z</time>
      </trkpt>
      <trkpt lat="43.49869" lon="5.26063">
        <ele>148.18</ele>
        <time>2021-03-14T13:35:21Z</time>
      </trkpt>
      <trkpt lat="43.4987" lon="5.26055">
        <ele>147.7</ele>
        <time>2021-03-14T13:35:26Z</time>
      </trkpt>
      <trkpt lat="43.49872" lon="5.2605">
        <ele>147.7</ele>
        <time>2021-03-14T13:35:29Z</time>
      </trkpt>
      <trkpt lat="43.49873" lon="5.26046">
        <ele>147.7</ele>
        <time>2021-03-14T13:35:31Z</time>
      </trkpt>
      <trkpt lat="43.49875" lon="5.26033">
        <ele>147.22</ele>
        <time>2021-03-14T13:35:39Z</time>
      </trkpt>
      <trkpt lat="43.49878" lon="5.26026">
        <ele>145.3</ele>
        <time>2021-03-14T13:35:52Z</time>
      </trkpt>
      <trkpt lat="43.49876" lon="5.26026">
        <ele>143.37</ele>
        <time>2021-03-14T13:36:11Z</time>
      </trkpt>
      <trkpt lat="43.49877" lon="5.26027">
        <ele>143.37</ele>
        <time>2021-03-14T13:36:12Z</time>
      </trkpt>
      <trkpt lat="43.4988" lon="5.26028">
        <ele>143.37</ele>
        <time>2021-03-14T13:36:14Z</time>
      </trkpt>
      <trkpt lat="43.49889" lon="5.26037">
        <ele>144.34</ele>
        <time>2021-03-14T13:36:26Z</time>
      </trkpt>
      <trkpt lat="43.49897" lon="5.26046">
        <ele>144.82</ele>
        <time>2021-03-14T13:36:37Z</time>
      </trkpt>
      <trkpt lat="43.49908" lon="5.26053">
        <ele>145.78</ele>
        <time>2021-03-14T13:36:47Z</time>
      </trkpt>
      <trkpt lat="43.49917" lon="5.26058">
        <ele>145.78</ele>
        <time>2021-03-14T13:36:56Z</time>
      </trkpt>
      <trkpt lat="43.49921" lon="5.2606">
        <ele>146.26</ele>
        <time>2021-03-14T13:37:00Z</time>
      </trkpt>
      <trkpt lat="43.49925" lon="5.26062">
        <ele>146.26</ele>
        <time>2021-03-14T13:37:04Z</time>
      </trkpt>
      <trkpt lat="43.49938" lon="5.26065">
        <ele>145.78</ele>
        <time>2021-03-14T13:37:17Z</time>
      </trkpt>
      <trkpt lat="43.49939" lon="5.26065">
        <ele>145.78</ele>
        <time>2021-03-14T13:37:18Z</time>
      </trkpt>
      <trkpt lat="43.49956" lon="5.26052">
        <ele>149.14</ele>
        <time>2021-03-14T13:37:35Z</time>
      </trkpt>
      <trkpt lat="43.49961" lon="5.26044">
        <ele>147.7</ele>
        <time>2021-03-14T13:37:43Z</time>
      </trkpt>
      <trkpt lat="43.49973" lon="5.26034">
        <ele>149.14</ele>
        <time>2021-03-14T13:37:54Z</time>
      </trkpt>
      <trkpt lat="43.49984" lon="5.26025">
        <ele>149.62</ele>
        <time>2021-03-14T13:38:04Z</time>
      </trkpt>
      <trkpt lat="43.49993" lon="5.26022">
        <ele>148.18</ele>
        <time>2021-03-14T13:38:12Z</time>
      </trkpt>
      <trkpt lat="43.5" lon="5.26019">
        <ele>148.18</ele>
        <time>2021-03-14T13:38:18Z</time>
      </trkpt>
      <trkpt lat="43.50007" lon="5.26017">
        <ele>147.22</ele>
        <time>2021-03-14T13:38:23Z</time>
      </trkpt>
      <trkpt lat="43.50009" lon="5.26015">
        <ele>146.74</ele>
        <time>2021-03-14T13:38:25Z</time>
      </trkpt>
      <trkpt lat="43.50012" lon="5.26013">
        <ele>146.74</ele>
        <time>2021-03-14T13:38:28Z</time>
      </trkpt>
      <trkpt lat="43.50022" lon="5.26009">
        <ele>146.26</ele>
        <time>2021-03-14T13:38:38Z</time>
      </trkpt>
      <trkpt lat="43.50038" lon="5.26006">
        <ele>145.3</ele>
        <time>2021-03-14T13:38:51Z</time>
      </trkpt>
      <trkpt lat="43.50051" lon="5.26">
        <ele>145.3</ele>
        <time>2021-03-14T13:39:03Z</time>
      </trkpt>
      <trkpt lat="43.50052" lon="5.26">
        <ele>145.3</ele>
        <time>2021-03-14T13:39:06Z</time>
      </trkpt>
      <trkpt lat="43.50056" lon="5.25999">
        <ele>146.74</ele>
        <time>2021-03-14T13:39:22Z</time>
      </trkpt>
      <trkpt lat="43.50064" lon="5.26002">
        <ele>147.7</ele>
        <time>2021-03-14T13:39:35Z</time>
      </trkpt>
      <trkpt lat="43.50071" lon="5.26008">
        <ele>147.7</ele>
        <time>2021-03-14T13:39:43Z</time>
      </trkpt>
      <trkpt lat="43.50078" lon="5.26017">
        <ele>149.14</ele>
        <time>2021-03-14T13:39:51Z</time>
      </trkpt>
      <trkpt lat="43.50082" lon="5.26027">
        <ele>148.66</ele>
        <time>2021-03-14T13:40:04Z</time>
      </trkpt>
      <trkpt lat="43.50086" lon="5.26031">
        <ele>149.14</ele>
        <time>2021-03-14T13:40:28Z</time>
      </trkpt>
      <trkpt lat="43.50091" lon="5.26031">
        <ele>150.1</ele>
        <time>2021-03-14T13:40:38Z</time>
      </trkpt>
      <trkpt lat="43.50098" lon="5.26027">
        <ele>151.54</ele>
        <time>2021-03-14T13:40:44Z</time>
      </trkpt>
      <trkpt lat="43.50101" lon="5.26026">
        <ele>152.03</ele>
        <time>2021-03-14T13:40:48Z</time>
      </trkpt>
      <trkpt lat="43.50108" lon="5.26022">
        <ele>152.99</ele>
        <time>2021-03-14T13:40:55Z</time>
      </trkpt>
      <trkpt lat="43.50106" lon="5.2601">
        <ele>151.54</ele>
        <time>2021-03-14T13:41:05Z</time>
      </trkpt>
      <trkpt lat="43.50105" lon="5.26011">
        <ele>150.58</ele>
        <time>2021-03-14T13:41:13Z</time>
      </trkpt>
      <trkpt lat="43.50104" lon="5.26011">
        <ele>149.62</ele>
        <time>2021-03-14T13:41:15Z</time>
      </trkpt>
      <trkpt lat="43.50106" lon="5.26018">
        <ele>148.18</ele>
        <time>2021-03-14T13:41:26Z</time>
      </trkpt>
      <trkpt lat="43.50104" lon="5.26022">
        <ele>145.78</ele>
        <time>2021-03-14T13:41:36Z</time>
      </trkpt>
      <trkpt lat="43.50117" lon="5.26024">
        <ele>147.7</ele>
        <time>2021-03-14T13:41:48Z</time>
      </trkpt>
      <trkpt lat="43.5012" lon="5.26023">
        <ele>148.18</ele>
        <time>2021-03-14T13:41:51Z</time>
      </trkpt>
      <trkpt lat="43.50127" lon="5.26015">
        <ele>149.62</ele>
        <time>2021-03-14T13:42:02Z</time>
      </trkpt>
      <trkpt lat="43.50127" lon="5.26014">
        <ele>149.62</ele>
        <time>2021-03-14T13:42:07Z</time>
      </trkpt>
      <trkpt lat="43.50125" lon="5.26016">
        <ele>149.14</ele>
        <time>2021-03-14T13:42:09Z</time>
      </trkpt>
      <trkpt lat="43.50122" lon="5.26018">
        <ele>148.66</ele>
        <time>2021-03-14T13:42:12Z</time>
      </trkpt>
      <trkpt lat="43.50115" lon="5.26019">
        <ele>147.7</ele>
        <time>2021-03-14T13:42:17Z</time>
      </trkpt>
      <trkpt lat="43.50109" lon="5.26017">
        <ele>146.26</ele>
        <time>2021-03-14T13:42:22Z</time>
      </trkpt>
      <trkpt lat="43.50105" lon="5.26018">
        <ele>145.78</ele>
        <time>2021-03-14T13:42:25Z</time>
      </trkpt>
      <trkpt lat="43.50099" lon="5.26021">
        <ele>144.82</ele>
        <time>2021-03-14T13:42:31Z</time>
      </trkpt>
      <trkpt lat="43.50084" lon="5.26026">
        <ele>143.37</ele>
        <time>2021-03-14T13:42:44Z</time>
      </trkpt>
      <trkpt lat="43.50082" lon="5.26032">
        <ele>143.85</ele>
        <time>2021-03-14T13:42:48Z</time>
      </trkpt>
      <trkpt lat="43.50083" lon="5.26036">
        <ele>144.34</ele>
        <time>2021-03-14T13:42:51Z</time>
      </trkpt>
      <trkpt lat="43.50087" lon="5.26039">
        <ele>144.34</ele>
        <time>2021-03-14T13:42:55Z</time>
      </trkpt>
      <trkpt lat="43.50093" lon="5.26056">
        <ele>143.85</ele>
        <time>2021-03-14T13:43:08Z</time>
      </trkpt>
      <trkpt lat="43.50098" lon="5.26065">
        <ele>143.37</ele>
        <time>2021-03-14T13:43:15Z</time>
      </trkpt>
      <trkpt lat="43.50099" lon="5.2607">
        <ele>142.89</ele>
        <time>2021-03-14T13:43:18Z</time>
      </trkpt>
      <trkpt lat="43.50103" lon="5.26077">
        <ele>142.41</ele>
        <time>2021-03-14T13:43:22Z</time>
      </trkpt>
      <trkpt lat="43.50104" lon="5.26084">
        <ele>141.45</ele>
        <time>2021-03-14T13:43:25Z</time>
      </trkpt>
      <trkpt lat="43.50118" lon="5.26107">
        <ele>139.53</ele>
        <time>2021-03-14T13:43:41Z</time>
      </trkpt>
      <trkpt lat="43.50126" lon="5.26127">
        <ele>141.45</ele>
        <time>2021-03-14T13:43:54Z</time>
      </trkpt>
      <trkpt lat="43.50129" lon="5.26138">
        <ele>143.37</ele>
        <time>2021-03-14T13:44:05Z</time>
      </trkpt>
      <trkpt lat="43.50127" lon="5.26152">
        <ele>144.34</ele>
        <time>2021-03-14T13:44:18Z</time>
      </trkpt>
      <trkpt lat="43.50123" lon="5.26163">
        <ele>145.3</ele>
        <time>2021-03-14T13:44:30Z</time>
      </trkpt>
      <trkpt lat="43.50116" lon="5.26179">
        <ele>147.7</ele>
        <time>2021-03-14T13:44:41Z</time>
      </trkpt>
      <trkpt lat="43.5012" lon="5.26198">
        <ele>150.58</ele>
        <time>2021-03-14T13:44:56Z</time>
      </trkpt>
      <trkpt lat="43.50123" lon="5.26204">
        <ele>152.99</ele>
        <time>2021-03-14T13:45:01Z</time>
      </trkpt>
      <trkpt lat="43.50125" lon="5.26209">
        <ele>154.43</ele>
        <time>2021-03-14T13:45:04Z</time>
      </trkpt>
      <trkpt lat="43.50127" lon="5.26211">
        <ele>154.43</ele>
        <time>2021-03-14T13:45:06Z</time>
      </trkpt>
      <trkpt lat="43.50133" lon="5.26217">
        <ele>156.83</ele>
        <time>2021-03-14T13:45:15Z</time>
      </trkpt>
      <trkpt lat="43.50134" lon="5.26218">
        <ele>157.31</ele>
        <time>2021-03-14T13:45:17Z</time>
      </trkpt>
      <trkpt lat="43.50149" lon="5.26239">
        <ele>156.35</ele>
        <time>2021-03-14T13:45:30Z</time>
      </trkpt>
      <trkpt lat="43.50158" lon="5.26253">
        <ele>151.54</ele>
        <time>2021-03-14T13:45:39Z</time>
      </trkpt>
      <trkpt lat="43.50163" lon="5.26259">
        <ele>148.66</ele>
        <time>2021-03-14T13:45:46Z</time>
      </trkpt>
      <trkpt lat="43.50171" lon="5.26269">
        <ele>144.82</ele>
        <time>2021-03-14T13:45:59Z</time>
      </trkpt>
      <trkpt lat="43.50177" lon="5.26275">
        <ele>142.41</ele>
        <time>2021-03-14T13:46:13Z</time>
      </trkpt>
      <trkpt lat="43.50189" lon="5.26274">
        <ele>143.85</ele>
        <time>2021-03-14T13:46:24Z</time>
      </trkpt>
      <trkpt lat="43.50193" lon="5.26273">
        <ele>144.82</ele>
        <time>2021-03-14T13:46:29Z</time>
      </trkpt>
      <trkpt lat="43.50204" lon="5.26265">
        <ele>145.78</ele>
        <time>2021-03-14T13:46:41Z</time>
      </trkpt>
      <trkpt lat="43.50203" lon="5.26252">
        <ele>144.34</ele>
        <time>2021-03-14T13:46:55Z</time>
      </trkpt>
      <trkpt lat="43.50204" lon="5.26249">
        <ele>144.34</ele>
        <time>2021-03-14T13:47:07Z</time>
      </trkpt>
      <trkpt lat="43.50209" lon="5.26246">
        <ele>143.37</ele>
        <time>2021-03-14T13:47:17Z</time>
      </trkpt>
      <trkpt lat="43.50209" lon="5.26246">
        <ele>143.37</ele>
        <time>2021-03-14T13:47:18Z</time>
      </trkpt>
      <trkpt lat="43.50217" lon="5.26242">
        <ele>145.3</ele>
        <time>2021-03-14T13:47:30Z</time>
      </trkpt>
      <trkpt lat="43.50219" lon="5.2624">
        <ele>145.78</ele>
        <time>2021-03-14T13:47:33Z</time>
      </trkpt>
      <trkpt lat="43.50223" lon="5.2623">
        <ele>144.82</ele>
        <time>2021-03-14T13:47:43Z</time>
      </trkpt>
      <trkpt lat="43.50226" lon="5.26228">
        <ele>145.3</ele>
        <time>2021-03-14T13:47:50Z</time>
      </trkpt>
      <trkpt lat="43.50233" lon="5.26213">
        <ele>144.82</ele>
        <time>2021-03-14T13:48:01Z</time>
      </trkpt>
      <trkpt lat="43.50234" lon="5.26206">
        <ele>143.85</ele>
        <time>2021-03-14T13:48:09Z</time>
      </trkpt>
      <trkpt lat="43.50235" lon="5.26204">
        <ele>143.85</ele>
        <time>2021-03-14T13:48:11Z</time>
      </trkpt>
      <trkpt lat="43.50243" lon="5.26191">
        <ele>140.49</ele>
        <time>2021-03-14T13:48:19Z</time>
      </trkpt>
      <trkpt lat="43.50252" lon="5.26176">
        <ele>139.53</ele>
        <time>2021-03-14T13:48:30Z</time>
      </trkpt>
      <trkpt lat="43.50256" lon="5.26165">
        <ele>139.53</ele>
        <time>2021-03-14T13:48:38Z</time>
      </trkpt>
      <trkpt lat="43.50262" lon="5.2615">
        <ele>135.68</ele>
        <time>2021-03-14T13:48:49Z</time>
      </trkpt>
      <trkpt lat="43.50269" lon="5.26133">
        <ele>130.4</ele>
        <time>2021-03-14T13:49:13Z</time>
      </trkpt>
      <trkpt lat="43.50282" lon="5.26122">
        <ele>127.51</ele>
        <time>2021-03-14T13:49:23Z</time>
      </trkpt>
      <trkpt lat="43.50293" lon="5.26117">
        <ele>127.99</ele>
        <time>2021-03-14T13:49:38Z</time>
      </trkpt>
      <trkpt lat="43.50307" lon="5.2611">
        <ele>128.95</ele>
        <time>2021-03-14T13:49:49Z</time>
      </trkpt>
      <trkpt lat="43.50318" lon="5.26105">
        <ele>127.99</ele>
        <time>2021-03-14T13:50:00Z</time>
      </trkpt>
      <trkpt lat="43.50328" lon="5.26101">
        <ele>126.55</ele>
        <time>2021-03-14T13:50:11Z</time>
      </trkpt>
      <trkpt lat="43.50343" lon="5.26102">
        <ele>125.59</ele>
        <time>2021-03-14T13:50:25Z</time>
      </trkpt>
      <trkpt lat="43.50359" lon="5.261">
        <ele>126.55</ele>
        <time>2021-03-14T13:50:36Z</time>
      </trkpt>
      <trkpt lat="43.50374" lon="5.26094">
        <ele>127.03</ele>
        <time>2021-03-14T13:50:50Z</time>
      </trkpt>
      <trkpt lat="43.50378" lon="5.26095">
        <ele>126.07</ele>
        <time>2021-03-14T13:50:53Z</time>
      </trkpt>
      <trkpt lat="43.50385" lon="5.26094">
        <ele>124.15</ele>
        <time>2021-03-14T13:51:00Z</time>
      </trkpt>
      <trkpt lat="43.50398" lon="5.26091">
        <ele>124.63</ele>
        <time>2021-03-14T13:51:10Z</time>
      </trkpt>
      <trkpt lat="43.5041" lon="5.26088">
        <ele>123.67</ele>
        <time>2021-03-14T13:51:20Z</time>
      </trkpt>
      <trkpt lat="43.50419" lon="5.26085">
        <ele>122.22</ele>
        <time>2021-03-14T13:51:32Z</time>
      </trkpt>
      <trkpt lat="43.50431" lon="5.26078">
        <ele>119.34</ele>
        <time>2021-03-14T13:51:42Z</time>
      </trkpt>
      <trkpt lat="43.5044" lon="5.26076">
        <ele>119.82</ele>
        <time>2021-03-14T13:51:52Z</time>
      </trkpt>
      <trkpt lat="43.50454" lon="5.26069">
        <ele>115.5</ele>
        <time>2021-03-14T13:52:05Z</time>
      </trkpt>
      <trkpt lat="43.50467" lon="5.26067">
        <ele>110.69</ele>
        <time>2021-03-14T13:52:17Z</time>
      </trkpt>
      <trkpt lat="43.50479" lon="5.26065">
        <ele>110.69</ele>
        <time>2021-03-14T13:52:29Z</time>
      </trkpt>
      <trkpt lat="43.50492" lon="5.26058">
        <ele>110.69</ele>
        <time>2021-03-14T13:52:41Z</time>
      </trkpt>
      <trkpt lat="43.50497" lon="5.26055">
        <ele>112.13</ele>
        <time>2021-03-14T13:52:47Z</time>
      </trkpt>
      <trkpt lat="43.5051" lon="5.26049">
        <ele>114.05</ele>
        <time>2021-03-14T13:53:00Z</time>
      </trkpt>
      <trkpt lat="43.50512" lon="5.26049">
        <ele>114.05</ele>
        <time>2021-03-14T13:53:02Z</time>
      </trkpt>
      <trkpt lat="43.50523" lon="5.26045">
        <ele>115.01</ele>
        <time>2021-03-14T13:53:13Z</time>
      </trkpt>
      <trkpt lat="43.50532" lon="5.2604">
        <ele>115.01</ele>
        <time>2021-03-14T13:53:21Z</time>
      </trkpt>
      <trkpt lat="43.50542" lon="5.26031">
        <ele>115.5</ele>
        <time>2021-03-14T13:53:32Z</time>
      </trkpt>
      <trkpt lat="43.5055" lon="5.26026">
        <ele>117.9</ele>
        <time>2021-03-14T13:53:38Z</time>
      </trkpt>
      <trkpt lat="43.50551" lon="5.26025">
        <ele>118.38</ele>
        <time>2021-03-14T13:53:39Z</time>
      </trkpt>
      <trkpt lat="43.5056" lon="5.26015">
        <ele>119.34</ele>
        <time>2021-03-14T13:53:50Z</time>
      </trkpt>
      <trkpt lat="43.50567" lon="5.26001">
        <ele>117.42</ele>
        <time>2021-03-14T13:54:00Z</time>
      </trkpt>
      <trkpt lat="43.50573" lon="5.2599">
        <ele>115.5</ele>
        <time>2021-03-14T13:54:05Z</time>
      </trkpt>
      <trkpt lat="43.50577" lon="5.25973">
        <ele>113.57</ele>
        <time>2021-03-14T13:54:17Z</time>
      </trkpt>
      <trkpt lat="43.50585" lon="5.25944">
        <ele>112.61</ele>
        <time>2021-03-14T13:54:31Z</time>
      </trkpt>
      <trkpt lat="43.50576" lon="5.25936">
        <ele>115.5</ele>
        <time>2021-03-14T13:54:40Z</time>
      </trkpt>
      <trkpt lat="43.50575" lon="5.25935">
        <ele>115.98</ele>
        <time>2021-03-14T13:54:41Z</time>
      </trkpt>
      <trkpt lat="43.50573" lon="5.25934">
        <ele>116.46</ele>
        <time>2021-03-14T13:54:42Z</time>
      </trkpt>
      <trkpt lat="43.50564" lon="5.25924">
        <ele>119.82</ele>
        <time>2021-03-14T13:54:54Z</time>
      </trkpt>
      <trkpt lat="43.50556" lon="5.25919">
        <ele>121.26</ele>
        <time>2021-03-14T13:55:05Z</time>
      </trkpt>
      <trkpt lat="43.50545" lon="5.25912">
        <ele>119.34</ele>
        <time>2021-03-14T13:55:17Z</time>
      </trkpt>
      <trkpt lat="43.50536" lon="5.25907">
        <ele>117.9</ele>
        <time>2021-03-14T13:55:27Z</time>
      </trkpt>
      <trkpt lat="43.50531" lon="5.25904">
        <ele>116.94</ele>
        <time>2021-03-14T13:55:32Z</time>
      </trkpt>
      <trkpt lat="43.50522" lon="5.25896">
        <ele>116.46</ele>
        <time>2021-03-14T13:55:43Z</time>
      </trkpt>
      <trkpt lat="43.50511" lon="5.25892">
        <ele>116.46</ele>
        <time>2021-03-14T13:55:50Z</time>
      </trkpt>
      <trkpt lat="43.50503" lon="5.25888">
        <ele>115.5</ele>
        <time>2021-03-14T13:55:55Z</time>
      </trkpt>
      <trkpt lat="43.50502" lon="5.25887">
        <ele>115.01</ele>
        <time>2021-03-14T13:55:56Z</time>
      </trkpt>
      <trkpt lat="43.50494" lon="5.25874">
        <ele>113.57</ele>
        <time>2021-03-14T13:56:08Z</time>
      </trkpt>
      <trkpt lat="43.50484" lon="5.25863">
        <ele>115.5</ele>
        <time>2021-03-14T13:56:21Z</time>
      </trkpt>
      <trkpt lat="43.50477" lon="5.25852">
        <ele>113.57</ele>
        <time>2021-03-14T13:56:29Z</time>
      </trkpt>
      <trkpt lat="43.50468" lon="5.25842">
        <ele>110.69</ele>
        <time>2021-03-14T13:56:37Z</time>
      </trkpt>
      <trkpt lat="43.50465" lon="5.2584">
        <ele>109.73</ele>
        <time>2021-03-14T13:56:39Z</time>
      </trkpt>
      <trkpt lat="43.50462" lon="5.25838">
        <ele>109.25</ele>
        <time>2021-03-14T13:56:42Z</time>
      </trkpt>
      <trkpt lat="43.50448" lon="5.25827">
        <ele>106.36</ele>
        <time>2021-03-14T13:56:55Z</time>
      </trkpt>
      <trkpt lat="43.50441" lon="5.25821">
        <ele>104.44</ele>
        <time>2021-03-14T13:57:01Z</time>
      </trkpt>
      <trkpt lat="43.50433" lon="5.25818">
        <ele>102.04</ele>
        <time>2021-03-14T13:57:08Z</time>
      </trkpt>
      <trkpt lat="43.50431" lon="5.25818">
        <ele>101.56</ele>
        <time>2021-03-14T13:57:09Z</time>
      </trkpt>
      <trkpt lat="43.5042" lon="5.25822">
        <ele>97.23</ele>
        <time>2021-03-14T13:57:20Z</time>
      </trkpt>
      <trkpt lat="43.50418" lon="5.25823">
        <ele>96.27</ele>
        <time>2021-03-14T13:57:22Z</time>
      </trkpt>
      <trkpt lat="43.50417" lon="5.25823">
        <ele>95.79</ele>
        <time>2021-03-14T13:57:23Z</time>
      </trkpt>
      <trkpt lat="43.50415" lon="5.25822">
        <ele>95.31</ele>
        <time>2021-03-14T13:57:25Z</time>
      </trkpt>
      <trkpt lat="43.50414" lon="5.25822">
        <ele>94.83</ele>
        <time>2021-03-14T13:57:26Z</time>
      </trkpt>
      <trkpt lat="43.50412" lon="5.25821">
        <ele>93.87</ele>
        <time>2021-03-14T13:57:28Z</time>
      </trkpt>
      <trkpt lat="43.50411" lon="5.2582">
        <ele>93.39</ele>
        <time>2021-03-14T13:57:29Z</time>
      </trkpt>
      <trkpt lat="43.50401" lon="5.25814">
        <ele>95.31</ele>
        <time>2021-03-14T13:57:41Z</time>
      </trkpt>
      <trkpt lat="43.50397" lon="5.25811">
        <ele>97.71</ele>
        <time>2021-03-14T13:57:46Z</time>
      </trkpt>
      <trkpt lat="43.50384" lon="5.25803">
        <ele>100.6</ele>
        <time>2021-03-14T13:57:58Z</time>
      </trkpt>
      <trkpt lat="43.50371" lon="5.25798">
        <ele>101.56</ele>
        <time>2021-03-14T13:58:09Z</time>
      </trkpt>
      <trkpt lat="43.50364" lon="5.25794">
        <ele>103.48</ele>
        <time>2021-03-14T13:58:16Z</time>
      </trkpt>
      <trkpt lat="43.50363" lon="5.25793">
        <ele>103.96</ele>
        <time>2021-03-14T13:58:17Z</time>
      </trkpt>
      <trkpt lat="43.50358" lon="5.25789">
        <ele>108.29</ele>
        <time>2021-03-14T13:58:27Z</time>
      </trkpt>
      <trkpt lat="43.50343" lon="5.25784">
        <ele>108.29</ele>
        <time>2021-03-14T13:58:40Z</time>
      </trkpt>
      <trkpt lat="43.50334" lon="5.25776">
        <ele>109.25</ele>
        <time>2021-03-14T13:58:52Z</time>
      </trkpt>
      <trkpt lat="43.50328" lon="5.2577">
        <ele>110.69</ele>
        <time>2021-03-14T13:59:03Z</time>
      </trkpt>
      <trkpt lat="43.50321" lon="5.25759">
        <ele>113.09</ele>
        <time>2021-03-14T13:59:19Z</time>
      </trkpt>
    </trkseg>
  </trk>
</gpx>